<?xml version="1.0" encoding="UTF-8" standalone="no" ?>
<gpx xmlns="http://www.topografix.com/GPX/1/1" xmlns:xsi="http://www.w3.org/2001/XMLSchema-instance" xsi:schemaLocation="http://www.topografix.com/GPX/1/1 http://www.topografix.com/GPX/1/1/gpx.xsd" version="1.1" creator="VisuGPX - https://www.visugpx.com">
  <metadata>
    <name>NOVEZAN le ravin de la boulègue</name>
    <desc><![CDATA[belle et facile randonnée en passant par le beau viaduc de l\'ancienne ligne de chemin de fer]]></desc>
  </metadata>
  <trk>
    <name><![CDATA[Sequence 1]]></name>
    <trkseg>
      <trkpt lat="44.40112" lon="5.08302">
        <ele>466</ele>
        <time>2015-11-06T13:02:41Z</time>
      </trkpt>
      <trkpt lat="44.40111" lon="5.08307">
        <ele>459</ele>
        <time>2015-11-06T13:02:49Z</time>
      </trkpt>
      <trkpt lat="44.4011" lon="5.08308">
        <ele>457</ele>
        <time>2015-11-06T13:02:53Z</time>
      </trkpt>
      <trkpt lat="44.40109" lon="5.08316">
        <ele>454</ele>
        <time>2015-11-06T13:03:04Z</time>
      </trkpt>
      <trkpt lat="44.40108" lon="5.08325">
        <ele>451</ele>
        <time>2015-11-06T13:03:15Z</time>
      </trkpt>
      <trkpt lat="44.40109" lon="5.08326">
        <ele>452</ele>
        <time>2015-11-06T13:03:26Z</time>
      </trkpt>
      <trkpt lat="44.40102" lon="5.08341">
        <ele>451</ele>
        <time>2015-11-06T13:03:38Z</time>
      </trkpt>
      <trkpt lat="44.401" lon="5.08344">
        <ele>450</ele>
        <time>2015-11-06T13:03:40Z</time>
      </trkpt>
      <trkpt lat="44.40095" lon="5.0836">
        <ele>448</ele>
        <time>2015-11-06T13:03:51Z</time>
      </trkpt>
      <trkpt lat="44.40089" lon="5.08374">
        <ele>448</ele>
        <time>2015-11-06T13:04:02Z</time>
      </trkpt>
      <trkpt lat="44.40078" lon="5.084">
        <ele>445</ele>
        <time>2015-11-06T13:04:22Z</time>
      </trkpt>
      <trkpt lat="44.40075" lon="5.08406">
        <ele>444</ele>
        <time>2015-11-06T13:04:26Z</time>
      </trkpt>
      <trkpt lat="44.40071" lon="5.08413">
        <ele>444</ele>
        <time>2015-11-06T13:04:37Z</time>
      </trkpt>
      <trkpt lat="44.40066" lon="5.08425">
        <ele>445</ele>
        <time>2015-11-06T13:04:46Z</time>
      </trkpt>
      <trkpt lat="44.40056" lon="5.0845">
        <ele>448</ele>
        <time>2015-11-06T13:05:03Z</time>
      </trkpt>
      <trkpt lat="44.40045" lon="5.08467">
        <ele>441</ele>
        <time>2015-11-06T13:05:17Z</time>
      </trkpt>
      <trkpt lat="44.40042" lon="5.0847">
        <ele>440</ele>
        <time>2015-11-06T13:05:20Z</time>
      </trkpt>
      <trkpt lat="44.40034" lon="5.08479">
        <ele>436</ele>
        <time>2015-11-06T13:05:30Z</time>
      </trkpt>
      <trkpt lat="44.40022" lon="5.08492">
        <ele>438</ele>
        <time>2015-11-06T13:05:43Z</time>
      </trkpt>
      <trkpt lat="44.40015" lon="5.08502">
        <ele>439</ele>
        <time>2015-11-06T13:05:52Z</time>
      </trkpt>
      <trkpt lat="44.40001" lon="5.08518">
        <ele>436</ele>
        <time>2015-11-06T13:06:07Z</time>
      </trkpt>
      <trkpt lat="44.39995" lon="5.08523">
        <ele>436</ele>
        <time>2015-11-06T13:06:14Z</time>
      </trkpt>
      <trkpt lat="44.39981" lon="5.08535">
        <ele>437</ele>
        <time>2015-11-06T13:06:28Z</time>
      </trkpt>
      <trkpt lat="44.39972" lon="5.08543">
        <ele>433</ele>
        <time>2015-11-06T13:06:36Z</time>
      </trkpt>
      <trkpt lat="44.39962" lon="5.08552">
        <ele>435</ele>
        <time>2015-11-06T13:06:47Z</time>
      </trkpt>
      <trkpt lat="44.39941" lon="5.08568">
        <ele>432</ele>
        <time>2015-11-06T13:07:07Z</time>
      </trkpt>
      <trkpt lat="44.3994" lon="5.08569">
        <ele>432</ele>
        <time>2015-11-06T13:07:09Z</time>
      </trkpt>
      <trkpt lat="44.39921" lon="5.08577">
        <ele>432</ele>
        <time>2015-11-06T13:07:29Z</time>
      </trkpt>
      <trkpt lat="44.39918" lon="5.08578">
        <ele>432</ele>
        <time>2015-11-06T13:07:31Z</time>
      </trkpt>
      <trkpt lat="44.39902" lon="5.08585">
        <ele>426</ele>
        <time>2015-11-06T13:07:49Z</time>
      </trkpt>
      <trkpt lat="44.39896" lon="5.08588">
        <ele>427</ele>
        <time>2015-11-06T13:07:56Z</time>
      </trkpt>
      <trkpt lat="44.39882" lon="5.08598">
        <ele>428</ele>
        <time>2015-11-06T13:08:10Z</time>
      </trkpt>
      <trkpt lat="44.39874" lon="5.08606">
        <ele>426</ele>
        <time>2015-11-06T13:08:19Z</time>
      </trkpt>
      <trkpt lat="44.39868" lon="5.08612">
        <ele>425</ele>
        <time>2015-11-06T13:08:26Z</time>
      </trkpt>
      <trkpt lat="44.39854" lon="5.08625">
        <ele>425</ele>
        <time>2015-11-06T13:08:41Z</time>
      </trkpt>
      <trkpt lat="44.39849" lon="5.08631">
        <ele>423</ele>
        <time>2015-11-06T13:08:48Z</time>
      </trkpt>
      <trkpt lat="44.39841" lon="5.08638">
        <ele>421</ele>
        <time>2015-11-06T13:08:59Z</time>
      </trkpt>
      <trkpt lat="44.39828" lon="5.08651">
        <ele>422</ele>
        <time>2015-11-06T13:09:15Z</time>
      </trkpt>
      <trkpt lat="44.39823" lon="5.08658">
        <ele>422</ele>
        <time>2015-11-06T13:09:21Z</time>
      </trkpt>
      <trkpt lat="44.39813" lon="5.0867">
        <ele>420</ele>
        <time>2015-11-06T13:09:32Z</time>
      </trkpt>
      <trkpt lat="44.39805" lon="5.08681">
        <ele>418</ele>
        <time>2015-11-06T13:09:43Z</time>
      </trkpt>
      <trkpt lat="44.39794" lon="5.08691">
        <ele>419</ele>
        <time>2015-11-06T13:09:54Z</time>
      </trkpt>
      <trkpt lat="44.39784" lon="5.08702">
        <ele>417</ele>
        <time>2015-11-06T13:10:05Z</time>
      </trkpt>
      <trkpt lat="44.39774" lon="5.08712">
        <ele>417</ele>
        <time>2015-11-06T13:10:16Z</time>
      </trkpt>
      <trkpt lat="44.39764" lon="5.0872">
        <ele>414</ele>
        <time>2015-11-06T13:10:28Z</time>
      </trkpt>
      <trkpt lat="44.39754" lon="5.08731">
        <ele>415</ele>
        <time>2015-11-06T13:10:38Z</time>
      </trkpt>
      <trkpt lat="44.39744" lon="5.08741">
        <ele>417</ele>
        <time>2015-11-06T13:10:49Z</time>
      </trkpt>
      <trkpt lat="44.39735" lon="5.08753">
        <ele>417</ele>
        <time>2015-11-06T13:11:00Z</time>
      </trkpt>
      <trkpt lat="44.39726" lon="5.08768">
        <ele>418</ele>
        <time>2015-11-06T13:11:12Z</time>
      </trkpt>
      <trkpt lat="44.39718" lon="5.08781">
        <ele>418</ele>
        <time>2015-11-06T13:11:22Z</time>
      </trkpt>
      <trkpt lat="44.39708" lon="5.08791">
        <ele>420</ele>
        <time>2015-11-06T13:11:33Z</time>
      </trkpt>
      <trkpt lat="44.39698" lon="5.08801">
        <ele>420</ele>
        <time>2015-11-06T13:11:44Z</time>
      </trkpt>
      <trkpt lat="44.39687" lon="5.0881">
        <ele>421</ele>
        <time>2015-11-06T13:11:55Z</time>
      </trkpt>
      <trkpt lat="44.39671" lon="5.08831">
        <ele>420</ele>
        <time>2015-11-06T13:12:14Z</time>
      </trkpt>
      <trkpt lat="44.39669" lon="5.08835">
        <ele>420</ele>
        <time>2015-11-06T13:12:17Z</time>
      </trkpt>
      <trkpt lat="44.39662" lon="5.08847">
        <ele>422</ele>
        <time>2015-11-06T13:12:29Z</time>
      </trkpt>
      <trkpt lat="44.39652" lon="5.0886">
        <ele>421</ele>
        <time>2015-11-06T13:12:42Z</time>
      </trkpt>
      <trkpt lat="44.39646" lon="5.08867">
        <ele>420</ele>
        <time>2015-11-06T13:12:51Z</time>
      </trkpt>
      <trkpt lat="44.3963" lon="5.08882">
        <ele>418</ele>
        <time>2015-11-06T13:13:04Z</time>
      </trkpt>
      <trkpt lat="44.39623" lon="5.08891">
        <ele>418</ele>
        <time>2015-11-06T13:13:12Z</time>
      </trkpt>
      <trkpt lat="44.39613" lon="5.08902">
        <ele>417</ele>
        <time>2015-11-06T13:13:23Z</time>
      </trkpt>
      <trkpt lat="44.39602" lon="5.0891">
        <ele>416</ele>
        <time>2015-11-06T13:13:34Z</time>
      </trkpt>
      <trkpt lat="44.39597" lon="5.08919">
        <ele>416</ele>
        <time>2015-11-06T13:13:45Z</time>
      </trkpt>
      <trkpt lat="44.39592" lon="5.0893">
        <ele>416</ele>
        <time>2015-11-06T13:13:56Z</time>
      </trkpt>
      <trkpt lat="44.39581" lon="5.08961">
        <ele>415</ele>
        <time>2015-11-06T13:14:15Z</time>
      </trkpt>
      <trkpt lat="44.39577" lon="5.08971">
        <ele>414</ele>
        <time>2015-11-06T13:14:21Z</time>
      </trkpt>
      <trkpt lat="44.39567" lon="5.08998">
        <ele>415</ele>
        <time>2015-11-06T13:14:39Z</time>
      </trkpt>
      <trkpt lat="44.39562" lon="5.09007">
        <ele>414</ele>
        <time>2015-11-06T13:14:45Z</time>
      </trkpt>
      <trkpt lat="44.39558" lon="5.09015">
        <ele>414</ele>
        <time>2015-11-06T13:14:51Z</time>
      </trkpt>
      <trkpt lat="44.3955" lon="5.0903">
        <ele>412</ele>
        <time>2015-11-06T13:15:02Z</time>
      </trkpt>
      <trkpt lat="44.39538" lon="5.0903">
        <ele>410</ele>
        <time>2015-11-06T13:15:13Z</time>
      </trkpt>
      <trkpt lat="44.39528" lon="5.09019">
        <ele>410</ele>
        <time>2015-11-06T13:15:24Z</time>
      </trkpt>
      <trkpt lat="44.39517" lon="5.09009">
        <ele>411</ele>
        <time>2015-11-06T13:15:35Z</time>
      </trkpt>
      <trkpt lat="44.39506" lon="5.08999">
        <ele>411</ele>
        <time>2015-11-06T13:15:46Z</time>
      </trkpt>
      <trkpt lat="44.39495" lon="5.08989">
        <ele>411</ele>
        <time>2015-11-06T13:15:57Z</time>
      </trkpt>
      <trkpt lat="44.39485" lon="5.08979">
        <ele>411</ele>
        <time>2015-11-06T13:16:08Z</time>
      </trkpt>
      <trkpt lat="44.39477" lon="5.08967">
        <ele>411</ele>
        <time>2015-11-06T13:16:19Z</time>
      </trkpt>
      <trkpt lat="44.39469" lon="5.08953">
        <ele>410</ele>
        <time>2015-11-06T13:16:30Z</time>
      </trkpt>
      <trkpt lat="44.39459" lon="5.08943">
        <ele>409</ele>
        <time>2015-11-06T13:16:41Z</time>
      </trkpt>
      <trkpt lat="44.39449" lon="5.08934">
        <ele>409</ele>
        <time>2015-11-06T13:16:52Z</time>
      </trkpt>
      <trkpt lat="44.39438" lon="5.08924">
        <ele>409</ele>
        <time>2015-11-06T13:17:03Z</time>
      </trkpt>
      <trkpt lat="44.39428" lon="5.08913">
        <ele>408</ele>
        <time>2015-11-06T13:17:14Z</time>
      </trkpt>
      <trkpt lat="44.39419" lon="5.08902">
        <ele>407</ele>
        <time>2015-11-06T13:17:25Z</time>
      </trkpt>
      <trkpt lat="44.39409" lon="5.08893">
        <ele>407</ele>
        <time>2015-11-06T13:17:36Z</time>
      </trkpt>
      <trkpt lat="44.39399" lon="5.08883">
        <ele>406</ele>
        <time>2015-11-06T13:17:47Z</time>
      </trkpt>
      <trkpt lat="44.39389" lon="5.08871">
        <ele>405</ele>
        <time>2015-11-06T13:17:58Z</time>
      </trkpt>
      <trkpt lat="44.39379" lon="5.08864">
        <ele>405</ele>
        <time>2015-11-06T13:18:09Z</time>
      </trkpt>
      <trkpt lat="44.39371" lon="5.08851">
        <ele>403</ele>
        <time>2015-11-06T13:18:20Z</time>
      </trkpt>
      <trkpt lat="44.39361" lon="5.08841">
        <ele>403</ele>
        <time>2015-11-06T13:18:31Z</time>
      </trkpt>
      <trkpt lat="44.3935" lon="5.08832">
        <ele>403</ele>
        <time>2015-11-06T13:18:42Z</time>
      </trkpt>
      <trkpt lat="44.39339" lon="5.08821">
        <ele>404</ele>
        <time>2015-11-06T13:18:53Z</time>
      </trkpt>
      <trkpt lat="44.3933" lon="5.08811">
        <ele>403</ele>
        <time>2015-11-06T13:19:04Z</time>
      </trkpt>
      <trkpt lat="44.39319" lon="5.08802">
        <ele>404</ele>
        <time>2015-11-06T13:19:15Z</time>
      </trkpt>
      <trkpt lat="44.39306" lon="5.08798">
        <ele>403</ele>
        <time>2015-11-06T13:19:26Z</time>
      </trkpt>
      <trkpt lat="44.39294" lon="5.08798">
        <ele>402</ele>
        <time>2015-11-06T13:19:37Z</time>
      </trkpt>
      <trkpt lat="44.39284" lon="5.08799">
        <ele>401</ele>
        <time>2015-11-06T13:19:48Z</time>
      </trkpt>
      <trkpt lat="44.39273" lon="5.08797">
        <ele>401</ele>
        <time>2015-11-06T13:19:59Z</time>
      </trkpt>
      <trkpt lat="44.39261" lon="5.08792">
        <ele>400</ele>
        <time>2015-11-06T13:20:10Z</time>
      </trkpt>
      <trkpt lat="44.39249" lon="5.08787">
        <ele>400</ele>
        <time>2015-11-06T13:20:21Z</time>
      </trkpt>
      <trkpt lat="44.39238" lon="5.08779">
        <ele>399</ele>
        <time>2015-11-06T13:20:32Z</time>
      </trkpt>
      <trkpt lat="44.39237" lon="5.08763">
        <ele>399</ele>
        <time>2015-11-06T13:20:43Z</time>
      </trkpt>
      <trkpt lat="44.39238" lon="5.08763">
        <ele>399</ele>
        <time>2015-11-06T13:20:54Z</time>
      </trkpt>
      <trkpt lat="44.39238" lon="5.08763">
        <ele>399</ele>
        <time>2015-11-06T13:20:57Z</time>
      </trkpt>
      <trkpt lat="44.39237" lon="5.08761">
        <ele>399</ele>
        <time>2015-11-06T13:21:00Z</time>
      </trkpt>
      <trkpt lat="44.39236" lon="5.08759">
        <ele>399</ele>
        <time>2015-11-06T13:21:11Z</time>
      </trkpt>
      <trkpt lat="44.39237" lon="5.08761">
        <ele>398</ele>
        <time>2015-11-06T13:21:20Z</time>
      </trkpt>
      <trkpt lat="44.39237" lon="5.08762">
        <ele>398</ele>
        <time>2015-11-06T13:21:23Z</time>
      </trkpt>
      <trkpt lat="44.39237" lon="5.08761">
        <ele>398</ele>
        <time>2015-11-06T13:21:26Z</time>
      </trkpt>
      <trkpt lat="44.39236" lon="5.08759">
        <ele>398</ele>
        <time>2015-11-06T13:21:37Z</time>
      </trkpt>
      <trkpt lat="44.39236" lon="5.08759">
        <ele>398</ele>
        <time>2015-11-06T13:21:40Z</time>
      </trkpt>
      <trkpt lat="44.39236" lon="5.08759">
        <ele>398</ele>
        <time>2015-11-06T13:21:43Z</time>
      </trkpt>
      <trkpt lat="44.39236" lon="5.08759">
        <ele>398</ele>
        <time>2015-11-06T13:21:46Z</time>
      </trkpt>
      <trkpt lat="44.39236" lon="5.08759">
        <ele>398</ele>
        <time>2015-11-06T13:21:49Z</time>
      </trkpt>
      <trkpt lat="44.39236" lon="5.08759">
        <ele>398</ele>
        <time>2015-11-06T13:21:52Z</time>
      </trkpt>
      <trkpt lat="44.39236" lon="5.08759">
        <ele>398</ele>
        <time>2015-11-06T13:21:55Z</time>
      </trkpt>
      <trkpt lat="44.39236" lon="5.08758">
        <ele>398</ele>
        <time>2015-11-06T13:21:58Z</time>
      </trkpt>
      <trkpt lat="44.39235" lon="5.08758">
        <ele>398</ele>
        <time>2015-11-06T13:22:01Z</time>
      </trkpt>
      <trkpt lat="44.39235" lon="5.08755">
        <ele>398</ele>
        <time>2015-11-06T13:22:12Z</time>
      </trkpt>
      <trkpt lat="44.39235" lon="5.08755">
        <ele>398</ele>
        <time>2015-11-06T13:22:15Z</time>
      </trkpt>
      <trkpt lat="44.39235" lon="5.08753">
        <ele>398</ele>
        <time>2015-11-06T13:22:18Z</time>
      </trkpt>
      <trkpt lat="44.39234" lon="5.08751">
        <ele>399</ele>
        <time>2015-11-06T13:22:29Z</time>
      </trkpt>
      <trkpt lat="44.39224" lon="5.0875">
        <ele>398</ele>
        <time>2015-11-06T13:22:40Z</time>
      </trkpt>
      <trkpt lat="44.39216" lon="5.08753">
        <ele>397</ele>
        <time>2015-11-06T13:22:51Z</time>
      </trkpt>
      <trkpt lat="44.39206" lon="5.08753">
        <ele>396</ele>
        <time>2015-11-06T13:23:02Z</time>
      </trkpt>
      <trkpt lat="44.39196" lon="5.08737">
        <ele>397</ele>
        <time>2015-11-06T13:23:16Z</time>
      </trkpt>
      <trkpt lat="44.39196" lon="5.08725">
        <ele>396</ele>
        <time>2015-11-06T13:23:24Z</time>
      </trkpt>
      <trkpt lat="44.39204" lon="5.08716">
        <ele>396</ele>
        <time>2015-11-06T13:23:35Z</time>
      </trkpt>
      <trkpt lat="44.39214" lon="5.08707">
        <ele>396</ele>
        <time>2015-11-06T13:23:46Z</time>
      </trkpt>
      <trkpt lat="44.39224" lon="5.08698">
        <ele>397</ele>
        <time>2015-11-06T13:23:57Z</time>
      </trkpt>
      <trkpt lat="44.39233" lon="5.0869">
        <ele>396</ele>
        <time>2015-11-06T13:24:08Z</time>
      </trkpt>
      <trkpt lat="44.39244" lon="5.08683">
        <ele>396</ele>
        <time>2015-11-06T13:24:19Z</time>
      </trkpt>
      <trkpt lat="44.39255" lon="5.08678">
        <ele>395</ele>
        <time>2015-11-06T13:24:30Z</time>
      </trkpt>
      <trkpt lat="44.39265" lon="5.08669">
        <ele>397</ele>
        <time>2015-11-06T13:24:41Z</time>
      </trkpt>
      <trkpt lat="44.39275" lon="5.08661">
        <ele>397</ele>
        <time>2015-11-06T13:24:52Z</time>
      </trkpt>
      <trkpt lat="44.39285" lon="5.08653">
        <ele>396</ele>
        <time>2015-11-06T13:25:03Z</time>
      </trkpt>
      <trkpt lat="44.39294" lon="5.08647">
        <ele>397</ele>
        <time>2015-11-06T13:25:15Z</time>
      </trkpt>
      <trkpt lat="44.39303" lon="5.08638">
        <ele>397</ele>
        <time>2015-11-06T13:25:25Z</time>
      </trkpt>
      <trkpt lat="44.39312" lon="5.08629">
        <ele>401</ele>
        <time>2015-11-06T13:25:36Z</time>
      </trkpt>
      <trkpt lat="44.3932" lon="5.08621">
        <ele>402</ele>
        <time>2015-11-06T13:25:47Z</time>
      </trkpt>
      <trkpt lat="44.3933" lon="5.08615">
        <ele>402</ele>
        <time>2015-11-06T13:25:58Z</time>
      </trkpt>
      <trkpt lat="44.3934" lon="5.08604">
        <ele>401</ele>
        <time>2015-11-06T13:26:09Z</time>
      </trkpt>
      <trkpt lat="44.39349" lon="5.08596">
        <ele>402</ele>
        <time>2015-11-06T13:26:20Z</time>
      </trkpt>
      <trkpt lat="44.39358" lon="5.08586">
        <ele>402</ele>
        <time>2015-11-06T13:26:31Z</time>
      </trkpt>
      <trkpt lat="44.39367" lon="5.08577">
        <ele>403</ele>
        <time>2015-11-06T13:26:42Z</time>
      </trkpt>
      <trkpt lat="44.39377" lon="5.08568">
        <ele>403</ele>
        <time>2015-11-06T13:26:53Z</time>
      </trkpt>
      <trkpt lat="44.39387" lon="5.08557">
        <ele>404</ele>
        <time>2015-11-06T13:27:04Z</time>
      </trkpt>
      <trkpt lat="44.39397" lon="5.08547">
        <ele>404</ele>
        <time>2015-11-06T13:27:15Z</time>
      </trkpt>
      <trkpt lat="44.39407" lon="5.08539">
        <ele>406</ele>
        <time>2015-11-06T13:27:26Z</time>
      </trkpt>
      <trkpt lat="44.39416" lon="5.08537">
        <ele>408</ele>
        <time>2015-11-06T13:27:37Z</time>
      </trkpt>
      <trkpt lat="44.39425" lon="5.08528">
        <ele>408</ele>
        <time>2015-11-06T13:27:48Z</time>
      </trkpt>
      <trkpt lat="44.39435" lon="5.08518">
        <ele>407</ele>
        <time>2015-11-06T13:27:59Z</time>
      </trkpt>
      <trkpt lat="44.39444" lon="5.08509">
        <ele>405</ele>
        <time>2015-11-06T13:28:10Z</time>
      </trkpt>
      <trkpt lat="44.39454" lon="5.085">
        <ele>404</ele>
        <time>2015-11-06T13:28:21Z</time>
      </trkpt>
      <trkpt lat="44.39464" lon="5.0849">
        <ele>404</ele>
        <time>2015-11-06T13:28:32Z</time>
      </trkpt>
      <trkpt lat="44.39474" lon="5.08481">
        <ele>405</ele>
        <time>2015-11-06T13:28:43Z</time>
      </trkpt>
      <trkpt lat="44.39481" lon="5.0847">
        <ele>406</ele>
        <time>2015-11-06T13:28:54Z</time>
      </trkpt>
      <trkpt lat="44.39491" lon="5.08462">
        <ele>405</ele>
        <time>2015-11-06T13:29:05Z</time>
      </trkpt>
      <trkpt lat="44.395" lon="5.08452">
        <ele>406</ele>
        <time>2015-11-06T13:29:16Z</time>
      </trkpt>
      <trkpt lat="44.39509" lon="5.08442">
        <ele>409</ele>
        <time>2015-11-06T13:29:27Z</time>
      </trkpt>
      <trkpt lat="44.39519" lon="5.0843">
        <ele>411</ele>
        <time>2015-11-06T13:29:40Z</time>
      </trkpt>
      <trkpt lat="44.39526" lon="5.08421">
        <ele>415</ele>
        <time>2015-11-06T13:29:51Z</time>
      </trkpt>
      <trkpt lat="44.39536" lon="5.08413">
        <ele>413</ele>
        <time>2015-11-06T13:30:03Z</time>
      </trkpt>
      <trkpt lat="44.39543" lon="5.08408">
        <ele>412</ele>
        <time>2015-11-06T13:30:11Z</time>
      </trkpt>
      <trkpt lat="44.39552" lon="5.08399">
        <ele>410</ele>
        <time>2015-11-06T13:30:22Z</time>
      </trkpt>
      <trkpt lat="44.39563" lon="5.08387">
        <ele>410</ele>
        <time>2015-11-06T13:30:35Z</time>
      </trkpt>
      <trkpt lat="44.3957" lon="5.08378">
        <ele>411</ele>
        <time>2015-11-06T13:30:44Z</time>
      </trkpt>
      <trkpt lat="44.3958" lon="5.08368">
        <ele>411</ele>
        <time>2015-11-06T13:30:55Z</time>
      </trkpt>
      <trkpt lat="44.39589" lon="5.08357">
        <ele>412</ele>
        <time>2015-11-06T13:31:06Z</time>
      </trkpt>
      <trkpt lat="44.39599" lon="5.08348">
        <ele>415</ele>
        <time>2015-11-06T13:31:17Z</time>
      </trkpt>
      <trkpt lat="44.39608" lon="5.08339">
        <ele>416</ele>
        <time>2015-11-06T13:31:28Z</time>
      </trkpt>
      <trkpt lat="44.39622" lon="5.08327">
        <ele>416</ele>
        <time>2015-11-06T13:31:43Z</time>
      </trkpt>
      <trkpt lat="44.39627" lon="5.08323">
        <ele>418</ele>
        <time>2015-11-06T13:31:50Z</time>
      </trkpt>
      <trkpt lat="44.39635" lon="5.08314">
        <ele>418</ele>
        <time>2015-11-06T13:32:01Z</time>
      </trkpt>
      <trkpt lat="44.39645" lon="5.08304">
        <ele>421</ele>
        <time>2015-11-06T13:32:12Z</time>
      </trkpt>
      <trkpt lat="44.39653" lon="5.08293">
        <ele>421</ele>
        <time>2015-11-06T13:32:23Z</time>
      </trkpt>
      <trkpt lat="44.39663" lon="5.08285">
        <ele>421</ele>
        <time>2015-11-06T13:32:34Z</time>
      </trkpt>
      <trkpt lat="44.39672" lon="5.08276">
        <ele>421</ele>
        <time>2015-11-06T13:32:45Z</time>
      </trkpt>
      <trkpt lat="44.39682" lon="5.08262">
        <ele>423</ele>
        <time>2015-11-06T13:32:58Z</time>
      </trkpt>
      <trkpt lat="44.39691" lon="5.08254">
        <ele>422</ele>
        <time>2015-11-06T13:33:07Z</time>
      </trkpt>
      <trkpt lat="44.397" lon="5.08242">
        <ele>423</ele>
        <time>2015-11-06T13:33:18Z</time>
      </trkpt>
      <trkpt lat="44.39708" lon="5.08231">
        <ele>423</ele>
        <time>2015-11-06T13:33:29Z</time>
      </trkpt>
      <trkpt lat="44.39716" lon="5.08219">
        <ele>421</ele>
        <time>2015-11-06T13:33:40Z</time>
      </trkpt>
      <trkpt lat="44.39724" lon="5.08205">
        <ele>421</ele>
        <time>2015-11-06T13:33:51Z</time>
      </trkpt>
      <trkpt lat="44.39732" lon="5.0819">
        <ele>421</ele>
        <time>2015-11-06T13:34:03Z</time>
      </trkpt>
      <trkpt lat="44.39739" lon="5.0818">
        <ele>421</ele>
        <time>2015-11-06T13:34:13Z</time>
      </trkpt>
      <trkpt lat="44.39745" lon="5.08166">
        <ele>421</ele>
        <time>2015-11-06T13:34:24Z</time>
      </trkpt>
      <trkpt lat="44.39752" lon="5.08153">
        <ele>421</ele>
        <time>2015-11-06T13:34:35Z</time>
      </trkpt>
      <trkpt lat="44.39758" lon="5.08142">
        <ele>419</ele>
        <time>2015-11-06T13:34:46Z</time>
      </trkpt>
      <trkpt lat="44.39761" lon="5.08127">
        <ele>421</ele>
        <time>2015-11-06T13:34:57Z</time>
      </trkpt>
      <trkpt lat="44.39765" lon="5.08111">
        <ele>420</ele>
        <time>2015-11-06T13:35:08Z</time>
      </trkpt>
      <trkpt lat="44.39768" lon="5.08095">
        <ele>417</ele>
        <time>2015-11-06T13:35:19Z</time>
      </trkpt>
      <trkpt lat="44.39772" lon="5.08078">
        <ele>416</ele>
        <time>2015-11-06T13:35:30Z</time>
      </trkpt>
      <trkpt lat="44.39776" lon="5.08062">
        <ele>414</ele>
        <time>2015-11-06T13:35:41Z</time>
      </trkpt>
      <trkpt lat="44.39778" lon="5.08037">
        <ele>412</ele>
        <time>2015-11-06T13:35:57Z</time>
      </trkpt>
      <trkpt lat="44.39775" lon="5.08025">
        <ele>413</ele>
        <time>2015-11-06T13:36:07Z</time>
      </trkpt>
      <trkpt lat="44.39769" lon="5.08022">
        <ele>415</ele>
        <time>2015-11-06T13:36:14Z</time>
      </trkpt>
      <trkpt lat="44.39758" lon="5.08019">
        <ele>416</ele>
        <time>2015-11-06T13:36:25Z</time>
      </trkpt>
      <trkpt lat="44.39748" lon="5.08014">
        <ele>416</ele>
        <time>2015-11-06T13:36:36Z</time>
      </trkpt>
      <trkpt lat="44.39736" lon="5.08008">
        <ele>416</ele>
        <time>2015-11-06T13:36:47Z</time>
      </trkpt>
      <trkpt lat="44.39725" lon="5.08001">
        <ele>416</ele>
        <time>2015-11-06T13:36:58Z</time>
      </trkpt>
      <trkpt lat="44.39714" lon="5.07991">
        <ele>415</ele>
        <time>2015-11-06T13:37:09Z</time>
      </trkpt>
      <trkpt lat="44.39705" lon="5.07982">
        <ele>415</ele>
        <time>2015-11-06T13:37:20Z</time>
      </trkpt>
      <trkpt lat="44.39694" lon="5.07972">
        <ele>414</ele>
        <time>2015-11-06T13:37:31Z</time>
      </trkpt>
      <trkpt lat="44.39685" lon="5.07963">
        <ele>413</ele>
        <time>2015-11-06T13:37:42Z</time>
      </trkpt>
      <trkpt lat="44.39675" lon="5.07954">
        <ele>412</ele>
        <time>2015-11-06T13:37:53Z</time>
      </trkpt>
      <trkpt lat="44.39665" lon="5.07945">
        <ele>413</ele>
        <time>2015-11-06T13:38:04Z</time>
      </trkpt>
      <trkpt lat="44.39655" lon="5.07936">
        <ele>412</ele>
        <time>2015-11-06T13:38:15Z</time>
      </trkpt>
      <trkpt lat="44.39645" lon="5.07927">
        <ele>412</ele>
        <time>2015-11-06T13:38:26Z</time>
      </trkpt>
      <trkpt lat="44.39635" lon="5.07918">
        <ele>411</ele>
        <time>2015-11-06T13:38:37Z</time>
      </trkpt>
      <trkpt lat="44.39625" lon="5.07906">
        <ele>411</ele>
        <time>2015-11-06T13:38:48Z</time>
      </trkpt>
      <trkpt lat="44.39615" lon="5.07896">
        <ele>411</ele>
        <time>2015-11-06T13:38:59Z</time>
      </trkpt>
      <trkpt lat="44.39605" lon="5.07887">
        <ele>411</ele>
        <time>2015-11-06T13:39:10Z</time>
      </trkpt>
      <trkpt lat="44.39594" lon="5.07878">
        <ele>411</ele>
        <time>2015-11-06T13:39:21Z</time>
      </trkpt>
      <trkpt lat="44.39585" lon="5.07868">
        <ele>410</ele>
        <time>2015-11-06T13:39:32Z</time>
      </trkpt>
      <trkpt lat="44.39574" lon="5.07859">
        <ele>410</ele>
        <time>2015-11-06T13:39:43Z</time>
      </trkpt>
      <trkpt lat="44.39563" lon="5.07851">
        <ele>409</ele>
        <time>2015-11-06T13:39:54Z</time>
      </trkpt>
      <trkpt lat="44.39552" lon="5.07846">
        <ele>408</ele>
        <time>2015-11-06T13:40:05Z</time>
      </trkpt>
      <trkpt lat="44.39542" lon="5.07842">
        <ele>407</ele>
        <time>2015-11-06T13:40:16Z</time>
      </trkpt>
      <trkpt lat="44.39543" lon="5.07842">
        <ele>408</ele>
        <time>2015-11-06T13:40:27Z</time>
      </trkpt>
      <trkpt lat="44.39543" lon="5.07842">
        <ele>408</ele>
        <time>2015-11-06T13:40:30Z</time>
      </trkpt>
      <trkpt lat="44.39543" lon="5.07842">
        <ele>408</ele>
        <time>2015-11-06T13:40:33Z</time>
      </trkpt>
      <trkpt lat="44.39543" lon="5.07842">
        <ele>408</ele>
        <time>2015-11-06T13:40:36Z</time>
      </trkpt>
      <trkpt lat="44.39543" lon="5.07842">
        <ele>408</ele>
        <time>2015-11-06T13:40:39Z</time>
      </trkpt>
      <trkpt lat="44.39543" lon="5.07842">
        <ele>408</ele>
        <time>2015-11-06T13:40:42Z</time>
      </trkpt>
      <trkpt lat="44.39543" lon="5.07842">
        <ele>408</ele>
        <time>2015-11-06T13:40:45Z</time>
      </trkpt>
      <trkpt lat="44.39543" lon="5.07842">
        <ele>408</ele>
        <time>2015-11-06T13:40:48Z</time>
      </trkpt>
      <trkpt lat="44.39543" lon="5.07842">
        <ele>408</ele>
        <time>2015-11-06T13:40:51Z</time>
      </trkpt>
      <trkpt lat="44.39543" lon="5.07842">
        <ele>408</ele>
        <time>2015-11-06T13:40:54Z</time>
      </trkpt>
      <trkpt lat="44.39543" lon="5.07842">
        <ele>408</ele>
        <time>2015-11-06T13:40:57Z</time>
      </trkpt>
      <trkpt lat="44.39543" lon="5.07842">
        <ele>408</ele>
        <time>2015-11-06T13:41:00Z</time>
      </trkpt>
      <trkpt lat="44.39543" lon="5.07842">
        <ele>408</ele>
        <time>2015-11-06T13:41:03Z</time>
      </trkpt>
      <trkpt lat="44.39543" lon="5.07842">
        <ele>408</ele>
        <time>2015-11-06T13:41:06Z</time>
      </trkpt>
      <trkpt lat="44.39543" lon="5.07842">
        <ele>408</ele>
        <time>2015-11-06T13:41:09Z</time>
      </trkpt>
      <trkpt lat="44.39543" lon="5.07842">
        <ele>408</ele>
        <time>2015-11-06T13:41:12Z</time>
      </trkpt>
      <trkpt lat="44.39543" lon="5.07842">
        <ele>408</ele>
        <time>2015-11-06T13:41:15Z</time>
      </trkpt>
      <trkpt lat="44.39543" lon="5.07842">
        <ele>408</ele>
        <time>2015-11-06T13:41:18Z</time>
      </trkpt>
      <trkpt lat="44.39543" lon="5.07842">
        <ele>408</ele>
        <time>2015-11-06T13:41:21Z</time>
      </trkpt>
      <trkpt lat="44.39543" lon="5.07842">
        <ele>408</ele>
        <time>2015-11-06T13:41:24Z</time>
      </trkpt>
      <trkpt lat="44.39543" lon="5.07842">
        <ele>408</ele>
        <time>2015-11-06T13:41:27Z</time>
      </trkpt>
      <trkpt lat="44.39543" lon="5.07842">
        <ele>408</ele>
        <time>2015-11-06T13:41:30Z</time>
      </trkpt>
      <trkpt lat="44.39543" lon="5.07842">
        <ele>408</ele>
        <time>2015-11-06T13:41:33Z</time>
      </trkpt>
      <trkpt lat="44.39543" lon="5.07842">
        <ele>408</ele>
        <time>2015-11-06T13:41:36Z</time>
      </trkpt>
      <trkpt lat="44.39543" lon="5.07842">
        <ele>408</ele>
        <time>2015-11-06T13:41:39Z</time>
      </trkpt>
      <trkpt lat="44.39543" lon="5.07841">
        <ele>408</ele>
        <time>2015-11-06T13:41:42Z</time>
      </trkpt>
      <trkpt lat="44.39543" lon="5.07841">
        <ele>408</ele>
        <time>2015-11-06T13:41:45Z</time>
      </trkpt>
      <trkpt lat="44.39543" lon="5.07841">
        <ele>408</ele>
        <time>2015-11-06T13:41:48Z</time>
      </trkpt>
      <trkpt lat="44.39543" lon="5.07841">
        <ele>408</ele>
        <time>2015-11-06T13:41:51Z</time>
      </trkpt>
      <trkpt lat="44.39543" lon="5.07841">
        <ele>408</ele>
        <time>2015-11-06T13:41:54Z</time>
      </trkpt>
      <trkpt lat="44.39543" lon="5.07841">
        <ele>408</ele>
        <time>2015-11-06T13:41:57Z</time>
      </trkpt>
      <trkpt lat="44.39543" lon="5.07841">
        <ele>408</ele>
        <time>2015-11-06T13:42:00Z</time>
      </trkpt>
      <trkpt lat="44.39543" lon="5.07841">
        <ele>408</ele>
        <time>2015-11-06T13:42:03Z</time>
      </trkpt>
      <trkpt lat="44.39543" lon="5.07841">
        <ele>408</ele>
        <time>2015-11-06T13:42:06Z</time>
      </trkpt>
      <trkpt lat="44.39543" lon="5.07841">
        <ele>408</ele>
        <time>2015-11-06T13:42:09Z</time>
      </trkpt>
      <trkpt lat="44.39543" lon="5.07841">
        <ele>408</ele>
        <time>2015-11-06T13:42:12Z</time>
      </trkpt>
      <trkpt lat="44.39543" lon="5.07841">
        <ele>408</ele>
        <time>2015-11-06T13:42:15Z</time>
      </trkpt>
      <trkpt lat="44.39543" lon="5.07841">
        <ele>408</ele>
        <time>2015-11-06T13:42:18Z</time>
      </trkpt>
      <trkpt lat="44.39543" lon="5.07841">
        <ele>408</ele>
        <time>2015-11-06T13:42:21Z</time>
      </trkpt>
      <trkpt lat="44.39543" lon="5.07841">
        <ele>408</ele>
        <time>2015-11-06T13:42:24Z</time>
      </trkpt>
      <trkpt lat="44.39543" lon="5.07841">
        <ele>408</ele>
        <time>2015-11-06T13:42:27Z</time>
      </trkpt>
      <trkpt lat="44.39543" lon="5.07841">
        <ele>408</ele>
        <time>2015-11-06T13:42:30Z</time>
      </trkpt>
      <trkpt lat="44.39543" lon="5.07841">
        <ele>408</ele>
        <time>2015-11-06T13:42:33Z</time>
      </trkpt>
      <trkpt lat="44.39543" lon="5.07841">
        <ele>408</ele>
        <time>2015-11-06T13:42:36Z</time>
      </trkpt>
      <trkpt lat="44.39543" lon="5.07841">
        <ele>408</ele>
        <time>2015-11-06T13:42:39Z</time>
      </trkpt>
      <trkpt lat="44.39543" lon="5.07841">
        <ele>408</ele>
        <time>2015-11-06T13:42:42Z</time>
      </trkpt>
      <trkpt lat="44.39543" lon="5.07841">
        <ele>408</ele>
        <time>2015-11-06T13:42:45Z</time>
      </trkpt>
      <trkpt lat="44.39543" lon="5.07841">
        <ele>408</ele>
        <time>2015-11-06T13:42:48Z</time>
      </trkpt>
      <trkpt lat="44.39543" lon="5.07841">
        <ele>408</ele>
        <time>2015-11-06T13:42:51Z</time>
      </trkpt>
      <trkpt lat="44.39543" lon="5.07841">
        <ele>409</ele>
        <time>2015-11-06T13:42:54Z</time>
      </trkpt>
      <trkpt lat="44.39543" lon="5.07841">
        <ele>408</ele>
        <time>2015-11-06T13:42:57Z</time>
      </trkpt>
      <trkpt lat="44.39543" lon="5.07841">
        <ele>408</ele>
        <time>2015-11-06T13:43:00Z</time>
      </trkpt>
      <trkpt lat="44.39543" lon="5.07841">
        <ele>408</ele>
        <time>2015-11-06T13:43:03Z</time>
      </trkpt>
      <trkpt lat="44.39543" lon="5.07841">
        <ele>408</ele>
        <time>2015-11-06T13:43:06Z</time>
      </trkpt>
      <trkpt lat="44.39543" lon="5.07841">
        <ele>408</ele>
        <time>2015-11-06T13:43:09Z</time>
      </trkpt>
      <trkpt lat="44.39543" lon="5.07841">
        <ele>408</ele>
        <time>2015-11-06T13:43:12Z</time>
      </trkpt>
      <trkpt lat="44.39543" lon="5.07841">
        <ele>408</ele>
        <time>2015-11-06T13:43:15Z</time>
      </trkpt>
      <trkpt lat="44.39542" lon="5.07842">
        <ele>409</ele>
        <time>2015-11-06T13:43:24Z</time>
      </trkpt>
      <trkpt lat="44.39542" lon="5.07842">
        <ele>410</ele>
        <time>2015-11-06T13:43:27Z</time>
      </trkpt>
      <trkpt lat="44.39542" lon="5.07842">
        <ele>410</ele>
        <time>2015-11-06T13:43:30Z</time>
      </trkpt>
      <trkpt lat="44.39542" lon="5.07842">
        <ele>410</ele>
        <time>2015-11-06T13:43:33Z</time>
      </trkpt>
      <trkpt lat="44.39542" lon="5.07842">
        <ele>410</ele>
        <time>2015-11-06T13:43:36Z</time>
      </trkpt>
      <trkpt lat="44.39542" lon="5.07842">
        <ele>410</ele>
        <time>2015-11-06T13:43:39Z</time>
      </trkpt>
      <trkpt lat="44.39542" lon="5.07842">
        <ele>410</ele>
        <time>2015-11-06T13:43:42Z</time>
      </trkpt>
      <trkpt lat="44.39542" lon="5.07842">
        <ele>410</ele>
        <time>2015-11-06T13:43:45Z</time>
      </trkpt>
      <trkpt lat="44.39542" lon="5.07842">
        <ele>410</ele>
        <time>2015-11-06T13:43:48Z</time>
      </trkpt>
      <trkpt lat="44.39542" lon="5.07842">
        <ele>410</ele>
        <time>2015-11-06T13:43:51Z</time>
      </trkpt>
      <trkpt lat="44.39542" lon="5.07842">
        <ele>410</ele>
        <time>2015-11-06T13:43:54Z</time>
      </trkpt>
      <trkpt lat="44.39542" lon="5.07842">
        <ele>410</ele>
        <time>2015-11-06T13:43:57Z</time>
      </trkpt>
      <trkpt lat="44.39542" lon="5.07842">
        <ele>410</ele>
        <time>2015-11-06T13:44:00Z</time>
      </trkpt>
      <trkpt lat="44.39542" lon="5.07842">
        <ele>410</ele>
        <time>2015-11-06T13:44:03Z</time>
      </trkpt>
      <trkpt lat="44.39542" lon="5.07842">
        <ele>410</ele>
        <time>2015-11-06T13:44:06Z</time>
      </trkpt>
      <trkpt lat="44.39542" lon="5.07842">
        <ele>410</ele>
        <time>2015-11-06T13:44:09Z</time>
      </trkpt>
      <trkpt lat="44.39542" lon="5.07842">
        <ele>410</ele>
        <time>2015-11-06T13:44:12Z</time>
      </trkpt>
      <trkpt lat="44.39542" lon="5.07842">
        <ele>410</ele>
        <time>2015-11-06T13:44:15Z</time>
      </trkpt>
      <trkpt lat="44.39542" lon="5.07842">
        <ele>409</ele>
        <time>2015-11-06T13:44:18Z</time>
      </trkpt>
      <trkpt lat="44.39542" lon="5.07842">
        <ele>409</ele>
        <time>2015-11-06T13:44:21Z</time>
      </trkpt>
      <trkpt lat="44.39541" lon="5.07842">
        <ele>409</ele>
        <time>2015-11-06T13:44:24Z</time>
      </trkpt>
      <trkpt lat="44.39542" lon="5.07842">
        <ele>409</ele>
        <time>2015-11-06T13:44:27Z</time>
      </trkpt>
      <trkpt lat="44.39542" lon="5.07842">
        <ele>409</ele>
        <time>2015-11-06T13:44:30Z</time>
      </trkpt>
      <trkpt lat="44.39542" lon="5.07842">
        <ele>409</ele>
        <time>2015-11-06T13:44:33Z</time>
      </trkpt>
      <trkpt lat="44.39542" lon="5.07842">
        <ele>409</ele>
        <time>2015-11-06T13:44:36Z</time>
      </trkpt>
      <trkpt lat="44.39542" lon="5.07842">
        <ele>409</ele>
        <time>2015-11-06T13:44:39Z</time>
      </trkpt>
      <trkpt lat="44.39542" lon="5.07842">
        <ele>409</ele>
        <time>2015-11-06T13:44:42Z</time>
      </trkpt>
      <trkpt lat="44.3954" lon="5.07841">
        <ele>409</ele>
        <time>2015-11-06T13:44:45Z</time>
      </trkpt>
      <trkpt lat="44.39529" lon="5.07837">
        <ele>410</ele>
        <time>2015-11-06T13:44:56Z</time>
      </trkpt>
      <trkpt lat="44.39516" lon="5.07834">
        <ele>411</ele>
        <time>2015-11-06T13:45:09Z</time>
      </trkpt>
      <trkpt lat="44.39507" lon="5.07834">
        <ele>411</ele>
        <time>2015-11-06T13:45:18Z</time>
      </trkpt>
      <trkpt lat="44.39496" lon="5.07837">
        <ele>410</ele>
        <time>2015-11-06T13:45:29Z</time>
      </trkpt>
      <trkpt lat="44.39486" lon="5.07844">
        <ele>412</ele>
        <time>2015-11-06T13:45:40Z</time>
      </trkpt>
      <trkpt lat="44.39475" lon="5.0785">
        <ele>413</ele>
        <time>2015-11-06T13:45:51Z</time>
      </trkpt>
      <trkpt lat="44.39465" lon="5.07855">
        <ele>416</ele>
        <time>2015-11-06T13:46:02Z</time>
      </trkpt>
      <trkpt lat="44.39453" lon="5.07859">
        <ele>416</ele>
        <time>2015-11-06T13:46:13Z</time>
      </trkpt>
      <trkpt lat="44.39441" lon="5.07859">
        <ele>416</ele>
        <time>2015-11-06T13:46:24Z</time>
      </trkpt>
      <trkpt lat="44.3943" lon="5.07859">
        <ele>417</ele>
        <time>2015-11-06T13:46:35Z</time>
      </trkpt>
      <trkpt lat="44.39418" lon="5.07858">
        <ele>418</ele>
        <time>2015-11-06T13:46:46Z</time>
      </trkpt>
      <trkpt lat="44.39406" lon="5.07854">
        <ele>418</ele>
        <time>2015-11-06T13:46:57Z</time>
      </trkpt>
      <trkpt lat="44.39398" lon="5.07844">
        <ele>418</ele>
        <time>2015-11-06T13:47:08Z</time>
      </trkpt>
      <trkpt lat="44.39394" lon="5.07829">
        <ele>417</ele>
        <time>2015-11-06T13:47:19Z</time>
      </trkpt>
      <trkpt lat="44.39391" lon="5.07814">
        <ele>413</ele>
        <time>2015-11-06T13:47:30Z</time>
      </trkpt>
      <trkpt lat="44.3939" lon="5.07801">
        <ele>411</ele>
        <time>2015-11-06T13:47:43Z</time>
      </trkpt>
      <trkpt lat="44.39386" lon="5.07789">
        <ele>406</ele>
        <time>2015-11-06T13:47:52Z</time>
      </trkpt>
      <trkpt lat="44.39379" lon="5.07777">
        <ele>405</ele>
        <time>2015-11-06T13:48:03Z</time>
      </trkpt>
      <trkpt lat="44.39373" lon="5.07763">
        <ele>405</ele>
        <time>2015-11-06T13:48:14Z</time>
      </trkpt>
      <trkpt lat="44.39364" lon="5.07751">
        <ele>405</ele>
        <time>2015-11-06T13:48:25Z</time>
      </trkpt>
      <trkpt lat="44.39353" lon="5.07742">
        <ele>405</ele>
        <time>2015-11-06T13:48:36Z</time>
      </trkpt>
      <trkpt lat="44.39342" lon="5.07735">
        <ele>405</ele>
        <time>2015-11-06T13:48:47Z</time>
      </trkpt>
      <trkpt lat="44.39331" lon="5.07729">
        <ele>405</ele>
        <time>2015-11-06T13:48:58Z</time>
      </trkpt>
      <trkpt lat="44.39322" lon="5.0772">
        <ele>405</ele>
        <time>2015-11-06T13:49:09Z</time>
      </trkpt>
      <trkpt lat="44.39313" lon="5.07709">
        <ele>404</ele>
        <time>2015-11-06T13:49:20Z</time>
      </trkpt>
      <trkpt lat="44.39303" lon="5.07697">
        <ele>404</ele>
        <time>2015-11-06T13:49:31Z</time>
      </trkpt>
      <trkpt lat="44.39295" lon="5.07685">
        <ele>405</ele>
        <time>2015-11-06T13:49:42Z</time>
      </trkpt>
      <trkpt lat="44.39286" lon="5.07674">
        <ele>404</ele>
        <time>2015-11-06T13:49:53Z</time>
      </trkpt>
      <trkpt lat="44.39278" lon="5.07664">
        <ele>405</ele>
        <time>2015-11-06T13:50:04Z</time>
      </trkpt>
      <trkpt lat="44.39269" lon="5.07653">
        <ele>406</ele>
        <time>2015-11-06T13:50:15Z</time>
      </trkpt>
      <trkpt lat="44.3926" lon="5.07641">
        <ele>406</ele>
        <time>2015-11-06T13:50:26Z</time>
      </trkpt>
      <trkpt lat="44.39253" lon="5.07628">
        <ele>406</ele>
        <time>2015-11-06T13:50:37Z</time>
      </trkpt>
      <trkpt lat="44.39243" lon="5.07618">
        <ele>407</ele>
        <time>2015-11-06T13:50:48Z</time>
      </trkpt>
      <trkpt lat="44.39232" lon="5.07612">
        <ele>406</ele>
        <time>2015-11-06T13:50:59Z</time>
      </trkpt>
      <trkpt lat="44.39222" lon="5.07605">
        <ele>406</ele>
        <time>2015-11-06T13:51:10Z</time>
      </trkpt>
      <trkpt lat="44.39212" lon="5.07599">
        <ele>405</ele>
        <time>2015-11-06T13:51:21Z</time>
      </trkpt>
      <trkpt lat="44.39201" lon="5.07595">
        <ele>403</ele>
        <time>2015-11-06T13:51:32Z</time>
      </trkpt>
      <trkpt lat="44.39191" lon="5.0759">
        <ele>402</ele>
        <time>2015-11-06T13:51:43Z</time>
      </trkpt>
      <trkpt lat="44.3918" lon="5.07584">
        <ele>400</ele>
        <time>2015-11-06T13:51:54Z</time>
      </trkpt>
      <trkpt lat="44.3917" lon="5.07578">
        <ele>400</ele>
        <time>2015-11-06T13:52:05Z</time>
      </trkpt>
      <trkpt lat="44.3916" lon="5.07574">
        <ele>399</ele>
        <time>2015-11-06T13:52:16Z</time>
      </trkpt>
      <trkpt lat="44.3915" lon="5.07573">
        <ele>400</ele>
        <time>2015-11-06T13:52:27Z</time>
      </trkpt>
      <trkpt lat="44.3914" lon="5.07578">
        <ele>400</ele>
        <time>2015-11-06T13:52:38Z</time>
      </trkpt>
      <trkpt lat="44.3913" lon="5.07579">
        <ele>400</ele>
        <time>2015-11-06T13:52:49Z</time>
      </trkpt>
      <trkpt lat="44.3912" lon="5.07579">
        <ele>402</ele>
        <time>2015-11-06T13:53:00Z</time>
      </trkpt>
      <trkpt lat="44.39111" lon="5.07574">
        <ele>403</ele>
        <time>2015-11-06T13:53:11Z</time>
      </trkpt>
      <trkpt lat="44.39106" lon="5.07562">
        <ele>403</ele>
        <time>2015-11-06T13:53:22Z</time>
      </trkpt>
      <trkpt lat="44.39108" lon="5.0755">
        <ele>402</ele>
        <time>2015-11-06T13:53:33Z</time>
      </trkpt>
      <trkpt lat="44.39115" lon="5.0754">
        <ele>398</ele>
        <time>2015-11-06T13:53:46Z</time>
      </trkpt>
      <trkpt lat="44.39121" lon="5.07532">
        <ele>400</ele>
        <time>2015-11-06T13:53:55Z</time>
      </trkpt>
      <trkpt lat="44.39119" lon="5.07519">
        <ele>403</ele>
        <time>2015-11-06T13:54:06Z</time>
      </trkpt>
      <trkpt lat="44.39111" lon="5.07524">
        <ele>404</ele>
        <time>2015-11-06T13:54:18Z</time>
      </trkpt>
      <trkpt lat="44.39104" lon="5.07532">
        <ele>405</ele>
        <time>2015-11-06T13:54:28Z</time>
      </trkpt>
      <trkpt lat="44.39097" lon="5.07541">
        <ele>407</ele>
        <time>2015-11-06T13:54:39Z</time>
      </trkpt>
      <trkpt lat="44.39088" lon="5.07549">
        <ele>409</ele>
        <time>2015-11-06T13:54:50Z</time>
      </trkpt>
      <trkpt lat="44.39077" lon="5.07553">
        <ele>413</ele>
        <time>2015-11-06T13:55:01Z</time>
      </trkpt>
      <trkpt lat="44.39067" lon="5.07547">
        <ele>413</ele>
        <time>2015-11-06T13:55:12Z</time>
      </trkpt>
      <trkpt lat="44.39058" lon="5.07543">
        <ele>413</ele>
        <time>2015-11-06T13:55:23Z</time>
      </trkpt>
      <trkpt lat="44.39051" lon="5.07543">
        <ele>414</ele>
        <time>2015-11-06T13:55:34Z</time>
      </trkpt>
      <trkpt lat="44.39043" lon="5.07545">
        <ele>416</ele>
        <time>2015-11-06T13:55:45Z</time>
      </trkpt>
      <trkpt lat="44.39034" lon="5.0755">
        <ele>418</ele>
        <time>2015-11-06T13:55:56Z</time>
      </trkpt>
      <trkpt lat="44.39025" lon="5.07556">
        <ele>419</ele>
        <time>2015-11-06T13:56:07Z</time>
      </trkpt>
      <trkpt lat="44.39015" lon="5.0756">
        <ele>422</ele>
        <time>2015-11-06T13:56:18Z</time>
      </trkpt>
      <trkpt lat="44.39005" lon="5.07562">
        <ele>422</ele>
        <time>2015-11-06T13:56:29Z</time>
      </trkpt>
      <trkpt lat="44.38995" lon="5.07563">
        <ele>422</ele>
        <time>2015-11-06T13:56:40Z</time>
      </trkpt>
      <trkpt lat="44.38985" lon="5.07563">
        <ele>423</ele>
        <time>2015-11-06T13:56:51Z</time>
      </trkpt>
      <trkpt lat="44.38976" lon="5.07564">
        <ele>424</ele>
        <time>2015-11-06T13:57:02Z</time>
      </trkpt>
      <trkpt lat="44.38966" lon="5.07563">
        <ele>425</ele>
        <time>2015-11-06T13:57:13Z</time>
      </trkpt>
      <trkpt lat="44.38955" lon="5.07563">
        <ele>426</ele>
        <time>2015-11-06T13:57:24Z</time>
      </trkpt>
      <trkpt lat="44.38945" lon="5.07562">
        <ele>428</ele>
        <time>2015-11-06T13:57:35Z</time>
      </trkpt>
      <trkpt lat="44.38935" lon="5.07562">
        <ele>428</ele>
        <time>2015-11-06T13:57:46Z</time>
      </trkpt>
      <trkpt lat="44.38926" lon="5.07562">
        <ele>428</ele>
        <time>2015-11-06T13:57:57Z</time>
      </trkpt>
      <trkpt lat="44.38916" lon="5.07563">
        <ele>429</ele>
        <time>2015-11-06T13:58:08Z</time>
      </trkpt>
      <trkpt lat="44.38905" lon="5.07564">
        <ele>432</ele>
        <time>2015-11-06T13:58:19Z</time>
      </trkpt>
      <trkpt lat="44.38894" lon="5.07568">
        <ele>434</ele>
        <time>2015-11-06T13:58:30Z</time>
      </trkpt>
      <trkpt lat="44.38885" lon="5.07569">
        <ele>434</ele>
        <time>2015-11-06T13:58:41Z</time>
      </trkpt>
      <trkpt lat="44.38878" lon="5.07572">
        <ele>434</ele>
        <time>2015-11-06T13:58:52Z</time>
      </trkpt>
      <trkpt lat="44.38869" lon="5.07577">
        <ele>434</ele>
        <time>2015-11-06T13:59:03Z</time>
      </trkpt>
      <trkpt lat="44.38862" lon="5.07582">
        <ele>437</ele>
        <time>2015-11-06T13:59:14Z</time>
      </trkpt>
      <trkpt lat="44.38863" lon="5.07581">
        <ele>438</ele>
        <time>2015-11-06T13:59:25Z</time>
      </trkpt>
      <trkpt lat="44.38863" lon="5.07581">
        <ele>438</ele>
        <time>2015-11-06T13:59:28Z</time>
      </trkpt>
      <trkpt lat="44.38863" lon="5.07581">
        <ele>438</ele>
        <time>2015-11-06T13:59:31Z</time>
      </trkpt>
      <trkpt lat="44.38863" lon="5.07581">
        <ele>438</ele>
        <time>2015-11-06T13:59:34Z</time>
      </trkpt>
      <trkpt lat="44.38863" lon="5.07581">
        <ele>438</ele>
        <time>2015-11-06T13:59:37Z</time>
      </trkpt>
      <trkpt lat="44.38863" lon="5.07581">
        <ele>438</ele>
        <time>2015-11-06T13:59:40Z</time>
      </trkpt>
      <trkpt lat="44.38863" lon="5.07581">
        <ele>438</ele>
        <time>2015-11-06T13:59:43Z</time>
      </trkpt>
      <trkpt lat="44.38863" lon="5.07581">
        <ele>438</ele>
        <time>2015-11-06T13:59:46Z</time>
      </trkpt>
      <trkpt lat="44.38863" lon="5.07581">
        <ele>438</ele>
        <time>2015-11-06T13:59:49Z</time>
      </trkpt>
      <trkpt lat="44.38863" lon="5.07581">
        <ele>437</ele>
        <time>2015-11-06T13:59:52Z</time>
      </trkpt>
      <trkpt lat="44.38863" lon="5.07581">
        <ele>437</ele>
        <time>2015-11-06T13:59:55Z</time>
      </trkpt>
      <trkpt lat="44.38863" lon="5.07581">
        <ele>437</ele>
        <time>2015-11-06T13:59:58Z</time>
      </trkpt>
      <trkpt lat="44.38863" lon="5.07581">
        <ele>437</ele>
        <time>2015-11-06T14:00:01Z</time>
      </trkpt>
      <trkpt lat="44.38863" lon="5.07581">
        <ele>437</ele>
        <time>2015-11-06T14:00:04Z</time>
      </trkpt>
      <trkpt lat="44.38863" lon="5.07581">
        <ele>437</ele>
        <time>2015-11-06T14:00:07Z</time>
      </trkpt>
      <trkpt lat="44.38863" lon="5.07581">
        <ele>437</ele>
        <time>2015-11-06T14:00:10Z</time>
      </trkpt>
      <trkpt lat="44.38863" lon="5.07581">
        <ele>437</ele>
        <time>2015-11-06T14:00:13Z</time>
      </trkpt>
      <trkpt lat="44.38862" lon="5.07581">
        <ele>437</ele>
        <time>2015-11-06T14:00:19Z</time>
      </trkpt>
      <trkpt lat="44.38861" lon="5.07581">
        <ele>437</ele>
        <time>2015-11-06T14:00:22Z</time>
      </trkpt>
      <trkpt lat="44.38861" lon="5.07581">
        <ele>437</ele>
        <time>2015-11-06T14:00:25Z</time>
      </trkpt>
      <trkpt lat="44.38861" lon="5.07581">
        <ele>437</ele>
        <time>2015-11-06T14:00:28Z</time>
      </trkpt>
      <trkpt lat="44.38861" lon="5.07581">
        <ele>437</ele>
        <time>2015-11-06T14:00:31Z</time>
      </trkpt>
      <trkpt lat="44.38861" lon="5.07581">
        <ele>437</ele>
        <time>2015-11-06T14:00:34Z</time>
      </trkpt>
      <trkpt lat="44.38861" lon="5.07581">
        <ele>437</ele>
        <time>2015-11-06T14:00:37Z</time>
      </trkpt>
      <trkpt lat="44.38861" lon="5.07581">
        <ele>437</ele>
        <time>2015-11-06T14:00:40Z</time>
      </trkpt>
      <trkpt lat="44.38861" lon="5.07581">
        <ele>437</ele>
        <time>2015-11-06T14:00:43Z</time>
      </trkpt>
      <trkpt lat="44.38861" lon="5.07581">
        <ele>437</ele>
        <time>2015-11-06T14:00:46Z</time>
      </trkpt>
      <trkpt lat="44.38861" lon="5.07581">
        <ele>437</ele>
        <time>2015-11-06T14:00:49Z</time>
      </trkpt>
      <trkpt lat="44.38861" lon="5.07581">
        <ele>437</ele>
        <time>2015-11-06T14:00:52Z</time>
      </trkpt>
      <trkpt lat="44.38861" lon="5.07581">
        <ele>437</ele>
        <time>2015-11-06T14:00:55Z</time>
      </trkpt>
      <trkpt lat="44.38861" lon="5.07581">
        <ele>437</ele>
        <time>2015-11-06T14:00:58Z</time>
      </trkpt>
      <trkpt lat="44.38861" lon="5.07581">
        <ele>437</ele>
        <time>2015-11-06T14:01:01Z</time>
      </trkpt>
      <trkpt lat="44.38861" lon="5.07581">
        <ele>437</ele>
        <time>2015-11-06T14:01:04Z</time>
      </trkpt>
      <trkpt lat="44.38861" lon="5.07581">
        <ele>437</ele>
        <time>2015-11-06T14:01:08Z</time>
      </trkpt>
      <trkpt lat="44.38861" lon="5.07581">
        <ele>437</ele>
        <time>2015-11-06T14:01:10Z</time>
      </trkpt>
      <trkpt lat="44.38861" lon="5.07581">
        <ele>437</ele>
        <time>2015-11-06T14:01:13Z</time>
      </trkpt>
      <trkpt lat="44.3886" lon="5.07582">
        <ele>437</ele>
        <time>2015-11-06T14:01:17Z</time>
      </trkpt>
      <trkpt lat="44.38857" lon="5.07582">
        <ele>435</ele>
        <time>2015-11-06T14:01:27Z</time>
      </trkpt>
      <trkpt lat="44.38857" lon="5.07582">
        <ele>435</ele>
        <time>2015-11-06T14:01:38Z</time>
      </trkpt>
      <trkpt lat="44.38857" lon="5.07582">
        <ele>435</ele>
        <time>2015-11-06T14:01:41Z</time>
      </trkpt>
      <trkpt lat="44.38857" lon="5.07582">
        <ele>435</ele>
        <time>2015-11-06T14:01:45Z</time>
      </trkpt>
      <trkpt lat="44.38857" lon="5.07582">
        <ele>435</ele>
        <time>2015-11-06T14:01:47Z</time>
      </trkpt>
      <trkpt lat="44.38857" lon="5.07582">
        <ele>435</ele>
        <time>2015-11-06T14:01:51Z</time>
      </trkpt>
      <trkpt lat="44.38857" lon="5.07582">
        <ele>435</ele>
        <time>2015-11-06T14:01:54Z</time>
      </trkpt>
      <trkpt lat="44.38857" lon="5.07582">
        <ele>435</ele>
        <time>2015-11-06T14:01:56Z</time>
      </trkpt>
      <trkpt lat="44.38857" lon="5.07582">
        <ele>435</ele>
        <time>2015-11-06T14:01:59Z</time>
      </trkpt>
      <trkpt lat="44.38857" lon="5.07582">
        <ele>435</ele>
        <time>2015-11-06T14:02:03Z</time>
      </trkpt>
      <trkpt lat="44.38857" lon="5.07582">
        <ele>435</ele>
        <time>2015-11-06T14:02:05Z</time>
      </trkpt>
      <trkpt lat="44.38857" lon="5.07582">
        <ele>435</ele>
        <time>2015-11-06T14:02:08Z</time>
      </trkpt>
      <trkpt lat="44.38857" lon="5.07582">
        <ele>435</ele>
        <time>2015-11-06T14:02:11Z</time>
      </trkpt>
      <trkpt lat="44.38857" lon="5.07582">
        <ele>435</ele>
        <time>2015-11-06T14:02:14Z</time>
      </trkpt>
      <trkpt lat="44.38857" lon="5.07582">
        <ele>435</ele>
        <time>2015-11-06T14:02:17Z</time>
      </trkpt>
      <trkpt lat="44.38856" lon="5.07582">
        <ele>435</ele>
        <time>2015-11-06T14:02:21Z</time>
      </trkpt>
      <trkpt lat="44.38855" lon="5.07584">
        <ele>436</ele>
        <time>2015-11-06T14:02:24Z</time>
      </trkpt>
      <trkpt lat="44.38845" lon="5.0759">
        <ele>436</ele>
        <time>2015-11-06T14:02:35Z</time>
      </trkpt>
      <trkpt lat="44.38837" lon="5.07598">
        <ele>437</ele>
        <time>2015-11-06T14:02:45Z</time>
      </trkpt>
      <trkpt lat="44.38827" lon="5.07607">
        <ele>438</ele>
        <time>2015-11-06T14:02:56Z</time>
      </trkpt>
      <trkpt lat="44.38815" lon="5.07614">
        <ele>439</ele>
        <time>2015-11-06T14:03:07Z</time>
      </trkpt>
      <trkpt lat="44.38805" lon="5.07622">
        <ele>441</ele>
        <time>2015-11-06T14:03:19Z</time>
      </trkpt>
      <trkpt lat="44.38797" lon="5.07631">
        <ele>445</ele>
        <time>2015-11-06T14:03:30Z</time>
      </trkpt>
      <trkpt lat="44.38789" lon="5.07636">
        <ele>445</ele>
        <time>2015-11-06T14:03:42Z</time>
      </trkpt>
      <trkpt lat="44.38778" lon="5.07635">
        <ele>443</ele>
        <time>2015-11-06T14:03:53Z</time>
      </trkpt>
      <trkpt lat="44.38773" lon="5.07628">
        <ele>441</ele>
        <time>2015-11-06T14:04:02Z</time>
      </trkpt>
      <trkpt lat="44.38768" lon="5.07621">
        <ele>439</ele>
        <time>2015-11-06T14:04:13Z</time>
      </trkpt>
      <trkpt lat="44.38767" lon="5.07616">
        <ele>439</ele>
        <time>2015-11-06T14:04:25Z</time>
      </trkpt>
      <trkpt lat="44.38766" lon="5.07615">
        <ele>439</ele>
        <time>2015-11-06T14:04:35Z</time>
      </trkpt>
      <trkpt lat="44.38766" lon="5.07614">
        <ele>439</ele>
        <time>2015-11-06T14:04:38Z</time>
      </trkpt>
      <trkpt lat="44.38766" lon="5.07614">
        <ele>439</ele>
        <time>2015-11-06T14:04:41Z</time>
      </trkpt>
      <trkpt lat="44.38766" lon="5.07614">
        <ele>440</ele>
        <time>2015-11-06T14:04:44Z</time>
      </trkpt>
      <trkpt lat="44.38766" lon="5.07614">
        <ele>440</ele>
        <time>2015-11-06T14:04:47Z</time>
      </trkpt>
      <trkpt lat="44.38766" lon="5.07614">
        <ele>440</ele>
        <time>2015-11-06T14:04:50Z</time>
      </trkpt>
      <trkpt lat="44.38766" lon="5.07614">
        <ele>440</ele>
        <time>2015-11-06T14:04:53Z</time>
      </trkpt>
      <trkpt lat="44.38766" lon="5.07614">
        <ele>440</ele>
        <time>2015-11-06T14:04:57Z</time>
      </trkpt>
      <trkpt lat="44.38766" lon="5.07614">
        <ele>440</ele>
        <time>2015-11-06T14:04:59Z</time>
      </trkpt>
      <trkpt lat="44.38766" lon="5.07614">
        <ele>440</ele>
        <time>2015-11-06T14:05:03Z</time>
      </trkpt>
      <trkpt lat="44.38766" lon="5.07614">
        <ele>440</ele>
        <time>2015-11-06T14:05:06Z</time>
      </trkpt>
      <trkpt lat="44.38766" lon="5.07614">
        <ele>440</ele>
        <time>2015-11-06T14:05:10Z</time>
      </trkpt>
      <trkpt lat="44.38766" lon="5.07614">
        <ele>440</ele>
        <time>2015-11-06T14:05:11Z</time>
      </trkpt>
      <trkpt lat="44.38766" lon="5.07614">
        <ele>440</ele>
        <time>2015-11-06T14:05:16Z</time>
      </trkpt>
      <trkpt lat="44.38766" lon="5.07614">
        <ele>440</ele>
        <time>2015-11-06T14:05:17Z</time>
      </trkpt>
      <trkpt lat="44.38766" lon="5.07614">
        <ele>440</ele>
        <time>2015-11-06T14:05:20Z</time>
      </trkpt>
      <trkpt lat="44.38766" lon="5.07614">
        <ele>440</ele>
        <time>2015-11-06T14:05:24Z</time>
      </trkpt>
      <trkpt lat="44.38766" lon="5.07616">
        <ele>439</ele>
        <time>2015-11-06T14:05:28Z</time>
      </trkpt>
      <trkpt lat="44.38767" lon="5.0762">
        <ele>440</ele>
        <time>2015-11-06T14:05:38Z</time>
      </trkpt>
      <trkpt lat="44.38771" lon="5.07624">
        <ele>441</ele>
        <time>2015-11-06T14:05:48Z</time>
      </trkpt>
      <trkpt lat="44.3877" lon="5.07632">
        <ele>443</ele>
        <time>2015-11-06T14:06:01Z</time>
      </trkpt>
      <trkpt lat="44.38767" lon="5.07631">
        <ele>443</ele>
        <time>2015-11-06T14:06:10Z</time>
      </trkpt>
      <trkpt lat="44.38765" lon="5.07633">
        <ele>442</ele>
        <time>2015-11-06T14:06:21Z</time>
      </trkpt>
      <trkpt lat="44.38757" lon="5.07635">
        <ele>444</ele>
        <time>2015-11-06T14:06:32Z</time>
      </trkpt>
      <trkpt lat="44.38746" lon="5.0764">
        <ele>445</ele>
        <time>2015-11-06T14:06:43Z</time>
      </trkpt>
      <trkpt lat="44.38736" lon="5.07649">
        <ele>448</ele>
        <time>2015-11-06T14:06:55Z</time>
      </trkpt>
      <trkpt lat="44.38726" lon="5.0765">
        <ele>445</ele>
        <time>2015-11-06T14:07:05Z</time>
      </trkpt>
      <trkpt lat="44.38715" lon="5.07645">
        <ele>443</ele>
        <time>2015-11-06T14:07:16Z</time>
      </trkpt>
      <trkpt lat="44.38706" lon="5.0764">
        <ele>442</ele>
        <time>2015-11-06T14:07:27Z</time>
      </trkpt>
      <trkpt lat="44.38695" lon="5.07636">
        <ele>440</ele>
        <time>2015-11-06T14:07:38Z</time>
      </trkpt>
      <trkpt lat="44.38684" lon="5.07635">
        <ele>440</ele>
        <time>2015-11-06T14:07:49Z</time>
      </trkpt>
      <trkpt lat="44.38673" lon="5.07642">
        <ele>443</ele>
        <time>2015-11-06T14:08:00Z</time>
      </trkpt>
      <trkpt lat="44.38662" lon="5.07641">
        <ele>442</ele>
        <time>2015-11-06T14:08:11Z</time>
      </trkpt>
      <trkpt lat="44.38655" lon="5.07626">
        <ele>436</ele>
        <time>2015-11-06T14:08:22Z</time>
      </trkpt>
      <trkpt lat="44.38657" lon="5.07621">
        <ele>435</ele>
        <time>2015-11-06T14:08:33Z</time>
      </trkpt>
      <trkpt lat="44.38658" lon="5.0762">
        <ele>435</ele>
        <time>2015-11-06T14:08:44Z</time>
      </trkpt>
      <trkpt lat="44.38658" lon="5.0762">
        <ele>435</ele>
        <time>2015-11-06T14:08:47Z</time>
      </trkpt>
      <trkpt lat="44.38658" lon="5.0762">
        <ele>435</ele>
        <time>2015-11-06T14:08:50Z</time>
      </trkpt>
      <trkpt lat="44.38658" lon="5.0762">
        <ele>435</ele>
        <time>2015-11-06T14:08:53Z</time>
      </trkpt>
      <trkpt lat="44.38658" lon="5.0762">
        <ele>435</ele>
        <time>2015-11-06T14:08:56Z</time>
      </trkpt>
      <trkpt lat="44.38657" lon="5.0762">
        <ele>436</ele>
        <time>2015-11-06T14:08:59Z</time>
      </trkpt>
      <trkpt lat="44.38649" lon="5.07612">
        <ele>437</ele>
        <time>2015-11-06T14:09:10Z</time>
      </trkpt>
      <trkpt lat="44.38642" lon="5.07607">
        <ele>437</ele>
        <time>2015-11-06T14:09:21Z</time>
      </trkpt>
      <trkpt lat="44.38633" lon="5.07599">
        <ele>438</ele>
        <time>2015-11-06T14:09:32Z</time>
      </trkpt>
      <trkpt lat="44.38625" lon="5.07589">
        <ele>438</ele>
        <time>2015-11-06T14:09:44Z</time>
      </trkpt>
      <trkpt lat="44.38627" lon="5.07583">
        <ele>437</ele>
        <time>2015-11-06T14:09:54Z</time>
      </trkpt>
      <trkpt lat="44.38637" lon="5.07579">
        <ele>440</ele>
        <time>2015-11-06T14:10:08Z</time>
      </trkpt>
      <trkpt lat="44.38643" lon="5.07577">
        <ele>443</ele>
        <time>2015-11-06T14:10:16Z</time>
      </trkpt>
      <trkpt lat="44.38652" lon="5.07574">
        <ele>444</ele>
        <time>2015-11-06T14:10:28Z</time>
      </trkpt>
      <trkpt lat="44.38666" lon="5.07565">
        <ele>443</ele>
        <time>2015-11-06T14:10:46Z</time>
      </trkpt>
      <trkpt lat="44.38669" lon="5.07562">
        <ele>444</ele>
        <time>2015-11-06T14:10:50Z</time>
      </trkpt>
      <trkpt lat="44.38675" lon="5.07558">
        <ele>444</ele>
        <time>2015-11-06T14:11:00Z</time>
      </trkpt>
      <trkpt lat="44.38687" lon="5.07551">
        <ele>444</ele>
        <time>2015-11-06T14:11:16Z</time>
      </trkpt>
      <trkpt lat="44.38691" lon="5.07547">
        <ele>443</ele>
        <time>2015-11-06T14:11:22Z</time>
      </trkpt>
      <trkpt lat="44.38701" lon="5.07538">
        <ele>442</ele>
        <time>2015-11-06T14:11:33Z</time>
      </trkpt>
      <trkpt lat="44.38707" lon="5.07527">
        <ele>443</ele>
        <time>2015-11-06T14:11:44Z</time>
      </trkpt>
      <trkpt lat="44.38711" lon="5.07509">
        <ele>445</ele>
        <time>2015-11-06T14:11:59Z</time>
      </trkpt>
      <trkpt lat="44.38713" lon="5.07501">
        <ele>444</ele>
        <time>2015-11-06T14:12:07Z</time>
      </trkpt>
      <trkpt lat="44.38718" lon="5.07489">
        <ele>445</ele>
        <time>2015-11-06T14:12:17Z</time>
      </trkpt>
      <trkpt lat="44.38723" lon="5.07472">
        <ele>447</ele>
        <time>2015-11-06T14:12:30Z</time>
      </trkpt>
      <trkpt lat="44.38727" lon="5.07461">
        <ele>448</ele>
        <time>2015-11-06T14:12:39Z</time>
      </trkpt>
      <trkpt lat="44.38727" lon="5.07445">
        <ele>447</ele>
        <time>2015-11-06T14:12:50Z</time>
      </trkpt>
      <trkpt lat="44.38724" lon="5.07432">
        <ele>446</ele>
        <time>2015-11-06T14:13:01Z</time>
      </trkpt>
      <trkpt lat="44.38721" lon="5.07421">
        <ele>445</ele>
        <time>2015-11-06T14:13:12Z</time>
      </trkpt>
      <trkpt lat="44.38719" lon="5.0741">
        <ele>444</ele>
        <time>2015-11-06T14:13:23Z</time>
      </trkpt>
      <trkpt lat="44.38714" lon="5.07398">
        <ele>444</ele>
        <time>2015-11-06T14:13:35Z</time>
      </trkpt>
      <trkpt lat="44.38708" lon="5.07387">
        <ele>444</ele>
        <time>2015-11-06T14:13:45Z</time>
      </trkpt>
      <trkpt lat="44.38702" lon="5.07376">
        <ele>441</ele>
        <time>2015-11-06T14:13:56Z</time>
      </trkpt>
      <trkpt lat="44.38698" lon="5.07363">
        <ele>442</ele>
        <time>2015-11-06T14:14:08Z</time>
      </trkpt>
      <trkpt lat="44.38693" lon="5.0735">
        <ele>442</ele>
        <time>2015-11-06T14:14:18Z</time>
      </trkpt>
      <trkpt lat="44.38687" lon="5.07336">
        <ele>440</ele>
        <time>2015-11-06T14:14:29Z</time>
      </trkpt>
      <trkpt lat="44.38679" lon="5.07325">
        <ele>438</ele>
        <time>2015-11-06T14:14:40Z</time>
      </trkpt>
      <trkpt lat="44.38668" lon="5.07311">
        <ele>439</ele>
        <time>2015-11-06T14:14:55Z</time>
      </trkpt>
      <trkpt lat="44.38662" lon="5.07304">
        <ele>438</ele>
        <time>2015-11-06T14:15:03Z</time>
      </trkpt>
      <trkpt lat="44.38655" lon="5.07299">
        <ele>436</ele>
        <time>2015-11-06T14:15:13Z</time>
      </trkpt>
      <trkpt lat="44.38646" lon="5.07291">
        <ele>437</ele>
        <time>2015-11-06T14:15:24Z</time>
      </trkpt>
      <trkpt lat="44.38636" lon="5.0728">
        <ele>438</ele>
        <time>2015-11-06T14:15:35Z</time>
      </trkpt>
      <trkpt lat="44.38628" lon="5.07268">
        <ele>438</ele>
        <time>2015-11-06T14:15:46Z</time>
      </trkpt>
      <trkpt lat="44.38617" lon="5.0726">
        <ele>434</ele>
        <time>2015-11-06T14:15:59Z</time>
      </trkpt>
      <trkpt lat="44.38617" lon="5.07248">
        <ele>433</ele>
        <time>2015-11-06T14:16:12Z</time>
      </trkpt>
      <trkpt lat="44.38623" lon="5.07244">
        <ele>434</ele>
        <time>2015-11-06T14:16:19Z</time>
      </trkpt>
      <trkpt lat="44.38639" lon="5.07234">
        <ele>435</ele>
        <time>2015-11-06T14:16:36Z</time>
      </trkpt>
      <trkpt lat="44.38654" lon="5.07238">
        <ele>440</ele>
        <time>2015-11-06T14:16:51Z</time>
      </trkpt>
      <trkpt lat="44.38655" lon="5.07239">
        <ele>442</ele>
        <time>2015-11-06T14:16:52Z</time>
      </trkpt>
      <trkpt lat="44.38665" lon="5.07241">
        <ele>443</ele>
        <time>2015-11-06T14:17:04Z</time>
      </trkpt>
      <trkpt lat="44.38683" lon="5.07235">
        <ele>442</ele>
        <time>2015-11-06T14:17:22Z</time>
      </trkpt>
      <trkpt lat="44.38685" lon="5.07235">
        <ele>442</ele>
        <time>2015-11-06T14:17:25Z</time>
      </trkpt>
      <trkpt lat="44.38694" lon="5.07233">
        <ele>442</ele>
        <time>2015-11-06T14:17:36Z</time>
      </trkpt>
      <trkpt lat="44.38707" lon="5.0723">
        <ele>435</ele>
        <time>2015-11-06T14:17:50Z</time>
      </trkpt>
      <trkpt lat="44.38714" lon="5.07229">
        <ele>433</ele>
        <time>2015-11-06T14:17:58Z</time>
      </trkpt>
      <trkpt lat="44.38724" lon="5.07227">
        <ele>432</ele>
        <time>2015-11-06T14:18:09Z</time>
      </trkpt>
      <trkpt lat="44.38726" lon="5.07224">
        <ele>434</ele>
        <time>2015-11-06T14:18:23Z</time>
      </trkpt>
      <trkpt lat="44.38727" lon="5.07223">
        <ele>433</ele>
        <time>2015-11-06T14:18:26Z</time>
      </trkpt>
      <trkpt lat="44.38737" lon="5.07218">
        <ele>432</ele>
        <time>2015-11-06T14:18:38Z</time>
      </trkpt>
      <trkpt lat="44.38754" lon="5.07205">
        <ele>434</ele>
        <time>2015-11-06T14:18:56Z</time>
      </trkpt>
      <trkpt lat="44.38757" lon="5.072">
        <ele>434</ele>
        <time>2015-11-06T14:19:00Z</time>
      </trkpt>
      <trkpt lat="44.38766" lon="5.07193">
        <ele>434</ele>
        <time>2015-11-06T14:19:11Z</time>
      </trkpt>
      <trkpt lat="44.38776" lon="5.0719">
        <ele>433</ele>
        <time>2015-11-06T14:19:21Z</time>
      </trkpt>
      <trkpt lat="44.38788" lon="5.07187">
        <ele>430</ele>
        <time>2015-11-06T14:19:33Z</time>
      </trkpt>
      <trkpt lat="44.38799" lon="5.07184">
        <ele>433</ele>
        <time>2015-11-06T14:19:45Z</time>
      </trkpt>
      <trkpt lat="44.38805" lon="5.07176">
        <ele>434</ele>
        <time>2015-11-06T14:19:56Z</time>
      </trkpt>
      <trkpt lat="44.38814" lon="5.07171">
        <ele>434</ele>
        <time>2015-11-06T14:20:06Z</time>
      </trkpt>
      <trkpt lat="44.38821" lon="5.07165">
        <ele>434</ele>
        <time>2015-11-06T14:20:16Z</time>
      </trkpt>
      <trkpt lat="44.38827" lon="5.07156">
        <ele>432</ele>
        <time>2015-11-06T14:20:27Z</time>
      </trkpt>
      <trkpt lat="44.38831" lon="5.07142">
        <ele>436</ele>
        <time>2015-11-06T14:20:38Z</time>
      </trkpt>
      <trkpt lat="44.38833" lon="5.07128">
        <ele>436</ele>
        <time>2015-11-06T14:20:50Z</time>
      </trkpt>
      <trkpt lat="44.38833" lon="5.07116">
        <ele>435</ele>
        <time>2015-11-06T14:21:00Z</time>
      </trkpt>
      <trkpt lat="44.3883" lon="5.07102">
        <ele>435</ele>
        <time>2015-11-06T14:21:11Z</time>
      </trkpt>
      <trkpt lat="44.38837" lon="5.07091">
        <ele>436</ele>
        <time>2015-11-06T14:21:22Z</time>
      </trkpt>
      <trkpt lat="44.38846" lon="5.07085">
        <ele>431</ele>
        <time>2015-11-06T14:21:33Z</time>
      </trkpt>
      <trkpt lat="44.38856" lon="5.07082">
        <ele>430</ele>
        <time>2015-11-06T14:21:43Z</time>
      </trkpt>
      <trkpt lat="44.38869" lon="5.07076">
        <ele>429</ele>
        <time>2015-11-06T14:21:57Z</time>
      </trkpt>
      <trkpt lat="44.38886" lon="5.07072">
        <ele>428</ele>
        <time>2015-11-06T14:22:12Z</time>
      </trkpt>
      <trkpt lat="44.38892" lon="5.07072">
        <ele>425</ele>
        <time>2015-11-06T14:22:17Z</time>
      </trkpt>
      <trkpt lat="44.38901" lon="5.07068">
        <ele>422</ele>
        <time>2015-11-06T14:22:29Z</time>
      </trkpt>
      <trkpt lat="44.38902" lon="5.07066">
        <ele>422</ele>
        <time>2015-11-06T14:22:42Z</time>
      </trkpt>
      <trkpt lat="44.38902" lon="5.07067">
        <ele>423</ele>
        <time>2015-11-06T14:22:45Z</time>
      </trkpt>
      <trkpt lat="44.38903" lon="5.07067">
        <ele>422</ele>
        <time>2015-11-06T14:22:48Z</time>
      </trkpt>
      <trkpt lat="44.38902" lon="5.07067">
        <ele>422</ele>
        <time>2015-11-06T14:22:50Z</time>
      </trkpt>
      <trkpt lat="44.38902" lon="5.07067">
        <ele>422</ele>
        <time>2015-11-06T14:22:53Z</time>
      </trkpt>
      <trkpt lat="44.38904" lon="5.07066">
        <ele>425</ele>
        <time>2015-11-06T14:22:58Z</time>
      </trkpt>
      <trkpt lat="44.38906" lon="5.07068">
        <ele>425</ele>
        <time>2015-11-06T14:23:14Z</time>
      </trkpt>
      <trkpt lat="44.38905" lon="5.07067">
        <ele>424</ele>
        <time>2015-11-06T14:23:17Z</time>
      </trkpt>
      <trkpt lat="44.38905" lon="5.07067">
        <ele>424</ele>
        <time>2015-11-06T14:23:21Z</time>
      </trkpt>
      <trkpt lat="44.38905" lon="5.07067">
        <ele>424</ele>
        <time>2015-11-06T14:23:23Z</time>
      </trkpt>
      <trkpt lat="44.38905" lon="5.07068">
        <ele>425</ele>
        <time>2015-11-06T14:23:26Z</time>
      </trkpt>
      <trkpt lat="44.38905" lon="5.07068">
        <ele>425</ele>
        <time>2015-11-06T14:23:28Z</time>
      </trkpt>
      <trkpt lat="44.38907" lon="5.07069">
        <ele>427</ele>
        <time>2015-11-06T14:23:31Z</time>
      </trkpt>
      <trkpt lat="44.38907" lon="5.07071">
        <ele>427</ele>
        <time>2015-11-06T14:23:43Z</time>
      </trkpt>
      <trkpt lat="44.38907" lon="5.07071">
        <ele>427</ele>
        <time>2015-11-06T14:23:45Z</time>
      </trkpt>
      <trkpt lat="44.38907" lon="5.07071">
        <ele>427</ele>
        <time>2015-11-06T14:23:49Z</time>
      </trkpt>
      <trkpt lat="44.38907" lon="5.07071">
        <ele>427</ele>
        <time>2015-11-06T14:23:52Z</time>
      </trkpt>
      <trkpt lat="44.38907" lon="5.07071">
        <ele>427</ele>
        <time>2015-11-06T14:23:54Z</time>
      </trkpt>
      <trkpt lat="44.38907" lon="5.07071">
        <ele>426</ele>
        <time>2015-11-06T14:23:58Z</time>
      </trkpt>
      <trkpt lat="44.38907" lon="5.07071">
        <ele>426</ele>
        <time>2015-11-06T14:24:00Z</time>
      </trkpt>
      <trkpt lat="44.38907" lon="5.07071">
        <ele>426</ele>
        <time>2015-11-06T14:24:04Z</time>
      </trkpt>
      <trkpt lat="44.38907" lon="5.07071">
        <ele>426</ele>
        <time>2015-11-06T14:24:07Z</time>
      </trkpt>
      <trkpt lat="44.38907" lon="5.07071">
        <ele>426</ele>
        <time>2015-11-06T14:24:09Z</time>
      </trkpt>
      <trkpt lat="44.38907" lon="5.07071">
        <ele>426</ele>
        <time>2015-11-06T14:24:14Z</time>
      </trkpt>
      <trkpt lat="44.38907" lon="5.07072">
        <ele>427</ele>
        <time>2015-11-06T14:24:16Z</time>
      </trkpt>
      <trkpt lat="44.38911" lon="5.07071">
        <ele>424</ele>
        <time>2015-11-06T14:24:22Z</time>
      </trkpt>
      <trkpt lat="44.38922" lon="5.07063">
        <ele>425</ele>
        <time>2015-11-06T14:24:36Z</time>
      </trkpt>
      <trkpt lat="44.38926" lon="5.07057">
        <ele>424</ele>
        <time>2015-11-06T14:24:40Z</time>
      </trkpt>
      <trkpt lat="44.38935" lon="5.07048">
        <ele>420</ele>
        <time>2015-11-06T14:24:53Z</time>
      </trkpt>
      <trkpt lat="44.38934" lon="5.0705">
        <ele>418</ele>
        <time>2015-11-06T14:25:05Z</time>
      </trkpt>
      <trkpt lat="44.38934" lon="5.0705">
        <ele>418</ele>
        <time>2015-11-06T14:25:09Z</time>
      </trkpt>
      <trkpt lat="44.38935" lon="5.07052">
        <ele>417</ele>
        <time>2015-11-06T14:25:12Z</time>
      </trkpt>
      <trkpt lat="44.38934" lon="5.07053">
        <ele>417</ele>
        <time>2015-11-06T14:25:23Z</time>
      </trkpt>
      <trkpt lat="44.38934" lon="5.07053">
        <ele>417</ele>
        <time>2015-11-06T14:25:25Z</time>
      </trkpt>
      <trkpt lat="44.38934" lon="5.07053">
        <ele>417</ele>
        <time>2015-11-06T14:25:28Z</time>
      </trkpt>
      <trkpt lat="44.38934" lon="5.07053">
        <ele>417</ele>
        <time>2015-11-06T14:25:31Z</time>
      </trkpt>
      <trkpt lat="44.38934" lon="5.07053">
        <ele>417</ele>
        <time>2015-11-06T14:25:35Z</time>
      </trkpt>
      <trkpt lat="44.38934" lon="5.07053">
        <ele>417</ele>
        <time>2015-11-06T14:25:39Z</time>
      </trkpt>
      <trkpt lat="44.38934" lon="5.07053">
        <ele>416</ele>
        <time>2015-11-06T14:25:41Z</time>
      </trkpt>
      <trkpt lat="44.38934" lon="5.07053">
        <ele>416</ele>
        <time>2015-11-06T14:25:44Z</time>
      </trkpt>
      <trkpt lat="44.38934" lon="5.07053">
        <ele>417</ele>
        <time>2015-11-06T14:25:46Z</time>
      </trkpt>
      <trkpt lat="44.38934" lon="5.07053">
        <ele>419</ele>
        <time>2015-11-06T14:25:51Z</time>
      </trkpt>
      <trkpt lat="44.38934" lon="5.07053">
        <ele>419</ele>
        <time>2015-11-06T14:25:53Z</time>
      </trkpt>
      <trkpt lat="44.38935" lon="5.07053">
        <ele>420</ele>
        <time>2015-11-06T14:25:56Z</time>
      </trkpt>
      <trkpt lat="44.38937" lon="5.07054">
        <ele>423</ele>
        <time>2015-11-06T14:26:13Z</time>
      </trkpt>
      <trkpt lat="44.38937" lon="5.07054">
        <ele>423</ele>
        <time>2015-11-06T14:26:16Z</time>
      </trkpt>
      <trkpt lat="44.38937" lon="5.07054">
        <ele>423</ele>
        <time>2015-11-06T14:26:18Z</time>
      </trkpt>
      <trkpt lat="44.38937" lon="5.07054">
        <ele>423</ele>
        <time>2015-11-06T14:26:22Z</time>
      </trkpt>
      <trkpt lat="44.38937" lon="5.07054">
        <ele>423</ele>
        <time>2015-11-06T14:26:25Z</time>
      </trkpt>
      <trkpt lat="44.38938" lon="5.07053">
        <ele>425</ele>
        <time>2015-11-06T14:26:30Z</time>
      </trkpt>
      <trkpt lat="44.38945" lon="5.07046">
        <ele>421</ele>
        <time>2015-11-06T14:26:38Z</time>
      </trkpt>
      <trkpt lat="44.3895" lon="5.07037">
        <ele>420</ele>
        <time>2015-11-06T14:26:50Z</time>
      </trkpt>
      <trkpt lat="44.38962" lon="5.07021">
        <ele>419</ele>
        <time>2015-11-06T14:27:09Z</time>
      </trkpt>
      <trkpt lat="44.38963" lon="5.07018">
        <ele>418</ele>
        <time>2015-11-06T14:27:11Z</time>
      </trkpt>
      <trkpt lat="44.38967" lon="5.06998">
        <ele>416</ele>
        <time>2015-11-06T14:27:24Z</time>
      </trkpt>
      <trkpt lat="44.38976" lon="5.06981">
        <ele>416</ele>
        <time>2015-11-06T14:27:43Z</time>
      </trkpt>
      <trkpt lat="44.38977" lon="5.06979">
        <ele>416</ele>
        <time>2015-11-06T14:27:50Z</time>
      </trkpt>
      <trkpt lat="44.38978" lon="5.06975">
        <ele>417</ele>
        <time>2015-11-06T14:27:55Z</time>
      </trkpt>
      <trkpt lat="44.38984" lon="5.06979">
        <ele>414</ele>
        <time>2015-11-06T14:28:06Z</time>
      </trkpt>
      <trkpt lat="44.38985" lon="5.06981">
        <ele>414</ele>
        <time>2015-11-06T14:28:17Z</time>
      </trkpt>
      <trkpt lat="44.38987" lon="5.06981">
        <ele>414</ele>
        <time>2015-11-06T14:28:21Z</time>
      </trkpt>
      <trkpt lat="44.38988" lon="5.06981">
        <ele>413</ele>
        <time>2015-11-06T14:28:31Z</time>
      </trkpt>
      <trkpt lat="44.38988" lon="5.06981">
        <ele>413</ele>
        <time>2015-11-06T14:28:34Z</time>
      </trkpt>
      <trkpt lat="44.38988" lon="5.06981">
        <ele>413</ele>
        <time>2015-11-06T14:28:37Z</time>
      </trkpt>
      <trkpt lat="44.38988" lon="5.06981">
        <ele>413</ele>
        <time>2015-11-06T14:28:40Z</time>
      </trkpt>
      <trkpt lat="44.38988" lon="5.0698">
        <ele>414</ele>
        <time>2015-11-06T14:28:47Z</time>
      </trkpt>
      <trkpt lat="44.38989" lon="5.06979">
        <ele>414</ele>
        <time>2015-11-06T14:28:49Z</time>
      </trkpt>
      <trkpt lat="44.38993" lon="5.06971">
        <ele>415</ele>
        <time>2015-11-06T14:29:01Z</time>
      </trkpt>
      <trkpt lat="44.38999" lon="5.06961">
        <ele>413</ele>
        <time>2015-11-06T14:29:11Z</time>
      </trkpt>
      <trkpt lat="44.39003" lon="5.06957">
        <ele>411</ele>
        <time>2015-11-06T14:29:24Z</time>
      </trkpt>
      <trkpt lat="44.39003" lon="5.06958">
        <ele>411</ele>
        <time>2015-11-06T14:29:33Z</time>
      </trkpt>
      <trkpt lat="44.39003" lon="5.06959">
        <ele>411</ele>
        <time>2015-11-06T14:29:37Z</time>
      </trkpt>
      <trkpt lat="44.39002" lon="5.0696">
        <ele>412</ele>
        <time>2015-11-06T14:29:40Z</time>
      </trkpt>
      <trkpt lat="44.39" lon="5.06955">
        <ele>412</ele>
        <time>2015-11-06T14:29:50Z</time>
      </trkpt>
      <trkpt lat="44.39" lon="5.06953">
        <ele>411</ele>
        <time>2015-11-06T14:30:01Z</time>
      </trkpt>
      <trkpt lat="44.39" lon="5.06953">
        <ele>411</ele>
        <time>2015-11-06T14:30:05Z</time>
      </trkpt>
      <trkpt lat="44.39" lon="5.06953">
        <ele>411</ele>
        <time>2015-11-06T14:30:10Z</time>
      </trkpt>
      <trkpt lat="44.39" lon="5.06953">
        <ele>411</ele>
        <time>2015-11-06T14:30:10Z</time>
      </trkpt>
      <trkpt lat="44.39" lon="5.06953">
        <ele>411</ele>
        <time>2015-11-06T14:30:16Z</time>
      </trkpt>
      <trkpt lat="44.39" lon="5.06953">
        <ele>411</ele>
        <time>2015-11-06T14:30:16Z</time>
      </trkpt>
      <trkpt lat="44.39" lon="5.06953">
        <ele>411</ele>
        <time>2015-11-06T14:30:19Z</time>
      </trkpt>
      <trkpt lat="44.39" lon="5.06953">
        <ele>410</ele>
        <time>2015-11-06T14:30:22Z</time>
      </trkpt>
      <trkpt lat="44.39" lon="5.06954">
        <ele>411</ele>
        <time>2015-11-06T14:30:25Z</time>
      </trkpt>
      <trkpt lat="44.39" lon="5.06953">
        <ele>411</ele>
        <time>2015-11-06T14:30:30Z</time>
      </trkpt>
      <trkpt lat="44.39" lon="5.06952">
        <ele>410</ele>
        <time>2015-11-06T14:30:32Z</time>
      </trkpt>
      <trkpt lat="44.39005" lon="5.06946">
        <ele>409</ele>
        <time>2015-11-06T14:30:44Z</time>
      </trkpt>
      <trkpt lat="44.39003" lon="5.06943">
        <ele>410</ele>
        <time>2015-11-06T14:30:56Z</time>
      </trkpt>
      <trkpt lat="44.39003" lon="5.06943">
        <ele>410</ele>
        <time>2015-11-06T14:30:59Z</time>
      </trkpt>
      <trkpt lat="44.39003" lon="5.06943">
        <ele>410</ele>
        <time>2015-11-06T14:31:02Z</time>
      </trkpt>
      <trkpt lat="44.39003" lon="5.06943">
        <ele>410</ele>
        <time>2015-11-06T14:31:06Z</time>
      </trkpt>
      <trkpt lat="44.39003" lon="5.06944">
        <ele>409</ele>
        <time>2015-11-06T14:31:09Z</time>
      </trkpt>
      <trkpt lat="44.39002" lon="5.06944">
        <ele>410</ele>
        <time>2015-11-06T14:31:11Z</time>
      </trkpt>
      <trkpt lat="44.39002" lon="5.06941">
        <ele>411</ele>
        <time>2015-11-06T14:31:25Z</time>
      </trkpt>
      <trkpt lat="44.39002" lon="5.06939">
        <ele>411</ele>
        <time>2015-11-06T14:31:29Z</time>
      </trkpt>
      <trkpt lat="44.39004" lon="5.06936">
        <ele>411</ele>
        <time>2015-11-06T14:31:39Z</time>
      </trkpt>
      <trkpt lat="44.39007" lon="5.06933">
        <ele>411</ele>
        <time>2015-11-06T14:31:52Z</time>
      </trkpt>
      <trkpt lat="44.39008" lon="5.0693">
        <ele>409</ele>
        <time>2015-11-06T14:32:01Z</time>
      </trkpt>
      <trkpt lat="44.39012" lon="5.06927">
        <ele>405</ele>
        <time>2015-11-06T14:32:12Z</time>
      </trkpt>
      <trkpt lat="44.39013" lon="5.06931">
        <ele>405</ele>
        <time>2015-11-06T14:32:24Z</time>
      </trkpt>
      <trkpt lat="44.39014" lon="5.06931">
        <ele>406</ele>
        <time>2015-11-06T14:32:34Z</time>
      </trkpt>
      <trkpt lat="44.39014" lon="5.06932">
        <ele>406</ele>
        <time>2015-11-06T14:32:38Z</time>
      </trkpt>
      <trkpt lat="44.39014" lon="5.06933">
        <ele>406</ele>
        <time>2015-11-06T14:32:40Z</time>
      </trkpt>
      <trkpt lat="44.39018" lon="5.06937">
        <ele>407</ele>
        <time>2015-11-06T14:32:51Z</time>
      </trkpt>
      <trkpt lat="44.39018" lon="5.0694">
        <ele>405</ele>
        <time>2015-11-06T14:33:02Z</time>
      </trkpt>
      <trkpt lat="44.39022" lon="5.06946">
        <ele>404</ele>
        <time>2015-11-06T14:33:13Z</time>
      </trkpt>
      <trkpt lat="44.39024" lon="5.06947">
        <ele>404</ele>
        <time>2015-11-06T14:33:16Z</time>
      </trkpt>
      <trkpt lat="44.39033" lon="5.06945">
        <ele>405</ele>
        <time>2015-11-06T14:33:32Z</time>
      </trkpt>
      <trkpt lat="44.39034" lon="5.06944">
        <ele>404</ele>
        <time>2015-11-06T14:33:38Z</time>
      </trkpt>
      <trkpt lat="44.39036" lon="5.06944">
        <ele>403</ele>
        <time>2015-11-06T14:33:41Z</time>
      </trkpt>
      <trkpt lat="44.39051" lon="5.06943">
        <ele>404</ele>
        <time>2015-11-06T14:34:00Z</time>
      </trkpt>
      <trkpt lat="44.39053" lon="5.06942">
        <ele>403</ele>
        <time>2015-11-06T14:34:03Z</time>
      </trkpt>
      <trkpt lat="44.3906" lon="5.06937">
        <ele>403</ele>
        <time>2015-11-06T14:34:14Z</time>
      </trkpt>
      <trkpt lat="44.39068" lon="5.06935">
        <ele>403</ele>
        <time>2015-11-06T14:34:25Z</time>
      </trkpt>
      <trkpt lat="44.39078" lon="5.06929">
        <ele>404</ele>
        <time>2015-11-06T14:34:36Z</time>
      </trkpt>
      <trkpt lat="44.39091" lon="5.06922">
        <ele>403</ele>
        <time>2015-11-06T14:34:48Z</time>
      </trkpt>
      <trkpt lat="44.391" lon="5.06919">
        <ele>400</ele>
        <time>2015-11-06T14:34:59Z</time>
      </trkpt>
      <trkpt lat="44.39105" lon="5.0692">
        <ele>399</ele>
        <time>2015-11-06T14:35:09Z</time>
      </trkpt>
      <trkpt lat="44.39113" lon="5.06914">
        <ele>399</ele>
        <time>2015-11-06T14:35:20Z</time>
      </trkpt>
      <trkpt lat="44.39123" lon="5.06908">
        <ele>401</ele>
        <time>2015-11-06T14:35:33Z</time>
      </trkpt>
      <trkpt lat="44.39133" lon="5.06902">
        <ele>402</ele>
        <time>2015-11-06T14:35:43Z</time>
      </trkpt>
      <trkpt lat="44.3914" lon="5.06898">
        <ele>400</ele>
        <time>2015-11-06T14:35:53Z</time>
      </trkpt>
      <trkpt lat="44.39151" lon="5.06892">
        <ele>400</ele>
        <time>2015-11-06T14:36:08Z</time>
      </trkpt>
      <trkpt lat="44.39158" lon="5.06889">
        <ele>400</ele>
        <time>2015-11-06T14:36:15Z</time>
      </trkpt>
      <trkpt lat="44.39167" lon="5.06884">
        <ele>401</ele>
        <time>2015-11-06T14:36:26Z</time>
      </trkpt>
      <trkpt lat="44.39167" lon="5.06881">
        <ele>400</ele>
        <time>2015-11-06T14:36:38Z</time>
      </trkpt>
      <trkpt lat="44.39165" lon="5.06876">
        <ele>399</ele>
        <time>2015-11-06T14:36:49Z</time>
      </trkpt>
      <trkpt lat="44.39158" lon="5.06871">
        <ele>397</ele>
        <time>2015-11-06T14:36:59Z</time>
      </trkpt>
      <trkpt lat="44.3915" lon="5.06858">
        <ele>398</ele>
        <time>2015-11-06T14:37:17Z</time>
      </trkpt>
      <trkpt lat="44.3915" lon="5.06858">
        <ele>398</ele>
        <time>2015-11-06T14:37:21Z</time>
      </trkpt>
      <trkpt lat="44.3915" lon="5.06857">
        <ele>398</ele>
        <time>2015-11-06T14:37:24Z</time>
      </trkpt>
      <trkpt lat="44.39145" lon="5.0684">
        <ele>393</ele>
        <time>2015-11-06T14:37:40Z</time>
      </trkpt>
      <trkpt lat="44.39143" lon="5.06834">
        <ele>393</ele>
        <time>2015-11-06T14:37:46Z</time>
      </trkpt>
      <trkpt lat="44.39138" lon="5.06821">
        <ele>396</ele>
        <time>2015-11-06T14:37:57Z</time>
      </trkpt>
      <trkpt lat="44.39137" lon="5.06807">
        <ele>396</ele>
        <time>2015-11-06T14:38:12Z</time>
      </trkpt>
      <trkpt lat="44.39137" lon="5.06799">
        <ele>393</ele>
        <time>2015-11-06T14:38:19Z</time>
      </trkpt>
      <trkpt lat="44.39136" lon="5.06795">
        <ele>396</ele>
        <time>2015-11-06T14:38:30Z</time>
      </trkpt>
      <trkpt lat="44.39132" lon="5.06784">
        <ele>393</ele>
        <time>2015-11-06T14:38:48Z</time>
      </trkpt>
      <trkpt lat="44.39131" lon="5.06783">
        <ele>395</ele>
        <time>2015-11-06T14:38:52Z</time>
      </trkpt>
      <trkpt lat="44.3913" lon="5.06782">
        <ele>397</ele>
        <time>2015-11-06T14:39:03Z</time>
      </trkpt>
      <trkpt lat="44.39131" lon="5.0678">
        <ele>397</ele>
        <time>2015-11-06T14:39:07Z</time>
      </trkpt>
      <trkpt lat="44.39133" lon="5.06777">
        <ele>394</ele>
        <time>2015-11-06T14:39:23Z</time>
      </trkpt>
      <trkpt lat="44.39133" lon="5.06777">
        <ele>394</ele>
        <time>2015-11-06T14:39:26Z</time>
      </trkpt>
      <trkpt lat="44.39133" lon="5.06777">
        <ele>394</ele>
        <time>2015-11-06T14:39:29Z</time>
      </trkpt>
      <trkpt lat="44.39133" lon="5.06777">
        <ele>394</ele>
        <time>2015-11-06T14:39:32Z</time>
      </trkpt>
      <trkpt lat="44.39133" lon="5.06777">
        <ele>394</ele>
        <time>2015-11-06T14:39:35Z</time>
      </trkpt>
      <trkpt lat="44.39133" lon="5.06777">
        <ele>394</ele>
        <time>2015-11-06T14:39:38Z</time>
      </trkpt>
      <trkpt lat="44.39133" lon="5.06777">
        <ele>394</ele>
        <time>2015-11-06T14:39:41Z</time>
      </trkpt>
      <trkpt lat="44.39133" lon="5.06777">
        <ele>394</ele>
        <time>2015-11-06T14:39:45Z</time>
      </trkpt>
      <trkpt lat="44.39132" lon="5.06775">
        <ele>396</ele>
        <time>2015-11-06T14:39:47Z</time>
      </trkpt>
      <trkpt lat="44.39132" lon="5.06757">
        <ele>391</ele>
        <time>2015-11-06T14:39:58Z</time>
      </trkpt>
      <trkpt lat="44.39132" lon="5.06741">
        <ele>389</ele>
        <time>2015-11-06T14:40:09Z</time>
      </trkpt>
      <trkpt lat="44.3913" lon="5.06727">
        <ele>389</ele>
        <time>2015-11-06T14:40:20Z</time>
      </trkpt>
      <trkpt lat="44.39127" lon="5.06714">
        <ele>392</ele>
        <time>2015-11-06T14:40:31Z</time>
      </trkpt>
      <trkpt lat="44.39124" lon="5.06702">
        <ele>392</ele>
        <time>2015-11-06T14:40:42Z</time>
      </trkpt>
      <trkpt lat="44.39122" lon="5.06686">
        <ele>390</ele>
        <time>2015-11-06T14:40:55Z</time>
      </trkpt>
      <trkpt lat="44.39126" lon="5.06676">
        <ele>386</ele>
        <time>2015-11-06T14:41:05Z</time>
      </trkpt>
      <trkpt lat="44.3913" lon="5.06661">
        <ele>388</ele>
        <time>2015-11-06T14:41:15Z</time>
      </trkpt>
      <trkpt lat="44.39137" lon="5.06645">
        <ele>388</ele>
        <time>2015-11-06T14:41:29Z</time>
      </trkpt>
      <trkpt lat="44.3914" lon="5.06636">
        <ele>390</ele>
        <time>2015-11-06T14:41:37Z</time>
      </trkpt>
      <trkpt lat="44.39153" lon="5.06619">
        <ele>384</ele>
        <time>2015-11-06T14:41:56Z</time>
      </trkpt>
      <trkpt lat="44.39158" lon="5.06617">
        <ele>382</ele>
        <time>2015-11-06T14:42:02Z</time>
      </trkpt>
      <trkpt lat="44.39161" lon="5.06618">
        <ele>377</ele>
        <time>2015-11-06T14:42:11Z</time>
      </trkpt>
      <trkpt lat="44.39162" lon="5.06617">
        <ele>374</ele>
        <time>2015-11-06T14:42:21Z</time>
      </trkpt>
      <trkpt lat="44.39162" lon="5.06617">
        <ele>374</ele>
        <time>2015-11-06T14:42:24Z</time>
      </trkpt>
      <trkpt lat="44.39163" lon="5.06617">
        <ele>373</ele>
        <time>2015-11-06T14:42:27Z</time>
      </trkpt>
      <trkpt lat="44.39172" lon="5.06618">
        <ele>373</ele>
        <time>2015-11-06T14:42:39Z</time>
      </trkpt>
      <trkpt lat="44.39181" lon="5.06617">
        <ele>372</ele>
        <time>2015-11-06T14:42:50Z</time>
      </trkpt>
      <trkpt lat="44.3919" lon="5.06613">
        <ele>369</ele>
        <time>2015-11-06T14:43:00Z</time>
      </trkpt>
      <trkpt lat="44.392" lon="5.0661">
        <ele>368</ele>
        <time>2015-11-06T14:43:11Z</time>
      </trkpt>
      <trkpt lat="44.3921" lon="5.06609">
        <ele>368</ele>
        <time>2015-11-06T14:43:22Z</time>
      </trkpt>
      <trkpt lat="44.3922" lon="5.06606">
        <ele>366</ele>
        <time>2015-11-06T14:43:34Z</time>
      </trkpt>
      <trkpt lat="44.39229" lon="5.06603">
        <ele>366</ele>
        <time>2015-11-06T14:43:45Z</time>
      </trkpt>
      <trkpt lat="44.39237" lon="5.06602">
        <ele>364</ele>
        <time>2015-11-06T14:43:55Z</time>
      </trkpt>
      <trkpt lat="44.39247" lon="5.06603">
        <ele>364</ele>
        <time>2015-11-06T14:44:07Z</time>
      </trkpt>
      <trkpt lat="44.39256" lon="5.06604">
        <ele>363</ele>
        <time>2015-11-06T14:44:19Z</time>
      </trkpt>
      <trkpt lat="44.39272" lon="5.06607">
        <ele>362</ele>
        <time>2015-11-06T14:44:33Z</time>
      </trkpt>
      <trkpt lat="44.39279" lon="5.06603">
        <ele>362</ele>
        <time>2015-11-06T14:44:40Z</time>
      </trkpt>
      <trkpt lat="44.39281" lon="5.06589">
        <ele>359</ele>
        <time>2015-11-06T14:44:51Z</time>
      </trkpt>
      <trkpt lat="44.39276" lon="5.06578">
        <ele>356</ele>
        <time>2015-11-06T14:45:04Z</time>
      </trkpt>
      <trkpt lat="44.39272" lon="5.06572">
        <ele>357</ele>
        <time>2015-11-06T14:45:12Z</time>
      </trkpt>
      <trkpt lat="44.39265" lon="5.06562">
        <ele>358</ele>
        <time>2015-11-06T14:45:23Z</time>
      </trkpt>
      <trkpt lat="44.39258" lon="5.0655">
        <ele>357</ele>
        <time>2015-11-06T14:45:36Z</time>
      </trkpt>
      <trkpt lat="44.39254" lon="5.06537">
        <ele>353</ele>
        <time>2015-11-06T14:45:47Z</time>
      </trkpt>
      <trkpt lat="44.39247" lon="5.0653">
        <ele>353</ele>
        <time>2015-11-06T14:45:56Z</time>
      </trkpt>
      <trkpt lat="44.39239" lon="5.06517">
        <ele>352</ele>
        <time>2015-11-06T14:46:09Z</time>
      </trkpt>
      <trkpt lat="44.39236" lon="5.06508">
        <ele>349</ele>
        <time>2015-11-06T14:46:18Z</time>
      </trkpt>
      <trkpt lat="44.39229" lon="5.06494">
        <ele>349</ele>
        <time>2015-11-06T14:46:35Z</time>
      </trkpt>
      <trkpt lat="44.39228" lon="5.06485">
        <ele>346</ele>
        <time>2015-11-06T14:46:44Z</time>
      </trkpt>
      <trkpt lat="44.39231" lon="5.06477">
        <ele>345</ele>
        <time>2015-11-06T14:46:52Z</time>
      </trkpt>
      <trkpt lat="44.39239" lon="5.06469">
        <ele>344</ele>
        <time>2015-11-06T14:47:02Z</time>
      </trkpt>
      <trkpt lat="44.39249" lon="5.06476">
        <ele>344</ele>
        <time>2015-11-06T14:47:13Z</time>
      </trkpt>
      <trkpt lat="44.39257" lon="5.06483">
        <ele>343</ele>
        <time>2015-11-06T14:47:24Z</time>
      </trkpt>
      <trkpt lat="44.39258" lon="5.06483">
        <ele>341</ele>
        <time>2015-11-06T14:47:36Z</time>
      </trkpt>
      <trkpt lat="44.39262" lon="5.06483">
        <ele>342</ele>
        <time>2015-11-06T14:47:39Z</time>
      </trkpt>
      <trkpt lat="44.39271" lon="5.06477">
        <ele>343</ele>
        <time>2015-11-06T14:47:49Z</time>
      </trkpt>
      <trkpt lat="44.39278" lon="5.0646">
        <ele>345</ele>
        <time>2015-11-06T14:48:02Z</time>
      </trkpt>
      <trkpt lat="44.39282" lon="5.06449">
        <ele>347</ele>
        <time>2015-11-06T14:48:11Z</time>
      </trkpt>
      <trkpt lat="44.39285" lon="5.06437">
        <ele>350</ele>
        <time>2015-11-06T14:48:23Z</time>
      </trkpt>
      <trkpt lat="44.39289" lon="5.06425">
        <ele>353</ele>
        <time>2015-11-06T14:48:36Z</time>
      </trkpt>
      <trkpt lat="44.39292" lon="5.06416">
        <ele>356</ele>
        <time>2015-11-06T14:48:45Z</time>
      </trkpt>
      <trkpt lat="44.39293" lon="5.06405">
        <ele>356</ele>
        <time>2015-11-06T14:48:56Z</time>
      </trkpt>
      <trkpt lat="44.39292" lon="5.06398">
        <ele>357</ele>
        <time>2015-11-06T14:49:08Z</time>
      </trkpt>
      <trkpt lat="44.39295" lon="5.06387">
        <ele>357</ele>
        <time>2015-11-06T14:49:17Z</time>
      </trkpt>
      <trkpt lat="44.39303" lon="5.06385">
        <ele>356</ele>
        <time>2015-11-06T14:49:28Z</time>
      </trkpt>
      <trkpt lat="44.39303" lon="5.06386">
        <ele>357</ele>
        <time>2015-11-06T14:49:39Z</time>
      </trkpt>
      <trkpt lat="44.39303" lon="5.06387">
        <ele>357</ele>
        <time>2015-11-06T14:49:43Z</time>
      </trkpt>
      <trkpt lat="44.39303" lon="5.06386">
        <ele>357</ele>
        <time>2015-11-06T14:49:45Z</time>
      </trkpt>
      <trkpt lat="44.39303" lon="5.06386">
        <ele>357</ele>
        <time>2015-11-06T14:49:48Z</time>
      </trkpt>
      <trkpt lat="44.39303" lon="5.06386">
        <ele>357</ele>
        <time>2015-11-06T14:49:51Z</time>
      </trkpt>
      <trkpt lat="44.39303" lon="5.06386">
        <ele>357</ele>
        <time>2015-11-06T14:49:54Z</time>
      </trkpt>
      <trkpt lat="44.39303" lon="5.06386">
        <ele>357</ele>
        <time>2015-11-06T14:49:57Z</time>
      </trkpt>
      <trkpt lat="44.39303" lon="5.06386">
        <ele>357</ele>
        <time>2015-11-06T14:50:00Z</time>
      </trkpt>
      <trkpt lat="44.39303" lon="5.06386">
        <ele>357</ele>
        <time>2015-11-06T14:50:03Z</time>
      </trkpt>
      <trkpt lat="44.39303" lon="5.06386">
        <ele>357</ele>
        <time>2015-11-06T14:50:06Z</time>
      </trkpt>
      <trkpt lat="44.39303" lon="5.06386">
        <ele>357</ele>
        <time>2015-11-06T14:50:09Z</time>
      </trkpt>
      <trkpt lat="44.39303" lon="5.06386">
        <ele>357</ele>
        <time>2015-11-06T14:50:12Z</time>
      </trkpt>
      <trkpt lat="44.39303" lon="5.06386">
        <ele>357</ele>
        <time>2015-11-06T14:50:15Z</time>
      </trkpt>
      <trkpt lat="44.39304" lon="5.06387">
        <ele>357</ele>
        <time>2015-11-06T14:50:21Z</time>
      </trkpt>
      <trkpt lat="44.39304" lon="5.06387">
        <ele>357</ele>
        <time>2015-11-06T14:50:25Z</time>
      </trkpt>
      <trkpt lat="44.39304" lon="5.06387">
        <ele>357</ele>
        <time>2015-11-06T14:50:29Z</time>
      </trkpt>
      <trkpt lat="44.39304" lon="5.06387">
        <ele>357</ele>
        <time>2015-11-06T14:50:31Z</time>
      </trkpt>
      <trkpt lat="44.39304" lon="5.06387">
        <ele>357</ele>
        <time>2015-11-06T14:50:33Z</time>
      </trkpt>
      <trkpt lat="44.39304" lon="5.06387">
        <ele>357</ele>
        <time>2015-11-06T14:50:36Z</time>
      </trkpt>
      <trkpt lat="44.39304" lon="5.06387">
        <ele>357</ele>
        <time>2015-11-06T14:50:39Z</time>
      </trkpt>
      <trkpt lat="44.39304" lon="5.06387">
        <ele>357</ele>
        <time>2015-11-06T14:50:42Z</time>
      </trkpt>
      <trkpt lat="44.39304" lon="5.06387">
        <ele>357</ele>
        <time>2015-11-06T14:50:45Z</time>
      </trkpt>
      <trkpt lat="44.39304" lon="5.06387">
        <ele>357</ele>
        <time>2015-11-06T14:50:48Z</time>
      </trkpt>
      <trkpt lat="44.39304" lon="5.06387">
        <ele>357</ele>
        <time>2015-11-06T14:50:51Z</time>
      </trkpt>
      <trkpt lat="44.39304" lon="5.06387">
        <ele>357</ele>
        <time>2015-11-06T14:50:54Z</time>
      </trkpt>
      <trkpt lat="44.39304" lon="5.06387">
        <ele>357</ele>
        <time>2015-11-06T14:50:57Z</time>
      </trkpt>
      <trkpt lat="44.39304" lon="5.06387">
        <ele>357</ele>
        <time>2015-11-06T14:51:00Z</time>
      </trkpt>
      <trkpt lat="44.39304" lon="5.06387">
        <ele>357</ele>
        <time>2015-11-06T14:51:03Z</time>
      </trkpt>
      <trkpt lat="44.39304" lon="5.06387">
        <ele>357</ele>
        <time>2015-11-06T14:51:07Z</time>
      </trkpt>
      <trkpt lat="44.39304" lon="5.06387">
        <ele>357</ele>
        <time>2015-11-06T14:51:10Z</time>
      </trkpt>
      <trkpt lat="44.39304" lon="5.06387">
        <ele>357</ele>
        <time>2015-11-06T14:51:12Z</time>
      </trkpt>
      <trkpt lat="44.39304" lon="5.06387">
        <ele>357</ele>
        <time>2015-11-06T14:51:15Z</time>
      </trkpt>
      <trkpt lat="44.39304" lon="5.06387">
        <ele>357</ele>
        <time>2015-11-06T14:51:19Z</time>
      </trkpt>
      <trkpt lat="44.39304" lon="5.06387">
        <ele>357</ele>
        <time>2015-11-06T14:51:21Z</time>
      </trkpt>
      <trkpt lat="44.39304" lon="5.06387">
        <ele>357</ele>
        <time>2015-11-06T14:51:24Z</time>
      </trkpt>
      <trkpt lat="44.39304" lon="5.06387">
        <ele>357</ele>
        <time>2015-11-06T14:51:27Z</time>
      </trkpt>
      <trkpt lat="44.39304" lon="5.06387">
        <ele>357</ele>
        <time>2015-11-06T14:51:30Z</time>
      </trkpt>
      <trkpt lat="44.39304" lon="5.06387">
        <ele>357</ele>
        <time>2015-11-06T14:51:33Z</time>
      </trkpt>
      <trkpt lat="44.39304" lon="5.06387">
        <ele>357</ele>
        <time>2015-11-06T14:51:36Z</time>
      </trkpt>
      <trkpt lat="44.39304" lon="5.06387">
        <ele>357</ele>
        <time>2015-11-06T14:51:39Z</time>
      </trkpt>
      <trkpt lat="44.39304" lon="5.06387">
        <ele>357</ele>
        <time>2015-11-06T14:51:42Z</time>
      </trkpt>
      <trkpt lat="44.39304" lon="5.06387">
        <ele>357</ele>
        <time>2015-11-06T14:51:45Z</time>
      </trkpt>
      <trkpt lat="44.39304" lon="5.06387">
        <ele>357</ele>
        <time>2015-11-06T14:51:48Z</time>
      </trkpt>
      <trkpt lat="44.39304" lon="5.06387">
        <ele>357</ele>
        <time>2015-11-06T14:51:51Z</time>
      </trkpt>
      <trkpt lat="44.39304" lon="5.06387">
        <ele>357</ele>
        <time>2015-11-06T14:51:54Z</time>
      </trkpt>
      <trkpt lat="44.39304" lon="5.06387">
        <ele>357</ele>
        <time>2015-11-06T14:51:57Z</time>
      </trkpt>
      <trkpt lat="44.39304" lon="5.06387">
        <ele>357</ele>
        <time>2015-11-06T14:52:00Z</time>
      </trkpt>
      <trkpt lat="44.39304" lon="5.06387">
        <ele>357</ele>
        <time>2015-11-06T14:52:03Z</time>
      </trkpt>
      <trkpt lat="44.39304" lon="5.06387">
        <ele>357</ele>
        <time>2015-11-06T14:52:07Z</time>
      </trkpt>
      <trkpt lat="44.39304" lon="5.06387">
        <ele>357</ele>
        <time>2015-11-06T14:52:11Z</time>
      </trkpt>
      <trkpt lat="44.39304" lon="5.06387">
        <ele>357</ele>
        <time>2015-11-06T14:52:12Z</time>
      </trkpt>
      <trkpt lat="44.39304" lon="5.06387">
        <ele>357</ele>
        <time>2015-11-06T14:52:16Z</time>
      </trkpt>
      <trkpt lat="44.39304" lon="5.06387">
        <ele>357</ele>
        <time>2015-11-06T14:52:18Z</time>
      </trkpt>
      <trkpt lat="44.39304" lon="5.06387">
        <ele>357</ele>
        <time>2015-11-06T14:52:21Z</time>
      </trkpt>
      <trkpt lat="44.39304" lon="5.06387">
        <ele>357</ele>
        <time>2015-11-06T14:52:24Z</time>
      </trkpt>
      <trkpt lat="44.39304" lon="5.06387">
        <ele>357</ele>
        <time>2015-11-06T14:52:28Z</time>
      </trkpt>
      <trkpt lat="44.39304" lon="5.06387">
        <ele>357</ele>
        <time>2015-11-06T14:52:30Z</time>
      </trkpt>
      <trkpt lat="44.39304" lon="5.06387">
        <ele>357</ele>
        <time>2015-11-06T14:52:33Z</time>
      </trkpt>
      <trkpt lat="44.39304" lon="5.06403">
        <ele>356</ele>
        <time>2015-11-06T14:52:44Z</time>
      </trkpt>
      <trkpt lat="44.39302" lon="5.06419">
        <ele>356</ele>
        <time>2015-11-06T14:52:56Z</time>
      </trkpt>
      <trkpt lat="44.39301" lon="5.06434">
        <ele>358</ele>
        <time>2015-11-06T14:53:06Z</time>
      </trkpt>
      <trkpt lat="44.39306" lon="5.06445">
        <ele>357</ele>
        <time>2015-11-06T14:53:17Z</time>
      </trkpt>
      <trkpt lat="44.39318" lon="5.06444">
        <ele>358</ele>
        <time>2015-11-06T14:53:28Z</time>
      </trkpt>
      <trkpt lat="44.39328" lon="5.06441">
        <ele>358</ele>
        <time>2015-11-06T14:53:39Z</time>
      </trkpt>
      <trkpt lat="44.39338" lon="5.06438">
        <ele>359</ele>
        <time>2015-11-06T14:53:50Z</time>
      </trkpt>
      <trkpt lat="44.39349" lon="5.06435">
        <ele>358</ele>
        <time>2015-11-06T14:54:01Z</time>
      </trkpt>
      <trkpt lat="44.3936" lon="5.06432">
        <ele>357</ele>
        <time>2015-11-06T14:54:12Z</time>
      </trkpt>
      <trkpt lat="44.39371" lon="5.0643">
        <ele>357</ele>
        <time>2015-11-06T14:54:23Z</time>
      </trkpt>
      <trkpt lat="44.39382" lon="5.06427">
        <ele>356</ele>
        <time>2015-11-06T14:54:34Z</time>
      </trkpt>
      <trkpt lat="44.39393" lon="5.06425">
        <ele>357</ele>
        <time>2015-11-06T14:54:45Z</time>
      </trkpt>
      <trkpt lat="44.39403" lon="5.06423">
        <ele>358</ele>
        <time>2015-11-06T14:54:56Z</time>
      </trkpt>
      <trkpt lat="44.39415" lon="5.06423">
        <ele>358</ele>
        <time>2015-11-06T14:55:09Z</time>
      </trkpt>
      <trkpt lat="44.3942" lon="5.06431">
        <ele>359</ele>
        <time>2015-11-06T14:55:18Z</time>
      </trkpt>
      <trkpt lat="44.39425" lon="5.06444">
        <ele>361</ele>
        <time>2015-11-06T14:55:29Z</time>
      </trkpt>
      <trkpt lat="44.39427" lon="5.06446">
        <ele>361</ele>
        <time>2015-11-06T14:55:40Z</time>
      </trkpt>
      <trkpt lat="44.3943" lon="5.06451">
        <ele>361</ele>
        <time>2015-11-06T14:55:52Z</time>
      </trkpt>
      <trkpt lat="44.39434" lon="5.06464">
        <ele>363</ele>
        <time>2015-11-06T14:56:02Z</time>
      </trkpt>
      <trkpt lat="44.3944" lon="5.06478">
        <ele>363</ele>
        <time>2015-11-06T14:56:13Z</time>
      </trkpt>
      <trkpt lat="44.39444" lon="5.06493">
        <ele>365</ele>
        <time>2015-11-06T14:56:24Z</time>
      </trkpt>
      <trkpt lat="44.39449" lon="5.06506">
        <ele>364</ele>
        <time>2015-11-06T14:56:35Z</time>
      </trkpt>
      <trkpt lat="44.39453" lon="5.06516">
        <ele>366</ele>
        <time>2015-11-06T14:56:46Z</time>
      </trkpt>
      <trkpt lat="44.39466" lon="5.06517">
        <ele>367</ele>
        <time>2015-11-06T14:56:57Z</time>
      </trkpt>
      <trkpt lat="44.39476" lon="5.06516">
        <ele>367</ele>
        <time>2015-11-06T14:57:08Z</time>
      </trkpt>
      <trkpt lat="44.3948" lon="5.06529">
        <ele>366</ele>
        <time>2015-11-06T14:57:19Z</time>
      </trkpt>
      <trkpt lat="44.3948" lon="5.06545">
        <ele>367</ele>
        <time>2015-11-06T14:57:30Z</time>
      </trkpt>
      <trkpt lat="44.39482" lon="5.06562">
        <ele>367</ele>
        <time>2015-11-06T14:57:42Z</time>
      </trkpt>
      <trkpt lat="44.39483" lon="5.06575">
        <ele>367</ele>
        <time>2015-11-06T14:57:52Z</time>
      </trkpt>
      <trkpt lat="44.39484" lon="5.06591">
        <ele>368</ele>
        <time>2015-11-06T14:58:03Z</time>
      </trkpt>
      <trkpt lat="44.39485" lon="5.06606">
        <ele>366</ele>
        <time>2015-11-06T14:58:13Z</time>
      </trkpt>
      <trkpt lat="44.39487" lon="5.06621">
        <ele>368</ele>
        <time>2015-11-06T14:58:24Z</time>
      </trkpt>
      <trkpt lat="44.39488" lon="5.06641">
        <ele>371</ele>
        <time>2015-11-06T14:58:38Z</time>
      </trkpt>
      <trkpt lat="44.39489" lon="5.06654">
        <ele>375</ele>
        <time>2015-11-06T14:58:47Z</time>
      </trkpt>
      <trkpt lat="44.39492" lon="5.0667">
        <ele>374</ele>
        <time>2015-11-06T14:58:58Z</time>
      </trkpt>
      <trkpt lat="44.39492" lon="5.06683">
        <ele>374</ele>
        <time>2015-11-06T14:59:08Z</time>
      </trkpt>
      <trkpt lat="44.39495" lon="5.06699">
        <ele>375</ele>
        <time>2015-11-06T14:59:20Z</time>
      </trkpt>
      <trkpt lat="44.39503" lon="5.06704">
        <ele>375</ele>
        <time>2015-11-06T14:59:30Z</time>
      </trkpt>
      <trkpt lat="44.39511" lon="5.06714">
        <ele>375</ele>
        <time>2015-11-06T14:59:42Z</time>
      </trkpt>
      <trkpt lat="44.39511" lon="5.06729">
        <ele>374</ele>
        <time>2015-11-06T14:59:52Z</time>
      </trkpt>
      <trkpt lat="44.39509" lon="5.06745">
        <ele>371</ele>
        <time>2015-11-06T15:00:03Z</time>
      </trkpt>
      <trkpt lat="44.3951" lon="5.06762">
        <ele>372</ele>
        <time>2015-11-06T15:00:14Z</time>
      </trkpt>
      <trkpt lat="44.3951" lon="5.06779">
        <ele>372</ele>
        <time>2015-11-06T15:00:26Z</time>
      </trkpt>
      <trkpt lat="44.39511" lon="5.06794">
        <ele>372</ele>
        <time>2015-11-06T15:00:36Z</time>
      </trkpt>
      <trkpt lat="44.39512" lon="5.06809">
        <ele>374</ele>
        <time>2015-11-06T15:00:47Z</time>
      </trkpt>
      <trkpt lat="44.39513" lon="5.06825">
        <ele>375</ele>
        <time>2015-11-06T15:00:58Z</time>
      </trkpt>
      <trkpt lat="44.39514" lon="5.06841">
        <ele>376</ele>
        <time>2015-11-06T15:01:09Z</time>
      </trkpt>
      <trkpt lat="44.39515" lon="5.06857">
        <ele>378</ele>
        <time>2015-11-06T15:01:20Z</time>
      </trkpt>
      <trkpt lat="44.39516" lon="5.06873">
        <ele>378</ele>
        <time>2015-11-06T15:01:31Z</time>
      </trkpt>
      <trkpt lat="44.39516" lon="5.06889">
        <ele>378</ele>
        <time>2015-11-06T15:01:43Z</time>
      </trkpt>
      <trkpt lat="44.39517" lon="5.06902">
        <ele>379</ele>
        <time>2015-11-06T15:01:53Z</time>
      </trkpt>
      <trkpt lat="44.39519" lon="5.06917">
        <ele>379</ele>
        <time>2015-11-06T15:02:04Z</time>
      </trkpt>
      <trkpt lat="44.39519" lon="5.0694">
        <ele>379</ele>
        <time>2015-11-06T15:02:20Z</time>
      </trkpt>
      <trkpt lat="44.39517" lon="5.06948">
        <ele>379</ele>
        <time>2015-11-06T15:02:26Z</time>
      </trkpt>
      <trkpt lat="44.39512" lon="5.06965">
        <ele>381</ele>
        <time>2015-11-06T15:02:38Z</time>
      </trkpt>
      <trkpt lat="44.39511" lon="5.06979">
        <ele>380</ele>
        <time>2015-11-06T15:02:48Z</time>
      </trkpt>
      <trkpt lat="44.3951" lon="5.06993">
        <ele>380</ele>
        <time>2015-11-06T15:02:59Z</time>
      </trkpt>
      <trkpt lat="44.39512" lon="5.07009">
        <ele>383</ele>
        <time>2015-11-06T15:03:10Z</time>
      </trkpt>
      <trkpt lat="44.39512" lon="5.07024">
        <ele>382</ele>
        <time>2015-11-06T15:03:21Z</time>
      </trkpt>
      <trkpt lat="44.39512" lon="5.07039">
        <ele>381</ele>
        <time>2015-11-06T15:03:32Z</time>
      </trkpt>
      <trkpt lat="44.39512" lon="5.07068">
        <ele>380</ele>
        <time>2015-11-06T15:03:53Z</time>
      </trkpt>
      <trkpt lat="44.39512" lon="5.0707">
        <ele>381</ele>
        <time>2015-11-06T15:03:54Z</time>
      </trkpt>
      <trkpt lat="44.39511" lon="5.07086">
        <ele>381</ele>
        <time>2015-11-06T15:04:05Z</time>
      </trkpt>
      <trkpt lat="44.39515" lon="5.07102">
        <ele>381</ele>
        <time>2015-11-06T15:04:16Z</time>
      </trkpt>
      <trkpt lat="44.39521" lon="5.07115">
        <ele>382</ele>
        <time>2015-11-06T15:04:28Z</time>
      </trkpt>
      <trkpt lat="44.39521" lon="5.07127">
        <ele>384</ele>
        <time>2015-11-06T15:04:38Z</time>
      </trkpt>
      <trkpt lat="44.39522" lon="5.0714">
        <ele>383</ele>
        <time>2015-11-06T15:04:49Z</time>
      </trkpt>
      <trkpt lat="44.39524" lon="5.07143">
        <ele>385</ele>
        <time>2015-11-06T15:05:00Z</time>
      </trkpt>
      <trkpt lat="44.39526" lon="5.07144">
        <ele>385</ele>
        <time>2015-11-06T15:05:11Z</time>
      </trkpt>
      <trkpt lat="44.39525" lon="5.07144">
        <ele>385</ele>
        <time>2015-11-06T15:05:14Z</time>
      </trkpt>
      <trkpt lat="44.39524" lon="5.07145">
        <ele>385</ele>
        <time>2015-11-06T15:05:17Z</time>
      </trkpt>
      <trkpt lat="44.39523" lon="5.07149">
        <ele>385</ele>
        <time>2015-11-06T15:05:28Z</time>
      </trkpt>
      <trkpt lat="44.39524" lon="5.07153">
        <ele>385</ele>
        <time>2015-11-06T15:05:39Z</time>
      </trkpt>
      <trkpt lat="44.39524" lon="5.07161">
        <ele>386</ele>
        <time>2015-11-06T15:05:50Z</time>
      </trkpt>
      <trkpt lat="44.39524" lon="5.07175">
        <ele>385</ele>
        <time>2015-11-06T15:06:02Z</time>
      </trkpt>
      <trkpt lat="44.39524" lon="5.07187">
        <ele>385</ele>
        <time>2015-11-06T15:06:12Z</time>
      </trkpt>
      <trkpt lat="44.39526" lon="5.07204">
        <ele>387</ele>
        <time>2015-11-06T15:06:28Z</time>
      </trkpt>
      <trkpt lat="44.39525" lon="5.07205">
        <ele>386</ele>
        <time>2015-11-06T15:06:34Z</time>
      </trkpt>
      <trkpt lat="44.39527" lon="5.07206">
        <ele>387</ele>
        <time>2015-11-06T15:06:43Z</time>
      </trkpt>
      <trkpt lat="44.39527" lon="5.07206">
        <ele>387</ele>
        <time>2015-11-06T15:06:46Z</time>
      </trkpt>
      <trkpt lat="44.39527" lon="5.07206">
        <ele>387</ele>
        <time>2015-11-06T15:06:50Z</time>
      </trkpt>
      <trkpt lat="44.39526" lon="5.07206">
        <ele>387</ele>
        <time>2015-11-06T15:06:52Z</time>
      </trkpt>
      <trkpt lat="44.39525" lon="5.07206">
        <ele>389</ele>
        <time>2015-11-06T15:06:55Z</time>
      </trkpt>
      <trkpt lat="44.39524" lon="5.07207">
        <ele>390</ele>
        <time>2015-11-06T15:07:06Z</time>
      </trkpt>
      <trkpt lat="44.39525" lon="5.07203">
        <ele>390</ele>
        <time>2015-11-06T15:07:10Z</time>
      </trkpt>
      <trkpt lat="44.39525" lon="5.07191">
        <ele>390</ele>
        <time>2015-11-06T15:07:20Z</time>
      </trkpt>
      <trkpt lat="44.39525" lon="5.07189">
        <ele>391</ele>
        <time>2015-11-06T15:07:32Z</time>
      </trkpt>
      <trkpt lat="44.39525" lon="5.07185">
        <ele>392</ele>
        <time>2015-11-06T15:07:35Z</time>
      </trkpt>
      <trkpt lat="44.39523" lon="5.07182">
        <ele>391</ele>
        <time>2015-11-06T15:07:52Z</time>
      </trkpt>
      <trkpt lat="44.39522" lon="5.07181">
        <ele>391</ele>
        <time>2015-11-06T15:07:56Z</time>
      </trkpt>
      <trkpt lat="44.39522" lon="5.07181">
        <ele>391</ele>
        <time>2015-11-06T15:08:00Z</time>
      </trkpt>
      <trkpt lat="44.39522" lon="5.07181">
        <ele>391</ele>
        <time>2015-11-06T15:08:02Z</time>
      </trkpt>
      <trkpt lat="44.39522" lon="5.07181">
        <ele>391</ele>
        <time>2015-11-06T15:08:06Z</time>
      </trkpt>
      <trkpt lat="44.39522" lon="5.07181">
        <ele>391</ele>
        <time>2015-11-06T15:08:10Z</time>
      </trkpt>
      <trkpt lat="44.39522" lon="5.07181">
        <ele>391</ele>
        <time>2015-11-06T15:08:11Z</time>
      </trkpt>
      <trkpt lat="44.39522" lon="5.0718">
        <ele>391</ele>
        <time>2015-11-06T15:08:14Z</time>
      </trkpt>
      <trkpt lat="44.39522" lon="5.07171">
        <ele>391</ele>
        <time>2015-11-06T15:08:25Z</time>
      </trkpt>
      <trkpt lat="44.39521" lon="5.0717">
        <ele>391</ele>
        <time>2015-11-06T15:08:37Z</time>
      </trkpt>
      <trkpt lat="44.39521" lon="5.0717">
        <ele>391</ele>
        <time>2015-11-06T15:08:39Z</time>
      </trkpt>
      <trkpt lat="44.39521" lon="5.0717">
        <ele>391</ele>
        <time>2015-11-06T15:08:42Z</time>
      </trkpt>
      <trkpt lat="44.39521" lon="5.0717">
        <ele>391</ele>
        <time>2015-11-06T15:08:45Z</time>
      </trkpt>
      <trkpt lat="44.39521" lon="5.0717">
        <ele>391</ele>
        <time>2015-11-06T15:08:48Z</time>
      </trkpt>
      <trkpt lat="44.39521" lon="5.0717">
        <ele>391</ele>
        <time>2015-11-06T15:08:51Z</time>
      </trkpt>
      <trkpt lat="44.39521" lon="5.07169">
        <ele>391</ele>
        <time>2015-11-06T15:08:55Z</time>
      </trkpt>
      <trkpt lat="44.39522" lon="5.07169">
        <ele>391</ele>
        <time>2015-11-06T15:09:00Z</time>
      </trkpt>
      <trkpt lat="44.39522" lon="5.07169">
        <ele>390</ele>
        <time>2015-11-06T15:09:03Z</time>
      </trkpt>
      <trkpt lat="44.39522" lon="5.07169">
        <ele>390</ele>
        <time>2015-11-06T15:09:07Z</time>
      </trkpt>
      <trkpt lat="44.39522" lon="5.07169">
        <ele>390</ele>
        <time>2015-11-06T15:09:10Z</time>
      </trkpt>
      <trkpt lat="44.39522" lon="5.07169">
        <ele>390</ele>
        <time>2015-11-06T15:09:12Z</time>
      </trkpt>
      <trkpt lat="44.39522" lon="5.07169">
        <ele>390</ele>
        <time>2015-11-06T15:09:16Z</time>
      </trkpt>
      <trkpt lat="44.39522" lon="5.07169">
        <ele>389</ele>
        <time>2015-11-06T15:09:19Z</time>
      </trkpt>
      <trkpt lat="44.39522" lon="5.07169">
        <ele>389</ele>
        <time>2015-11-06T15:09:21Z</time>
      </trkpt>
      <trkpt lat="44.39522" lon="5.07168">
        <ele>390</ele>
        <time>2015-11-06T15:09:24Z</time>
      </trkpt>
      <trkpt lat="44.39522" lon="5.07167">
        <ele>390</ele>
        <time>2015-11-06T15:09:28Z</time>
      </trkpt>
      <trkpt lat="44.39522" lon="5.07167">
        <ele>389</ele>
        <time>2015-11-06T15:09:30Z</time>
      </trkpt>
      <trkpt lat="44.39522" lon="5.07168">
        <ele>388</ele>
        <time>2015-11-06T15:09:35Z</time>
      </trkpt>
      <trkpt lat="44.39523" lon="5.07167">
        <ele>389</ele>
        <time>2015-11-06T15:09:36Z</time>
      </trkpt>
      <trkpt lat="44.39523" lon="5.07166">
        <ele>391</ele>
        <time>2015-11-06T15:09:48Z</time>
      </trkpt>
      <trkpt lat="44.39522" lon="5.07166">
        <ele>391</ele>
        <time>2015-11-06T15:09:50Z</time>
      </trkpt>
      <trkpt lat="44.39522" lon="5.07167">
        <ele>391</ele>
        <time>2015-11-06T15:09:53Z</time>
      </trkpt>
      <trkpt lat="44.39523" lon="5.07167">
        <ele>391</ele>
        <time>2015-11-06T15:09:57Z</time>
      </trkpt>
      <trkpt lat="44.39523" lon="5.07167">
        <ele>390</ele>
        <time>2015-11-06T15:10:00Z</time>
      </trkpt>
      <trkpt lat="44.39523" lon="5.07167">
        <ele>390</ele>
        <time>2015-11-06T15:10:02Z</time>
      </trkpt>
      <trkpt lat="44.39523" lon="5.07167">
        <ele>390</ele>
        <time>2015-11-06T15:10:07Z</time>
      </trkpt>
      <trkpt lat="44.39523" lon="5.07167">
        <ele>390</ele>
        <time>2015-11-06T15:10:09Z</time>
      </trkpt>
      <trkpt lat="44.39523" lon="5.07166">
        <ele>390</ele>
        <time>2015-11-06T15:10:11Z</time>
      </trkpt>
      <trkpt lat="44.39523" lon="5.07167">
        <ele>390</ele>
        <time>2015-11-06T15:10:14Z</time>
      </trkpt>
      <trkpt lat="44.39523" lon="5.07168">
        <ele>388</ele>
        <time>2015-11-06T15:10:20Z</time>
      </trkpt>
      <trkpt lat="44.39523" lon="5.07168">
        <ele>388</ele>
        <time>2015-11-06T15:10:23Z</time>
      </trkpt>
      <trkpt lat="44.39523" lon="5.07169">
        <ele>388</ele>
        <time>2015-11-06T15:10:26Z</time>
      </trkpt>
      <trkpt lat="44.39522" lon="5.0717">
        <ele>388</ele>
        <time>2015-11-06T15:10:35Z</time>
      </trkpt>
      <trkpt lat="44.39522" lon="5.0717">
        <ele>388</ele>
        <time>2015-11-06T15:10:39Z</time>
      </trkpt>
      <trkpt lat="44.39521" lon="5.0717">
        <ele>388</ele>
        <time>2015-11-06T15:10:41Z</time>
      </trkpt>
      <trkpt lat="44.39524" lon="5.07172">
        <ele>388</ele>
        <time>2015-11-06T15:10:47Z</time>
      </trkpt>
      <trkpt lat="44.39525" lon="5.07171">
        <ele>387</ele>
        <time>2015-11-06T15:10:55Z</time>
      </trkpt>
      <trkpt lat="44.39525" lon="5.07171">
        <ele>387</ele>
        <time>2015-11-06T15:10:58Z</time>
      </trkpt>
      <trkpt lat="44.39525" lon="5.07171">
        <ele>387</ele>
        <time>2015-11-06T15:11:01Z</time>
      </trkpt>
      <trkpt lat="44.39525" lon="5.07171">
        <ele>387</ele>
        <time>2015-11-06T15:11:04Z</time>
      </trkpt>
      <trkpt lat="44.39525" lon="5.07171">
        <ele>387</ele>
        <time>2015-11-06T15:11:07Z</time>
      </trkpt>
      <trkpt lat="44.39525" lon="5.07171">
        <ele>387</ele>
        <time>2015-11-06T15:11:10Z</time>
      </trkpt>
      <trkpt lat="44.39525" lon="5.07171">
        <ele>387</ele>
        <time>2015-11-06T15:11:13Z</time>
      </trkpt>
      <trkpt lat="44.39525" lon="5.07171">
        <ele>387</ele>
        <time>2015-11-06T15:11:16Z</time>
      </trkpt>
      <trkpt lat="44.39525" lon="5.0717">
        <ele>387</ele>
        <time>2015-11-06T15:11:19Z</time>
      </trkpt>
      <trkpt lat="44.39525" lon="5.0717">
        <ele>387</ele>
        <time>2015-11-06T15:11:22Z</time>
      </trkpt>
      <trkpt lat="44.39525" lon="5.0717">
        <ele>387</ele>
        <time>2015-11-06T15:11:25Z</time>
      </trkpt>
      <trkpt lat="44.39525" lon="5.07171">
        <ele>387</ele>
        <time>2015-11-06T15:11:30Z</time>
      </trkpt>
      <trkpt lat="44.39526" lon="5.07171">
        <ele>386</ele>
        <time>2015-11-06T15:11:32Z</time>
      </trkpt>
      <trkpt lat="44.39526" lon="5.07171">
        <ele>386</ele>
        <time>2015-11-06T15:11:34Z</time>
      </trkpt>
      <trkpt lat="44.39525" lon="5.07171">
        <ele>383</ele>
        <time>2015-11-06T15:11:39Z</time>
      </trkpt>
      <trkpt lat="44.39525" lon="5.07172">
        <ele>383</ele>
        <time>2015-11-06T15:11:40Z</time>
      </trkpt>
      <trkpt lat="44.39526" lon="5.07178">
        <ele>383</ele>
        <time>2015-11-06T15:11:51Z</time>
      </trkpt>
      <trkpt lat="44.39525" lon="5.07178">
        <ele>384</ele>
        <time>2015-11-06T15:12:03Z</time>
      </trkpt>
      <trkpt lat="44.39525" lon="5.07178">
        <ele>384</ele>
        <time>2015-11-06T15:12:05Z</time>
      </trkpt>
      <trkpt lat="44.39526" lon="5.07178">
        <ele>384</ele>
        <time>2015-11-06T15:12:08Z</time>
      </trkpt>
      <trkpt lat="44.39526" lon="5.07178">
        <ele>384</ele>
        <time>2015-11-06T15:12:11Z</time>
      </trkpt>
      <trkpt lat="44.39526" lon="5.07178">
        <ele>384</ele>
        <time>2015-11-06T15:12:15Z</time>
      </trkpt>
      <trkpt lat="44.39526" lon="5.07178">
        <ele>384</ele>
        <time>2015-11-06T15:12:17Z</time>
      </trkpt>
      <trkpt lat="44.39526" lon="5.07178">
        <ele>384</ele>
        <time>2015-11-06T15:12:21Z</time>
      </trkpt>
      <trkpt lat="44.39526" lon="5.07179">
        <ele>383</ele>
        <time>2015-11-06T15:12:24Z</time>
      </trkpt>
      <trkpt lat="44.39526" lon="5.0718">
        <ele>384</ele>
        <time>2015-11-06T15:12:26Z</time>
      </trkpt>
      <trkpt lat="44.39528" lon="5.07181">
        <ele>382</ele>
        <time>2015-11-06T15:12:37Z</time>
      </trkpt>
      <trkpt lat="44.39528" lon="5.07181">
        <ele>382</ele>
        <time>2015-11-06T15:12:40Z</time>
      </trkpt>
      <trkpt lat="44.39528" lon="5.07181">
        <ele>383</ele>
        <time>2015-11-06T15:12:43Z</time>
      </trkpt>
      <trkpt lat="44.39528" lon="5.07183">
        <ele>382</ele>
        <time>2015-11-06T15:12:47Z</time>
      </trkpt>
      <trkpt lat="44.39527" lon="5.07189">
        <ele>380</ele>
        <time>2015-11-06T15:12:57Z</time>
      </trkpt>
      <trkpt lat="44.39527" lon="5.07192">
        <ele>380</ele>
        <time>2015-11-06T15:13:11Z</time>
      </trkpt>
      <trkpt lat="44.39527" lon="5.07192">
        <ele>380</ele>
        <time>2015-11-06T15:13:14Z</time>
      </trkpt>
      <trkpt lat="44.39527" lon="5.07192">
        <ele>380</ele>
        <time>2015-11-06T15:13:17Z</time>
      </trkpt>
      <trkpt lat="44.39527" lon="5.07192">
        <ele>380</ele>
        <time>2015-11-06T15:13:20Z</time>
      </trkpt>
      <trkpt lat="44.39527" lon="5.07193">
        <ele>382</ele>
        <time>2015-11-06T15:13:24Z</time>
      </trkpt>
      <trkpt lat="44.39527" lon="5.07196">
        <ele>381</ele>
        <time>2015-11-06T15:13:28Z</time>
      </trkpt>
      <trkpt lat="44.39529" lon="5.07203">
        <ele>382</ele>
        <time>2015-11-06T15:13:37Z</time>
      </trkpt>
      <trkpt lat="44.39528" lon="5.07204">
        <ele>383</ele>
        <time>2015-11-06T15:13:48Z</time>
      </trkpt>
      <trkpt lat="44.39529" lon="5.07204">
        <ele>383</ele>
        <time>2015-11-06T15:13:51Z</time>
      </trkpt>
      <trkpt lat="44.3953" lon="5.07205">
        <ele>384</ele>
        <time>2015-11-06T15:14:00Z</time>
      </trkpt>
      <trkpt lat="44.3953" lon="5.07207">
        <ele>385</ele>
        <time>2015-11-06T15:14:04Z</time>
      </trkpt>
      <trkpt lat="44.39531" lon="5.0721">
        <ele>387</ele>
        <time>2015-11-06T15:14:18Z</time>
      </trkpt>
      <trkpt lat="44.39531" lon="5.0721">
        <ele>387</ele>
        <time>2015-11-06T15:14:20Z</time>
      </trkpt>
      <trkpt lat="44.39531" lon="5.0721">
        <ele>387</ele>
        <time>2015-11-06T15:14:23Z</time>
      </trkpt>
      <trkpt lat="44.39531" lon="5.0721">
        <ele>387</ele>
        <time>2015-11-06T15:14:26Z</time>
      </trkpt>
      <trkpt lat="44.39531" lon="5.0721">
        <ele>387</ele>
        <time>2015-11-06T15:14:29Z</time>
      </trkpt>
      <trkpt lat="44.39531" lon="5.0721">
        <ele>387</ele>
        <time>2015-11-06T15:14:32Z</time>
      </trkpt>
      <trkpt lat="44.3953" lon="5.07211">
        <ele>387</ele>
        <time>2015-11-06T15:14:37Z</time>
      </trkpt>
      <trkpt lat="44.3953" lon="5.07212">
        <ele>387</ele>
        <time>2015-11-06T15:14:46Z</time>
      </trkpt>
      <trkpt lat="44.3953" lon="5.07212">
        <ele>387</ele>
        <time>2015-11-06T15:14:50Z</time>
      </trkpt>
      <trkpt lat="44.3953" lon="5.07212">
        <ele>387</ele>
        <time>2015-11-06T15:14:52Z</time>
      </trkpt>
      <trkpt lat="44.3953" lon="5.07213">
        <ele>387</ele>
        <time>2015-11-06T15:14:55Z</time>
      </trkpt>
      <trkpt lat="44.39528" lon="5.07213">
        <ele>386</ele>
        <time>2015-11-06T15:14:59Z</time>
      </trkpt>
      <trkpt lat="44.39527" lon="5.07214">
        <ele>385</ele>
        <time>2015-11-06T15:15:09Z</time>
      </trkpt>
      <trkpt lat="44.39527" lon="5.07214">
        <ele>385</ele>
        <time>2015-11-06T15:15:12Z</time>
      </trkpt>
      <trkpt lat="44.39527" lon="5.07214">
        <ele>385</ele>
        <time>2015-11-06T15:15:15Z</time>
      </trkpt>
      <trkpt lat="44.39527" lon="5.07214">
        <ele>385</ele>
        <time>2015-11-06T15:15:19Z</time>
      </trkpt>
      <trkpt lat="44.39527" lon="5.07214">
        <ele>385</ele>
        <time>2015-11-06T15:15:21Z</time>
      </trkpt>
      <trkpt lat="44.39527" lon="5.07214">
        <ele>385</ele>
        <time>2015-11-06T15:15:24Z</time>
      </trkpt>
      <trkpt lat="44.39527" lon="5.07214">
        <ele>385</ele>
        <time>2015-11-06T15:15:27Z</time>
      </trkpt>
      <trkpt lat="44.39527" lon="5.07214">
        <ele>385</ele>
        <time>2015-11-06T15:15:31Z</time>
      </trkpt>
      <trkpt lat="44.39527" lon="5.07214">
        <ele>385</ele>
        <time>2015-11-06T15:15:35Z</time>
      </trkpt>
      <trkpt lat="44.39527" lon="5.07214">
        <ele>385</ele>
        <time>2015-11-06T15:15:36Z</time>
      </trkpt>
      <trkpt lat="44.39527" lon="5.07214">
        <ele>385</ele>
        <time>2015-11-06T15:15:40Z</time>
      </trkpt>
      <trkpt lat="44.39527" lon="5.07214">
        <ele>385</ele>
        <time>2015-11-06T15:15:42Z</time>
      </trkpt>
      <trkpt lat="44.39527" lon="5.07214">
        <ele>385</ele>
        <time>2015-11-06T15:15:45Z</time>
      </trkpt>
      <trkpt lat="44.39527" lon="5.07214">
        <ele>385</ele>
        <time>2015-11-06T15:15:48Z</time>
      </trkpt>
      <trkpt lat="44.39527" lon="5.07214">
        <ele>385</ele>
        <time>2015-11-06T15:15:51Z</time>
      </trkpt>
      <trkpt lat="44.39527" lon="5.07214">
        <ele>386</ele>
        <time>2015-11-06T15:15:54Z</time>
      </trkpt>
      <trkpt lat="44.39527" lon="5.07214">
        <ele>386</ele>
        <time>2015-11-06T15:15:57Z</time>
      </trkpt>
      <trkpt lat="44.39527" lon="5.07214">
        <ele>386</ele>
        <time>2015-11-06T15:16:01Z</time>
      </trkpt>
      <trkpt lat="44.39527" lon="5.07214">
        <ele>386</ele>
        <time>2015-11-06T15:16:03Z</time>
      </trkpt>
      <trkpt lat="44.39528" lon="5.07214">
        <ele>386</ele>
        <time>2015-11-06T15:16:08Z</time>
      </trkpt>
      <trkpt lat="44.39528" lon="5.07214">
        <ele>386</ele>
        <time>2015-11-06T15:16:10Z</time>
      </trkpt>
      <trkpt lat="44.39528" lon="5.07214">
        <ele>386</ele>
        <time>2015-11-06T15:16:12Z</time>
      </trkpt>
      <trkpt lat="44.39528" lon="5.07214">
        <ele>386</ele>
        <time>2015-11-06T15:16:15Z</time>
      </trkpt>
      <trkpt lat="44.39528" lon="5.07214">
        <ele>386</ele>
        <time>2015-11-06T15:16:18Z</time>
      </trkpt>
      <trkpt lat="44.39528" lon="5.07214">
        <ele>386</ele>
        <time>2015-11-06T15:16:21Z</time>
      </trkpt>
      <trkpt lat="44.39527" lon="5.07214">
        <ele>386</ele>
        <time>2015-11-06T15:16:24Z</time>
      </trkpt>
      <trkpt lat="44.39527" lon="5.07214">
        <ele>386</ele>
        <time>2015-11-06T15:16:27Z</time>
      </trkpt>
      <trkpt lat="44.39527" lon="5.07214">
        <ele>386</ele>
        <time>2015-11-06T15:16:31Z</time>
      </trkpt>
      <trkpt lat="44.39527" lon="5.07214">
        <ele>386</ele>
        <time>2015-11-06T15:16:33Z</time>
      </trkpt>
      <trkpt lat="44.39527" lon="5.07214">
        <ele>386</ele>
        <time>2015-11-06T15:16:37Z</time>
      </trkpt>
      <trkpt lat="44.39527" lon="5.07214">
        <ele>385</ele>
        <time>2015-11-06T15:16:39Z</time>
      </trkpt>
      <trkpt lat="44.39527" lon="5.07214">
        <ele>385</ele>
        <time>2015-11-06T15:16:42Z</time>
      </trkpt>
      <trkpt lat="44.39528" lon="5.07214">
        <ele>386</ele>
        <time>2015-11-06T15:16:45Z</time>
      </trkpt>
      <trkpt lat="44.39528" lon="5.07214">
        <ele>387</ele>
        <time>2015-11-06T15:16:49Z</time>
      </trkpt>
      <trkpt lat="44.39528" lon="5.07214">
        <ele>387</ele>
        <time>2015-11-06T15:16:51Z</time>
      </trkpt>
      <trkpt lat="44.39528" lon="5.07214">
        <ele>387</ele>
        <time>2015-11-06T15:16:55Z</time>
      </trkpt>
      <trkpt lat="44.39528" lon="5.07214">
        <ele>387</ele>
        <time>2015-11-06T15:16:57Z</time>
      </trkpt>
      <trkpt lat="44.39528" lon="5.07214">
        <ele>387</ele>
        <time>2015-11-06T15:17:00Z</time>
      </trkpt>
      <trkpt lat="44.39529" lon="5.07214">
        <ele>387</ele>
        <time>2015-11-06T15:17:03Z</time>
      </trkpt>
      <trkpt lat="44.39528" lon="5.07213">
        <ele>387</ele>
        <time>2015-11-06T15:17:09Z</time>
      </trkpt>
      <trkpt lat="44.39528" lon="5.07213">
        <ele>387</ele>
        <time>2015-11-06T15:17:12Z</time>
      </trkpt>
      <trkpt lat="44.39528" lon="5.07213">
        <ele>387</ele>
        <time>2015-11-06T15:17:15Z</time>
      </trkpt>
      <trkpt lat="44.39529" lon="5.07213">
        <ele>387</ele>
        <time>2015-11-06T15:17:19Z</time>
      </trkpt>
      <trkpt lat="44.39529" lon="5.07212">
        <ele>387</ele>
        <time>2015-11-06T15:17:21Z</time>
      </trkpt>
      <trkpt lat="44.39529" lon="5.07211">
        <ele>387</ele>
        <time>2015-11-06T15:17:27Z</time>
      </trkpt>
      <trkpt lat="44.3953" lon="5.07213">
        <ele>386</ele>
        <time>2015-11-06T15:17:31Z</time>
      </trkpt>
      <trkpt lat="44.3953" lon="5.07216">
        <ele>385</ele>
        <time>2015-11-06T15:17:44Z</time>
      </trkpt>
      <trkpt lat="44.3953" lon="5.07216">
        <ele>385</ele>
        <time>2015-11-06T15:17:48Z</time>
      </trkpt>
      <trkpt lat="44.3953" lon="5.07216">
        <ele>385</ele>
        <time>2015-11-06T15:17:50Z</time>
      </trkpt>
      <trkpt lat="44.3953" lon="5.07216">
        <ele>385</ele>
        <time>2015-11-06T15:17:53Z</time>
      </trkpt>
      <trkpt lat="44.3953" lon="5.07216">
        <ele>385</ele>
        <time>2015-11-06T15:17:58Z</time>
      </trkpt>
      <trkpt lat="44.3953" lon="5.07218">
        <ele>384</ele>
        <time>2015-11-06T15:18:00Z</time>
      </trkpt>
      <trkpt lat="44.39531" lon="5.07219">
        <ele>384</ele>
        <time>2015-11-06T15:18:10Z</time>
      </trkpt>
      <trkpt lat="44.3953" lon="5.07219">
        <ele>385</ele>
        <time>2015-11-06T15:18:13Z</time>
      </trkpt>
      <trkpt lat="44.3953" lon="5.07219">
        <ele>385</ele>
        <time>2015-11-06T15:18:16Z</time>
      </trkpt>
      <trkpt lat="44.3953" lon="5.07219">
        <ele>385</ele>
        <time>2015-11-06T15:18:20Z</time>
      </trkpt>
      <trkpt lat="44.3953" lon="5.07221">
        <ele>383</ele>
        <time>2015-11-06T15:18:25Z</time>
      </trkpt>
      <trkpt lat="44.39532" lon="5.07222">
        <ele>384</ele>
        <time>2015-11-06T15:18:33Z</time>
      </trkpt>
      <trkpt lat="44.39537" lon="5.07238">
        <ele>382</ele>
        <time>2015-11-06T15:18:50Z</time>
      </trkpt>
      <trkpt lat="44.3954" lon="5.07244">
        <ele>384</ele>
        <time>2015-11-06T15:18:55Z</time>
      </trkpt>
      <trkpt lat="44.39545" lon="5.07257">
        <ele>386</ele>
        <time>2015-11-06T15:19:06Z</time>
      </trkpt>
      <trkpt lat="44.39553" lon="5.07268">
        <ele>386</ele>
        <time>2015-11-06T15:19:20Z</time>
      </trkpt>
      <trkpt lat="44.3956" lon="5.07274">
        <ele>387</ele>
        <time>2015-11-06T15:19:30Z</time>
      </trkpt>
      <trkpt lat="44.39565" lon="5.07275">
        <ele>385</ele>
        <time>2015-11-06T15:19:41Z</time>
      </trkpt>
      <trkpt lat="44.39572" lon="5.0728">
        <ele>386</ele>
        <time>2015-11-06T15:19:51Z</time>
      </trkpt>
      <trkpt lat="44.39588" lon="5.07286">
        <ele>385</ele>
        <time>2015-11-06T15:20:08Z</time>
      </trkpt>
      <trkpt lat="44.39594" lon="5.07292">
        <ele>385</ele>
        <time>2015-11-06T15:20:16Z</time>
      </trkpt>
      <trkpt lat="44.396" lon="5.07295">
        <ele>385</ele>
        <time>2015-11-06T15:20:23Z</time>
      </trkpt>
      <trkpt lat="44.3961" lon="5.073">
        <ele>385</ele>
        <time>2015-11-06T15:20:35Z</time>
      </trkpt>
      <trkpt lat="44.39617" lon="5.07306">
        <ele>384</ele>
        <time>2015-11-06T15:20:45Z</time>
      </trkpt>
      <trkpt lat="44.39626" lon="5.07315">
        <ele>385</ele>
        <time>2015-11-06T15:20:57Z</time>
      </trkpt>
      <trkpt lat="44.39633" lon="5.07323">
        <ele>386</ele>
        <time>2015-11-06T15:21:07Z</time>
      </trkpt>
      <trkpt lat="44.39642" lon="5.07335">
        <ele>388</ele>
        <time>2015-11-06T15:21:19Z</time>
      </trkpt>
      <trkpt lat="44.39653" lon="5.0734">
        <ele>388</ele>
        <time>2015-11-06T15:21:32Z</time>
      </trkpt>
      <trkpt lat="44.39666" lon="5.07345">
        <ele>391</ele>
        <time>2015-11-06T15:21:47Z</time>
      </trkpt>
      <trkpt lat="44.3967" lon="5.07345">
        <ele>391</ele>
        <time>2015-11-06T15:21:51Z</time>
      </trkpt>
      <trkpt lat="44.39679" lon="5.0735">
        <ele>391</ele>
        <time>2015-11-06T15:22:02Z</time>
      </trkpt>
      <trkpt lat="44.39691" lon="5.07353">
        <ele>392</ele>
        <time>2015-11-06T15:22:14Z</time>
      </trkpt>
      <trkpt lat="44.39702" lon="5.07359">
        <ele>392</ele>
        <time>2015-11-06T15:22:26Z</time>
      </trkpt>
      <trkpt lat="44.3971" lon="5.07359">
        <ele>393</ele>
        <time>2015-11-06T15:22:35Z</time>
      </trkpt>
      <trkpt lat="44.3972" lon="5.07362">
        <ele>394</ele>
        <time>2015-11-06T15:22:46Z</time>
      </trkpt>
      <trkpt lat="44.39731" lon="5.07364">
        <ele>394</ele>
        <time>2015-11-06T15:22:57Z</time>
      </trkpt>
      <trkpt lat="44.39743" lon="5.07364">
        <ele>393</ele>
        <time>2015-11-06T15:23:09Z</time>
      </trkpt>
      <trkpt lat="44.39754" lon="5.07365">
        <ele>393</ele>
        <time>2015-11-06T15:23:20Z</time>
      </trkpt>
      <trkpt lat="44.39763" lon="5.07365">
        <ele>397</ele>
        <time>2015-11-06T15:23:30Z</time>
      </trkpt>
      <trkpt lat="44.39772" lon="5.07362">
        <ele>396</ele>
        <time>2015-11-06T15:23:41Z</time>
      </trkpt>
      <trkpt lat="44.39782" lon="5.07364">
        <ele>395</ele>
        <time>2015-11-06T15:23:52Z</time>
      </trkpt>
      <trkpt lat="44.39791" lon="5.07369">
        <ele>397</ele>
        <time>2015-11-06T15:24:03Z</time>
      </trkpt>
      <trkpt lat="44.39794" lon="5.07376">
        <ele>398</ele>
        <time>2015-11-06T15:24:14Z</time>
      </trkpt>
      <trkpt lat="44.39799" lon="5.07385">
        <ele>398</ele>
        <time>2015-11-06T15:24:25Z</time>
      </trkpt>
      <trkpt lat="44.39806" lon="5.07392">
        <ele>400</ele>
        <time>2015-11-06T15:24:36Z</time>
      </trkpt>
      <trkpt lat="44.39806" lon="5.07392">
        <ele>399</ele>
        <time>2015-11-06T15:24:48Z</time>
      </trkpt>
      <trkpt lat="44.39807" lon="5.07392">
        <ele>399</ele>
        <time>2015-11-06T15:24:50Z</time>
      </trkpt>
      <trkpt lat="44.39811" lon="5.07398">
        <ele>397</ele>
        <time>2015-11-06T15:25:05Z</time>
      </trkpt>
      <trkpt lat="44.39819" lon="5.07405">
        <ele>398</ele>
        <time>2015-11-06T15:25:16Z</time>
      </trkpt>
      <trkpt lat="44.39824" lon="5.07411">
        <ele>398</ele>
        <time>2015-11-06T15:25:23Z</time>
      </trkpt>
      <trkpt lat="44.39832" lon="5.07422">
        <ele>398</ele>
        <time>2015-11-06T15:25:34Z</time>
      </trkpt>
      <trkpt lat="44.39836" lon="5.07428">
        <ele>400</ele>
        <time>2015-11-06T15:25:45Z</time>
      </trkpt>
      <trkpt lat="44.3984" lon="5.07446">
        <ele>399</ele>
        <time>2015-11-06T15:25:58Z</time>
      </trkpt>
      <trkpt lat="44.39842" lon="5.0746">
        <ele>400</ele>
        <time>2015-11-06T15:26:08Z</time>
      </trkpt>
      <trkpt lat="44.3984" lon="5.07473">
        <ele>400</ele>
        <time>2015-11-06T15:26:18Z</time>
      </trkpt>
      <trkpt lat="44.3984" lon="5.07487">
        <ele>401</ele>
        <time>2015-11-06T15:26:29Z</time>
      </trkpt>
      <trkpt lat="44.39844" lon="5.075">
        <ele>404</ele>
        <time>2015-11-06T15:26:40Z</time>
      </trkpt>
      <trkpt lat="44.39845" lon="5.07521">
        <ele>401</ele>
        <time>2015-11-06T15:26:55Z</time>
      </trkpt>
      <trkpt lat="44.39846" lon="5.07539">
        <ele>401</ele>
        <time>2015-11-06T15:27:06Z</time>
      </trkpt>
      <trkpt lat="44.39846" lon="5.0755">
        <ele>400</ele>
        <time>2015-11-06T15:27:13Z</time>
      </trkpt>
      <trkpt lat="44.39847" lon="5.07568">
        <ele>401</ele>
        <time>2015-11-06T15:27:26Z</time>
      </trkpt>
      <trkpt lat="44.39846" lon="5.07582">
        <ele>402</ele>
        <time>2015-11-06T15:27:36Z</time>
      </trkpt>
      <trkpt lat="44.39848" lon="5.07598">
        <ele>401</ele>
        <time>2015-11-06T15:27:48Z</time>
      </trkpt>
      <trkpt lat="44.3985" lon="5.07611">
        <ele>402</ele>
        <time>2015-11-06T15:27:57Z</time>
      </trkpt>
      <trkpt lat="44.39853" lon="5.0763">
        <ele>403</ele>
        <time>2015-11-06T15:28:10Z</time>
      </trkpt>
      <trkpt lat="44.39855" lon="5.07642">
        <ele>404</ele>
        <time>2015-11-06T15:28:19Z</time>
      </trkpt>
      <trkpt lat="44.39856" lon="5.07657">
        <ele>404</ele>
        <time>2015-11-06T15:28:30Z</time>
      </trkpt>
      <trkpt lat="44.39853" lon="5.07672">
        <ele>406</ele>
        <time>2015-11-06T15:28:41Z</time>
      </trkpt>
      <trkpt lat="44.39852" lon="5.07684">
        <ele>406</ele>
        <time>2015-11-06T15:28:52Z</time>
      </trkpt>
      <trkpt lat="44.39847" lon="5.07695">
        <ele>405</ele>
        <time>2015-11-06T15:29:03Z</time>
      </trkpt>
      <trkpt lat="44.39841" lon="5.07707">
        <ele>404</ele>
        <time>2015-11-06T15:29:14Z</time>
      </trkpt>
      <trkpt lat="44.39835" lon="5.07721">
        <ele>405</ele>
        <time>2015-11-06T15:29:26Z</time>
      </trkpt>
      <trkpt lat="44.3983" lon="5.07734">
        <ele>404</ele>
        <time>2015-11-06T15:29:37Z</time>
      </trkpt>
      <trkpt lat="44.39824" lon="5.07747">
        <ele>403</ele>
        <time>2015-11-06T15:29:48Z</time>
      </trkpt>
      <trkpt lat="44.3982" lon="5.07759">
        <ele>403</ele>
        <time>2015-11-06T15:29:58Z</time>
      </trkpt>
      <trkpt lat="44.39814" lon="5.0777">
        <ele>401</ele>
        <time>2015-11-06T15:30:09Z</time>
      </trkpt>
      <trkpt lat="44.3981" lon="5.07783">
        <ele>403</ele>
        <time>2015-11-06T15:30:20Z</time>
      </trkpt>
      <trkpt lat="44.39804" lon="5.07796">
        <ele>403</ele>
        <time>2015-11-06T15:30:31Z</time>
      </trkpt>
      <trkpt lat="44.39798" lon="5.0781">
        <ele>404</ele>
        <time>2015-11-06T15:30:42Z</time>
      </trkpt>
      <trkpt lat="44.39794" lon="5.07832">
        <ele>405</ele>
        <time>2015-11-06T15:30:59Z</time>
      </trkpt>
      <trkpt lat="44.39797" lon="5.07839">
        <ele>408</ele>
        <time>2015-11-06T15:31:04Z</time>
      </trkpt>
      <trkpt lat="44.39806" lon="5.07852">
        <ele>412</ele>
        <time>2015-11-06T15:31:16Z</time>
      </trkpt>
      <trkpt lat="44.39813" lon="5.07863">
        <ele>414</ele>
        <time>2015-11-06T15:31:26Z</time>
      </trkpt>
      <trkpt lat="44.39822" lon="5.07878">
        <ele>415</ele>
        <time>2015-11-06T15:31:41Z</time>
      </trkpt>
      <trkpt lat="44.39826" lon="5.07889">
        <ele>415</ele>
        <time>2015-11-06T15:31:49Z</time>
      </trkpt>
      <trkpt lat="44.39829" lon="5.07903">
        <ele>416</ele>
        <time>2015-11-06T15:32:00Z</time>
      </trkpt>
      <trkpt lat="44.39832" lon="5.07915">
        <ele>416</ele>
        <time>2015-11-06T15:32:10Z</time>
      </trkpt>
      <trkpt lat="44.39836" lon="5.07928">
        <ele>416</ele>
        <time>2015-11-06T15:32:21Z</time>
      </trkpt>
      <trkpt lat="44.3984" lon="5.07942">
        <ele>416</ele>
        <time>2015-11-06T15:32:32Z</time>
      </trkpt>
      <trkpt lat="44.39844" lon="5.07957">
        <ele>417</ele>
        <time>2015-11-06T15:32:43Z</time>
      </trkpt>
      <trkpt lat="44.39848" lon="5.07971">
        <ele>416</ele>
        <time>2015-11-06T15:32:54Z</time>
      </trkpt>
      <trkpt lat="44.3985" lon="5.07985">
        <ele>417</ele>
        <time>2015-11-06T15:33:05Z</time>
      </trkpt>
      <trkpt lat="44.39851" lon="5.07998">
        <ele>417</ele>
        <time>2015-11-06T15:33:16Z</time>
      </trkpt>
      <trkpt lat="44.39848" lon="5.08014">
        <ele>415</ele>
        <time>2015-11-06T15:33:28Z</time>
      </trkpt>
      <trkpt lat="44.39842" lon="5.08027">
        <ele>414</ele>
        <time>2015-11-06T15:33:39Z</time>
      </trkpt>
      <trkpt lat="44.39847" lon="5.0803">
        <ele>418</ele>
        <time>2015-11-06T15:33:49Z</time>
      </trkpt>
      <trkpt lat="44.39856" lon="5.08028">
        <ele>419</ele>
        <time>2015-11-06T15:34:00Z</time>
      </trkpt>
      <trkpt lat="44.39856" lon="5.08027">
        <ele>421</ele>
        <time>2015-11-06T15:34:11Z</time>
      </trkpt>
      <trkpt lat="44.39856" lon="5.08027">
        <ele>421</ele>
        <time>2015-11-06T15:34:14Z</time>
      </trkpt>
      <trkpt lat="44.39856" lon="5.08027">
        <ele>422</ele>
        <time>2015-11-06T15:34:18Z</time>
      </trkpt>
      <trkpt lat="44.39856" lon="5.08028">
        <ele>422</ele>
        <time>2015-11-06T15:34:20Z</time>
      </trkpt>
      <trkpt lat="44.39856" lon="5.08028">
        <ele>422</ele>
        <time>2015-11-06T15:34:23Z</time>
      </trkpt>
      <trkpt lat="44.39856" lon="5.08028">
        <ele>422</ele>
        <time>2015-11-06T15:34:26Z</time>
      </trkpt>
      <trkpt lat="44.39856" lon="5.08028">
        <ele>422</ele>
        <time>2015-11-06T15:34:29Z</time>
      </trkpt>
      <trkpt lat="44.39856" lon="5.08029">
        <ele>421</ele>
        <time>2015-11-06T15:34:32Z</time>
      </trkpt>
      <trkpt lat="44.39857" lon="5.08029">
        <ele>422</ele>
        <time>2015-11-06T15:34:35Z</time>
      </trkpt>
      <trkpt lat="44.39857" lon="5.08029">
        <ele>422</ele>
        <time>2015-11-06T15:34:38Z</time>
      </trkpt>
      <trkpt lat="44.39857" lon="5.08029">
        <ele>422</ele>
        <time>2015-11-06T15:34:41Z</time>
      </trkpt>
      <trkpt lat="44.39857" lon="5.08029">
        <ele>423</ele>
        <time>2015-11-06T15:34:44Z</time>
      </trkpt>
      <trkpt lat="44.39857" lon="5.08028">
        <ele>423</ele>
        <time>2015-11-06T15:34:47Z</time>
      </trkpt>
      <trkpt lat="44.39857" lon="5.08028">
        <ele>423</ele>
        <time>2015-11-06T15:34:50Z</time>
      </trkpt>
      <trkpt lat="44.39857" lon="5.08028">
        <ele>423</ele>
        <time>2015-11-06T15:34:54Z</time>
      </trkpt>
      <trkpt lat="44.39857" lon="5.08028">
        <ele>423</ele>
        <time>2015-11-06T15:34:56Z</time>
      </trkpt>
      <trkpt lat="44.39857" lon="5.08028">
        <ele>423</ele>
        <time>2015-11-06T15:34:59Z</time>
      </trkpt>
      <trkpt lat="44.39857" lon="5.08028">
        <ele>423</ele>
        <time>2015-11-06T15:35:02Z</time>
      </trkpt>
      <trkpt lat="44.39857" lon="5.08028">
        <ele>423</ele>
        <time>2015-11-06T15:35:06Z</time>
      </trkpt>
      <trkpt lat="44.39857" lon="5.08028">
        <ele>423</ele>
        <time>2015-11-06T15:35:08Z</time>
      </trkpt>
      <trkpt lat="44.39859" lon="5.0803">
        <ele>423</ele>
        <time>2015-11-06T15:35:13Z</time>
      </trkpt>
      <trkpt lat="44.39869" lon="5.08037">
        <ele>424</ele>
        <time>2015-11-06T15:35:22Z</time>
      </trkpt>
      <trkpt lat="44.39872" lon="5.08039">
        <ele>425</ele>
        <time>2015-11-06T15:35:33Z</time>
      </trkpt>
      <trkpt lat="44.39872" lon="5.08038">
        <ele>425</ele>
        <time>2015-11-06T15:35:44Z</time>
      </trkpt>
      <trkpt lat="44.39872" lon="5.08038">
        <ele>425</ele>
        <time>2015-11-06T15:35:47Z</time>
      </trkpt>
      <trkpt lat="44.39872" lon="5.08038">
        <ele>425</ele>
        <time>2015-11-06T15:35:50Z</time>
      </trkpt>
      <trkpt lat="44.39872" lon="5.08038">
        <ele>425</ele>
        <time>2015-11-06T15:35:53Z</time>
      </trkpt>
      <trkpt lat="44.39872" lon="5.08038">
        <ele>425</ele>
        <time>2015-11-06T15:35:56Z</time>
      </trkpt>
      <trkpt lat="44.39872" lon="5.08038">
        <ele>425</ele>
        <time>2015-11-06T15:35:59Z</time>
      </trkpt>
      <trkpt lat="44.39872" lon="5.08038">
        <ele>425</ele>
        <time>2015-11-06T15:36:02Z</time>
      </trkpt>
      <trkpt lat="44.39872" lon="5.08038">
        <ele>425</ele>
        <time>2015-11-06T15:36:05Z</time>
      </trkpt>
      <trkpt lat="44.39872" lon="5.08038">
        <ele>425</ele>
        <time>2015-11-06T15:36:08Z</time>
      </trkpt>
      <trkpt lat="44.39872" lon="5.08038">
        <ele>425</ele>
        <time>2015-11-06T15:36:11Z</time>
      </trkpt>
      <trkpt lat="44.39872" lon="5.08038">
        <ele>425</ele>
        <time>2015-11-06T15:36:14Z</time>
      </trkpt>
      <trkpt lat="44.39872" lon="5.08038">
        <ele>425</ele>
        <time>2015-11-06T15:36:17Z</time>
      </trkpt>
      <trkpt lat="44.39872" lon="5.08038">
        <ele>425</ele>
        <time>2015-11-06T15:36:20Z</time>
      </trkpt>
      <trkpt lat="44.39872" lon="5.08038">
        <ele>425</ele>
        <time>2015-11-06T15:36:23Z</time>
      </trkpt>
      <trkpt lat="44.39872" lon="5.08038">
        <ele>425</ele>
        <time>2015-11-06T15:36:26Z</time>
      </trkpt>
      <trkpt lat="44.39872" lon="5.08039">
        <ele>425</ele>
        <time>2015-11-06T15:36:29Z</time>
      </trkpt>
      <trkpt lat="44.39874" lon="5.0804">
        <ele>423</ele>
        <time>2015-11-06T15:36:33Z</time>
      </trkpt>
      <trkpt lat="44.39883" lon="5.08048">
        <ele>426</ele>
        <time>2015-11-06T15:36:44Z</time>
      </trkpt>
      <trkpt lat="44.39892" lon="5.08054">
        <ele>427</ele>
        <time>2015-11-06T15:36:54Z</time>
      </trkpt>
      <trkpt lat="44.39901" lon="5.0806">
        <ele>429</ele>
        <time>2015-11-06T15:37:05Z</time>
      </trkpt>
      <trkpt lat="44.3991" lon="5.08067">
        <ele>430</ele>
        <time>2015-11-06T15:37:16Z</time>
      </trkpt>
      <trkpt lat="44.39919" lon="5.08077">
        <ele>430</ele>
        <time>2015-11-06T15:37:28Z</time>
      </trkpt>
      <trkpt lat="44.39926" lon="5.08085">
        <ele>431</ele>
        <time>2015-11-06T15:37:38Z</time>
      </trkpt>
      <trkpt lat="44.39933" lon="5.08095">
        <ele>432</ele>
        <time>2015-11-06T15:37:49Z</time>
      </trkpt>
      <trkpt lat="44.39939" lon="5.08105">
        <ele>432</ele>
        <time>2015-11-06T15:38:00Z</time>
      </trkpt>
      <trkpt lat="44.39946" lon="5.08117">
        <ele>433</ele>
        <time>2015-11-06T15:38:11Z</time>
      </trkpt>
      <trkpt lat="44.39951" lon="5.08129">
        <ele>433</ele>
        <time>2015-11-06T15:38:22Z</time>
      </trkpt>
      <trkpt lat="44.39953" lon="5.08137">
        <ele>432</ele>
        <time>2015-11-06T15:38:34Z</time>
      </trkpt>
      <trkpt lat="44.39955" lon="5.08142">
        <ele>432</ele>
        <time>2015-11-06T15:38:44Z</time>
      </trkpt>
      <trkpt lat="44.3996" lon="5.08153">
        <ele>432</ele>
        <time>2015-11-06T15:38:55Z</time>
      </trkpt>
      <trkpt lat="44.39964" lon="5.08165">
        <ele>432</ele>
        <time>2015-11-06T15:39:06Z</time>
      </trkpt>
      <trkpt lat="44.39969" lon="5.08171">
        <ele>433</ele>
        <time>2015-11-06T15:39:18Z</time>
      </trkpt>
      <trkpt lat="44.39974" lon="5.08179">
        <ele>434</ele>
        <time>2015-11-06T15:39:28Z</time>
      </trkpt>
      <trkpt lat="44.3998" lon="5.08184">
        <ele>435</ele>
        <time>2015-11-06T15:39:39Z</time>
      </trkpt>
      <trkpt lat="44.39982" lon="5.08183">
        <ele>434</ele>
        <time>2015-11-06T15:39:56Z</time>
      </trkpt>
      <trkpt lat="44.3998" lon="5.08185">
        <ele>435</ele>
        <time>2015-11-06T15:40:00Z</time>
      </trkpt>
      <trkpt lat="44.39984" lon="5.08188">
        <ele>436</ele>
        <time>2015-11-06T15:40:10Z</time>
      </trkpt>
      <trkpt lat="44.39985" lon="5.08188">
        <ele>436</ele>
        <time>2015-11-06T15:40:21Z</time>
      </trkpt>
      <trkpt lat="44.39984" lon="5.0819">
        <ele>436</ele>
        <time>2015-11-06T15:40:24Z</time>
      </trkpt>
      <trkpt lat="44.39984" lon="5.08198">
        <ele>436</ele>
        <time>2015-11-06T15:40:35Z</time>
      </trkpt>
      <trkpt lat="44.39982" lon="5.08205">
        <ele>434</ele>
        <time>2015-11-06T15:40:46Z</time>
      </trkpt>
      <trkpt lat="44.39989" lon="5.08207">
        <ele>435</ele>
        <time>2015-11-06T15:40:57Z</time>
      </trkpt>
      <trkpt lat="44.39989" lon="5.08206">
        <ele>435</ele>
        <time>2015-11-06T15:41:11Z</time>
      </trkpt>
      <trkpt lat="44.39988" lon="5.08208">
        <ele>434</ele>
        <time>2015-11-06T15:41:14Z</time>
      </trkpt>
      <trkpt lat="44.3999" lon="5.08215">
        <ele>435</ele>
        <time>2015-11-06T15:41:25Z</time>
      </trkpt>
      <trkpt lat="44.39996" lon="5.08222">
        <ele>436</ele>
        <time>2015-11-06T15:41:36Z</time>
      </trkpt>
      <trkpt lat="44.40006" lon="5.08225">
        <ele>439</ele>
        <time>2015-11-06T15:41:47Z</time>
      </trkpt>
      <trkpt lat="44.40009" lon="5.08224">
        <ele>440</ele>
        <time>2015-11-06T15:41:58Z</time>
      </trkpt>
      <trkpt lat="44.4001" lon="5.08224">
        <ele>440</ele>
        <time>2015-11-06T15:42:09Z</time>
      </trkpt>
      <trkpt lat="44.4001" lon="5.08224">
        <ele>440</ele>
        <time>2015-11-06T15:42:12Z</time>
      </trkpt>
      <trkpt lat="44.4001" lon="5.08224">
        <ele>440</ele>
        <time>2015-11-06T15:42:15Z</time>
      </trkpt>
      <trkpt lat="44.4001" lon="5.08225">
        <ele>440</ele>
        <time>2015-11-06T15:42:18Z</time>
      </trkpt>
      <trkpt lat="44.4001" lon="5.08225">
        <ele>440</ele>
        <time>2015-11-06T15:42:21Z</time>
      </trkpt>
      <trkpt lat="44.4001" lon="5.08224">
        <ele>439</ele>
        <time>2015-11-06T15:42:24Z</time>
      </trkpt>
      <trkpt lat="44.40009" lon="5.08224">
        <ele>439</ele>
        <time>2015-11-06T15:42:27Z</time>
      </trkpt>
      <trkpt lat="44.40009" lon="5.08224">
        <ele>440</ele>
        <time>2015-11-06T15:42:30Z</time>
      </trkpt>
      <trkpt lat="44.40009" lon="5.08224">
        <ele>440</ele>
        <time>2015-11-06T15:42:33Z</time>
      </trkpt>
      <trkpt lat="44.40009" lon="5.08224">
        <ele>440</ele>
        <time>2015-11-06T15:42:36Z</time>
      </trkpt>
      <trkpt lat="44.40009" lon="5.08224">
        <ele>440</ele>
        <time>2015-11-06T15:42:39Z</time>
      </trkpt>
      <trkpt lat="44.40009" lon="5.08225">
        <ele>439</ele>
        <time>2015-11-06T15:42:42Z</time>
      </trkpt>
      <trkpt lat="44.40009" lon="5.08226">
        <ele>440</ele>
        <time>2015-11-06T15:42:53Z</time>
      </trkpt>
      <trkpt lat="44.40009" lon="5.08226">
        <ele>440</ele>
        <time>2015-11-06T15:42:56Z</time>
      </trkpt>
      <trkpt lat="44.40009" lon="5.08226">
        <ele>440</ele>
        <time>2015-11-06T15:42:59Z</time>
      </trkpt>
      <trkpt lat="44.40009" lon="5.08226">
        <ele>440</ele>
        <time>2015-11-06T15:43:02Z</time>
      </trkpt>
      <trkpt lat="44.40009" lon="5.08226">
        <ele>440</ele>
        <time>2015-11-06T15:43:06Z</time>
      </trkpt>
      <trkpt lat="44.40009" lon="5.08226">
        <ele>440</ele>
        <time>2015-11-06T15:43:08Z</time>
      </trkpt>
      <trkpt lat="44.40009" lon="5.08225">
        <ele>440</ele>
        <time>2015-11-06T15:43:11Z</time>
      </trkpt>
      <trkpt lat="44.40009" lon="5.08225">
        <ele>439</ele>
        <time>2015-11-06T15:43:14Z</time>
      </trkpt>
      <trkpt lat="44.40009" lon="5.08224">
        <ele>439</ele>
        <time>2015-11-06T15:43:17Z</time>
      </trkpt>
      <trkpt lat="44.40009" lon="5.08223">
        <ele>440</ele>
        <time>2015-11-06T15:43:21Z</time>
      </trkpt>
      <trkpt lat="44.40008" lon="5.08224">
        <ele>439</ele>
        <time>2015-11-06T15:43:24Z</time>
      </trkpt>
      <trkpt lat="44.40008" lon="5.08226">
        <ele>439</ele>
        <time>2015-11-06T15:43:26Z</time>
      </trkpt>
      <trkpt lat="44.40016" lon="5.08226">
        <ele>439</ele>
        <time>2015-11-06T15:43:38Z</time>
      </trkpt>
      <trkpt lat="44.40016" lon="5.08225">
        <ele>439</ele>
        <time>2015-11-06T15:43:48Z</time>
      </trkpt>
      <trkpt lat="44.40017" lon="5.08225">
        <ele>440</ele>
        <time>2015-11-06T15:43:57Z</time>
      </trkpt>
      <trkpt lat="44.40017" lon="5.08225">
        <ele>440</ele>
        <time>2015-11-06T15:44:00Z</time>
      </trkpt>
      <trkpt lat="44.40017" lon="5.08225">
        <ele>440</ele>
        <time>2015-11-06T15:44:03Z</time>
      </trkpt>
      <trkpt lat="44.40018" lon="5.08225">
        <ele>440</ele>
        <time>2015-11-06T15:44:06Z</time>
      </trkpt>
      <trkpt lat="44.40018" lon="5.08225">
        <ele>440</ele>
        <time>2015-11-06T15:44:10Z</time>
      </trkpt>
      <trkpt lat="44.40018" lon="5.08225">
        <ele>440</ele>
        <time>2015-11-06T15:44:12Z</time>
      </trkpt>
      <trkpt lat="44.40018" lon="5.08225">
        <ele>440</ele>
        <time>2015-11-06T15:44:15Z</time>
      </trkpt>
      <trkpt lat="44.40018" lon="5.08225">
        <ele>440</ele>
        <time>2015-11-06T15:44:18Z</time>
      </trkpt>
      <trkpt lat="44.40018" lon="5.08225">
        <ele>440</ele>
        <time>2015-11-06T15:44:21Z</time>
      </trkpt>
      <trkpt lat="44.40018" lon="5.08226">
        <ele>441</ele>
        <time>2015-11-06T15:44:24Z</time>
      </trkpt>
      <trkpt lat="44.40023" lon="5.08226">
        <ele>442</ele>
        <time>2015-11-06T15:44:35Z</time>
      </trkpt>
      <trkpt lat="44.40028" lon="5.08226">
        <ele>441</ele>
        <time>2015-11-06T15:44:46Z</time>
      </trkpt>
      <trkpt lat="44.4003" lon="5.08224">
        <ele>441</ele>
        <time>2015-11-06T15:45:00Z</time>
      </trkpt>
      <trkpt lat="44.40029" lon="5.08226">
        <ele>440</ele>
        <time>2015-11-06T15:45:03Z</time>
      </trkpt>
      <trkpt lat="44.40031" lon="5.08229">
        <ele>440</ele>
        <time>2015-11-06T15:45:14Z</time>
      </trkpt>
      <trkpt lat="44.40036" lon="5.08232">
        <ele>440</ele>
        <time>2015-11-06T15:45:25Z</time>
      </trkpt>
      <trkpt lat="44.40036" lon="5.08231">
        <ele>440</ele>
        <time>2015-11-06T15:45:36Z</time>
      </trkpt>
      <trkpt lat="44.40036" lon="5.08231">
        <ele>440</ele>
        <time>2015-11-06T15:45:39Z</time>
      </trkpt>
      <trkpt lat="44.40037" lon="5.08231">
        <ele>440</ele>
        <time>2015-11-06T15:45:42Z</time>
      </trkpt>
      <trkpt lat="44.40041" lon="5.08229">
        <ele>441</ele>
        <time>2015-11-06T15:45:53Z</time>
      </trkpt>
      <trkpt lat="44.40042" lon="5.08226">
        <ele>442</ele>
        <time>2015-11-06T15:46:04Z</time>
      </trkpt>
      <trkpt lat="44.40043" lon="5.08225">
        <ele>441</ele>
        <time>2015-11-06T15:46:09Z</time>
      </trkpt>
      <trkpt lat="44.40045" lon="5.08224">
        <ele>440</ele>
        <time>2015-11-06T15:46:18Z</time>
      </trkpt>
      <trkpt lat="44.4005" lon="5.0822">
        <ele>442</ele>
        <time>2015-11-06T15:46:29Z</time>
      </trkpt>
      <trkpt lat="44.40054" lon="5.08216">
        <ele>442</ele>
        <time>2015-11-06T15:46:40Z</time>
      </trkpt>
      <trkpt lat="44.40054" lon="5.08213">
        <ele>441</ele>
        <time>2015-11-06T15:46:54Z</time>
      </trkpt>
      <trkpt lat="44.40054" lon="5.08213">
        <ele>441</ele>
        <time>2015-11-06T15:46:57Z</time>
      </trkpt>
      <trkpt lat="44.40054" lon="5.08213">
        <ele>441</ele>
        <time>2015-11-06T15:47:00Z</time>
      </trkpt>
      <trkpt lat="44.40054" lon="5.08212">
        <ele>440</ele>
        <time>2015-11-06T15:47:03Z</time>
      </trkpt>
      <trkpt lat="44.40054" lon="5.0821">
        <ele>441</ele>
        <time>2015-11-06T15:47:14Z</time>
      </trkpt>
      <trkpt lat="44.40053" lon="5.0821">
        <ele>440</ele>
        <time>2015-11-06T15:47:20Z</time>
      </trkpt>
      <trkpt lat="44.40053" lon="5.08209">
        <ele>441</ele>
        <time>2015-11-06T15:47:24Z</time>
      </trkpt>
      <trkpt lat="44.40052" lon="5.08207">
        <ele>440</ele>
        <time>2015-11-06T15:47:26Z</time>
      </trkpt>
      <trkpt lat="44.4005" lon="5.08204">
        <ele>441</ele>
        <time>2015-11-06T15:47:37Z</time>
      </trkpt>
      <trkpt lat="44.40048" lon="5.082">
        <ele>441</ele>
        <time>2015-11-06T15:47:48Z</time>
      </trkpt>
      <trkpt lat="44.40045" lon="5.08197">
        <ele>442</ele>
        <time>2015-11-06T15:47:59Z</time>
      </trkpt>
      <trkpt lat="44.40045" lon="5.08198">
        <ele>440</ele>
        <time>2015-11-06T15:48:10Z</time>
      </trkpt>
      <trkpt lat="44.40045" lon="5.08198">
        <ele>439</ele>
        <time>2015-11-06T15:48:14Z</time>
      </trkpt>
      <trkpt lat="44.40046" lon="5.08197">
        <ele>438</ele>
        <time>2015-11-06T15:48:22Z</time>
      </trkpt>
      <trkpt lat="44.40048" lon="5.08199">
        <ele>438</ele>
        <time>2015-11-06T15:48:26Z</time>
      </trkpt>
      <trkpt lat="44.4005" lon="5.08207">
        <ele>439</ele>
        <time>2015-11-06T15:48:36Z</time>
      </trkpt>
      <trkpt lat="44.40052" lon="5.08209">
        <ele>439</ele>
        <time>2015-11-06T15:48:47Z</time>
      </trkpt>
      <trkpt lat="44.40054" lon="5.08225">
        <ele>439</ele>
        <time>2015-11-06T15:49:00Z</time>
      </trkpt>
      <trkpt lat="44.40059" lon="5.08237">
        <ele>441</ele>
        <time>2015-11-06T15:49:11Z</time>
      </trkpt>
      <trkpt lat="44.40065" lon="5.08245">
        <ele>442</ele>
        <time>2015-11-06T15:49:20Z</time>
      </trkpt>
      <trkpt lat="44.40073" lon="5.08254">
        <ele>443</ele>
        <time>2015-11-06T15:49:31Z</time>
      </trkpt>
      <trkpt lat="44.40082" lon="5.08266">
        <ele>443</ele>
        <time>2015-11-06T15:49:43Z</time>
      </trkpt>
      <trkpt lat="44.40091" lon="5.08272">
        <ele>444</ele>
        <time>2015-11-06T15:49:54Z</time>
      </trkpt>
      <trkpt lat="44.40097" lon="5.08279">
        <ele>445</ele>
        <time>2015-11-06T15:50:04Z</time>
      </trkpt>
      <trkpt lat="44.40098" lon="5.08285">
        <ele>445</ele>
        <time>2015-11-06T15:50:15Z</time>
      </trkpt>
      <trkpt lat="44.40099" lon="5.08286">
        <ele>445</ele>
        <time>2015-11-06T15:50:26Z</time>
      </trkpt>
      <trkpt lat="44.40098" lon="5.08286">
        <ele>445</ele>
        <time>2015-11-06T15:50:29Z</time>
      </trkpt>
      <trkpt lat="44.40098" lon="5.08286">
        <ele>445</ele>
        <time>2015-11-06T15:50:32Z</time>
      </trkpt>
      <trkpt lat="44.40098" lon="5.08286">
        <ele>445</ele>
        <time>2015-11-06T15:50:35Z</time>
      </trkpt>
      <trkpt lat="44.40098" lon="5.08286">
        <ele>445</ele>
        <time>2015-11-06T15:50:38Z</time>
      </trkpt>
      <trkpt lat="44.40098" lon="5.08286">
        <ele>445</ele>
        <time>2015-11-06T15:50:41Z</time>
      </trkpt>
      <trkpt lat="44.40098" lon="5.08286">
        <ele>445</ele>
        <time>2015-11-06T15:50:44Z</time>
      </trkpt>
      <trkpt lat="44.40098" lon="5.08286">
        <ele>445</ele>
        <time>2015-11-06T15:50:47Z</time>
      </trkpt>
      <trkpt lat="44.40098" lon="5.08286">
        <ele>445</ele>
        <time>2015-11-06T15:50:50Z</time>
      </trkpt>
      <trkpt lat="44.40098" lon="5.08286">
        <ele>445</ele>
        <time>2015-11-06T15:50:53Z</time>
      </trkpt>
      <trkpt lat="44.40098" lon="5.08286">
        <ele>445</ele>
        <time>2015-11-06T15:50:56Z</time>
      </trkpt>
      <trkpt lat="44.40098" lon="5.08286">
        <ele>445</ele>
        <time>2015-11-06T15:50:59Z</time>
      </trkpt>
      <trkpt lat="44.40098" lon="5.08286">
        <ele>445</ele>
        <time>2015-11-06T15:51:02Z</time>
      </trkpt>
      <trkpt lat="44.40098" lon="5.08286">
        <ele>445</ele>
        <time>2015-11-06T15:51:05Z</time>
      </trkpt>
      <trkpt lat="44.40098" lon="5.08287">
        <ele>445</ele>
        <time>2015-11-06T15:51:08Z</time>
      </trkpt>
      <trkpt lat="44.40098" lon="5.08287">
        <ele>445</ele>
        <time>2015-11-06T15:51:11Z</time>
      </trkpt>
      <trkpt lat="44.40098" lon="5.08287">
        <ele>445</ele>
        <time>2015-11-06T15:51:14Z</time>
      </trkpt>
      <trkpt lat="44.40098" lon="5.08287">
        <ele>445</ele>
        <time>2015-11-06T15:51:18Z</time>
      </trkpt>
      <trkpt lat="44.40098" lon="5.08287">
        <ele>445</ele>
        <time>2015-11-06T15:51:20Z</time>
      </trkpt>
      <trkpt lat="44.40098" lon="5.08287">
        <ele>445</ele>
        <time>2015-11-06T15:51:24Z</time>
      </trkpt>
      <trkpt lat="44.40098" lon="5.08287">
        <ele>445</ele>
        <time>2015-11-06T15:51:26Z</time>
      </trkpt>
      <trkpt lat="44.40098" lon="5.08287">
        <ele>445</ele>
        <time>2015-11-06T15:51:29Z</time>
      </trkpt>
      <trkpt lat="44.40098" lon="5.08287">
        <ele>445</ele>
        <time>2015-11-06T15:51:32Z</time>
      </trkpt>
      <trkpt lat="44.40098" lon="5.08287">
        <ele>445</ele>
        <time>2015-11-06T15:51:36Z</time>
      </trkpt>
      <trkpt lat="44.40098" lon="5.08287">
        <ele>445</ele>
        <time>2015-11-06T15:51:38Z</time>
      </trkpt>
      <trkpt lat="44.40098" lon="5.08287">
        <ele>445</ele>
        <time>2015-11-06T15:51:42Z</time>
      </trkpt>
      <trkpt lat="44.40098" lon="5.08287">
        <ele>445</ele>
        <time>2015-11-06T15:51:44Z</time>
      </trkpt>
      <trkpt lat="44.40098" lon="5.08287">
        <ele>445</ele>
        <time>2015-11-06T15:51:47Z</time>
      </trkpt>
      <trkpt lat="44.40098" lon="5.08287">
        <ele>445</ele>
        <time>2015-11-06T15:51:50Z</time>
      </trkpt>
      <trkpt lat="44.40098" lon="5.08287">
        <ele>445</ele>
        <time>2015-11-06T15:51:53Z</time>
      </trkpt>
      <trkpt lat="44.40098" lon="5.08287">
        <ele>445</ele>
        <time>2015-11-06T15:51:56Z</time>
      </trkpt>
      <trkpt lat="44.40098" lon="5.08287">
        <ele>445</ele>
        <time>2015-11-06T15:51:59Z</time>
      </trkpt>
      <trkpt lat="44.40098" lon="5.08287">
        <ele>445</ele>
        <time>2015-11-06T15:52:02Z</time>
      </trkpt>
      <trkpt lat="44.40098" lon="5.08287">
        <ele>445</ele>
        <time>2015-11-06T15:52:05Z</time>
      </trkpt>
      <trkpt lat="44.40098" lon="5.08287">
        <ele>445</ele>
        <time>2015-11-06T15:52:08Z</time>
      </trkpt>
      <trkpt lat="44.40098" lon="5.08287">
        <ele>445</ele>
        <time>2015-11-06T15:52:11Z</time>
      </trkpt>
      <trkpt lat="44.40098" lon="5.08287">
        <ele>445</ele>
        <time>2015-11-06T15:52:14Z</time>
      </trkpt>
      <trkpt lat="44.40098" lon="5.08287">
        <ele>445</ele>
        <time>2015-11-06T15:52:17Z</time>
      </trkpt>
      <trkpt lat="44.40098" lon="5.08287">
        <ele>445</ele>
        <time>2015-11-06T15:52:20Z</time>
      </trkpt>
      <trkpt lat="44.40098" lon="5.08287">
        <ele>445</ele>
        <time>2015-11-06T15:52:25Z</time>
      </trkpt>
      <trkpt lat="44.40098" lon="5.08287">
        <ele>445</ele>
        <time>2015-11-06T15:52:26Z</time>
      </trkpt>
      <trkpt lat="44.40098" lon="5.08287">
        <ele>445</ele>
        <time>2015-11-06T15:52:29Z</time>
      </trkpt>
      <trkpt lat="44.40098" lon="5.08287">
        <ele>445</ele>
        <time>2015-11-06T15:52:32Z</time>
      </trkpt>
      <trkpt lat="44.40099" lon="5.08288">
        <ele>446</ele>
        <time>2015-11-06T15:52:35Z</time>
      </trkpt>
      <trkpt lat="44.40099" lon="5.08288">
        <ele>446</ele>
        <time>2015-11-06T15:52:38Z</time>
      </trkpt>
      <trkpt lat="44.40098" lon="5.0829">
        <ele>445</ele>
        <time>2015-11-06T15:52:41Z</time>
      </trkpt>
      <trkpt lat="44.40098" lon="5.08292">
        <ele>445</ele>
        <time>2015-11-06T15:52:52Z</time>
      </trkpt>
      <trkpt lat="44.40098" lon="5.08292">
        <ele>445</ele>
        <time>2015-11-06T15:52:55Z</time>
      </trkpt>
      <trkpt lat="44.40098" lon="5.08292">
        <ele>445</ele>
        <time>2015-11-06T15:52:58Z</time>
      </trkpt>
      <trkpt lat="44.40098" lon="5.08292">
        <ele>445</ele>
        <time>2015-11-06T15:53:01Z</time>
      </trkpt>
      <trkpt lat="44.40098" lon="5.08292">
        <ele>446</ele>
        <time>2015-11-06T15:53:04Z</time>
      </trkpt>
      <trkpt lat="44.40098" lon="5.08293">
        <ele>446</ele>
        <time>2015-11-06T15:53:07Z</time>
      </trkpt>
      <trkpt lat="44.40098" lon="5.08293">
        <ele>446</ele>
        <time>2015-11-06T15:53:10Z</time>
      </trkpt>
      <trkpt lat="44.40098" lon="5.08293">
        <ele>446</ele>
        <time>2015-11-06T15:53:13Z</time>
      </trkpt>
      <trkpt lat="44.40098" lon="5.08293">
        <ele>446</ele>
        <time>2015-11-06T15:53:16Z</time>
      </trkpt>
      <trkpt lat="44.40097" lon="5.08293">
        <ele>445</ele>
        <time>2015-11-06T15:53:19Z</time>
      </trkpt>
      <trkpt lat="44.40097" lon="5.08293">
        <ele>445</ele>
        <time>2015-11-06T15:53:22Z</time>
      </trkpt>
      <trkpt lat="44.40097" lon="5.08294">
        <ele>445</ele>
        <time>2015-11-06T15:53:25Z</time>
      </trkpt>
      <trkpt lat="44.40097" lon="5.08294">
        <ele>445</ele>
        <time>2015-11-06T15:53:28Z</time>
      </trkpt>
      <trkpt lat="44.40097" lon="5.08294">
        <ele>445</ele>
        <time>2015-11-06T15:53:31Z</time>
      </trkpt>
      <trkpt lat="44.40097" lon="5.08293">
        <ele>445</ele>
        <time>2015-11-06T15:53:34Z</time>
      </trkpt>
      <trkpt lat="44.40097" lon="5.08293">
        <ele>445</ele>
        <time>2015-11-06T15:53:37Z</time>
      </trkpt>
      <trkpt lat="44.40098" lon="5.08292">
        <ele>445</ele>
        <time>2015-11-06T15:53:40Z</time>
      </trkpt>
      <trkpt lat="44.40085" lon="5.08277">
        <ele>445</ele>
        <time>2015-11-06T15:53:51Z</time>
      </trkpt>
    </trkseg>
  </trk>
</gpx>